<?xml version="1.0" encoding="UTF-8" standalone="no" ?>
<gpx xmlns="http://www.topografix.com/GPX/1/1" xmlns:xsi="http://www.w3.org/2001/XMLSchema-instance" xsi:schemaLocation="http://www.topografix.com/GPX/1/1 http://www.topografix.com/GPX/1/1/gpx.xsd" version="1.1" creator="VisuGPX - https://www.visugpx.com">
  <metadata>
    <name>GILHOC SUR ORMEZE 4 Le Col du Mazel</name>
  </metadata>
  <trk>
    <name><![CDATA[GILHOC SUR ORMEZE 4 Le Col du Mazel_1]]></name>
    <extensions>
      <line xmlns="http://www.topografix.com/GPX/gpx_style/0/2">
        <color>0000FF</color>
        <width>4</width>
      </line>
    </extensions>
    <trkseg>
      <trkpt lat="44.98605" lon="4.68788">
        <ele>492</ele>
        <time>2018-05-02T08:27:42+02:00</time>
      </trkpt>
      <trkpt lat="44.98605" lon="4.68745">
        <ele>493</ele>
        <time>2018-05-02T08:27:51+02:00</time>
      </trkpt>
      <trkpt lat="44.98602" lon="4.68731">
        <ele>492</ele>
        <time>2018-05-02T08:27:58+02:00</time>
      </trkpt>
      <trkpt lat="44.98599" lon="4.68717">
        <ele>492</ele>
        <time>2018-05-02T08:28:08+02:00</time>
      </trkpt>
      <trkpt lat="44.98596" lon="4.6871">
        <ele>491</ele>
        <time>2018-05-02T08:28:14+02:00</time>
      </trkpt>
      <trkpt lat="44.98596" lon="4.68708">
        <ele>491</ele>
        <time>2018-05-02T08:28:15+02:00</time>
      </trkpt>
      <trkpt lat="44.98595" lon="4.68691">
        <ele>490</ele>
        <time>2018-05-02T08:28:25+02:00</time>
      </trkpt>
      <trkpt lat="44.98593" lon="4.68685">
        <ele>490</ele>
        <time>2018-05-02T08:28:33+02:00</time>
      </trkpt>
      <trkpt lat="44.98594" lon="4.68673">
        <ele>490</ele>
        <time>2018-05-02T08:28:38+02:00</time>
      </trkpt>
      <trkpt lat="44.98594" lon="4.68665">
        <ele>489</ele>
        <time>2018-05-02T08:28:43+02:00</time>
      </trkpt>
      <trkpt lat="44.98589" lon="4.68643">
        <ele>490</ele>
        <time>2018-05-02T08:28:56+02:00</time>
      </trkpt>
      <trkpt lat="44.98585" lon="4.68626">
        <ele>491</ele>
        <time>2018-05-02T08:29:05+02:00</time>
      </trkpt>
      <trkpt lat="44.98587" lon="4.68612">
        <ele>491</ele>
        <time>2018-05-02T08:29:14+02:00</time>
      </trkpt>
      <trkpt lat="44.986" lon="4.68577">
        <ele>491</ele>
        <time>2018-05-02T08:29:35+02:00</time>
      </trkpt>
      <trkpt lat="44.98606" lon="4.68568">
        <ele>491</ele>
        <time>2018-05-02T08:29:42+02:00</time>
      </trkpt>
      <trkpt lat="44.98616" lon="4.68555">
        <ele>490</ele>
        <time>2018-05-02T08:29:52+02:00</time>
      </trkpt>
      <trkpt lat="44.98627" lon="4.68537">
        <ele>490</ele>
        <time>2018-05-02T08:30:03+02:00</time>
      </trkpt>
      <trkpt lat="44.98637" lon="4.68521">
        <ele>490</ele>
        <time>2018-05-02T08:30:12+02:00</time>
      </trkpt>
      <trkpt lat="44.98644" lon="4.68507">
        <ele>489</ele>
        <time>2018-05-02T08:30:21+02:00</time>
      </trkpt>
      <trkpt lat="44.98652" lon="4.68494">
        <ele>489</ele>
        <time>2018-05-02T08:30:30+02:00</time>
      </trkpt>
      <trkpt lat="44.9866" lon="4.68457">
        <ele>488</ele>
        <time>2018-05-02T08:30:53+02:00</time>
      </trkpt>
      <trkpt lat="44.98662" lon="4.68446">
        <ele>488</ele>
        <time>2018-05-02T08:31:02+02:00</time>
      </trkpt>
      <trkpt lat="44.98662" lon="4.68436">
        <ele>488</ele>
        <time>2018-05-02T08:31:09+02:00</time>
      </trkpt>
      <trkpt lat="44.98662" lon="4.68432">
        <ele>488</ele>
        <time>2018-05-02T08:31:11+02:00</time>
      </trkpt>
      <trkpt lat="44.98662" lon="4.68411">
        <ele>488</ele>
        <time>2018-05-02T08:31:20+02:00</time>
      </trkpt>
      <trkpt lat="44.98663" lon="4.68395">
        <ele>487</ele>
        <time>2018-05-02T08:31:27+02:00</time>
      </trkpt>
      <trkpt lat="44.98663" lon="4.68378">
        <ele>487</ele>
        <time>2018-05-02T08:31:35+02:00</time>
      </trkpt>
      <trkpt lat="44.98666" lon="4.68359">
        <ele>486</ele>
        <time>2018-05-02T08:31:44+02:00</time>
      </trkpt>
      <trkpt lat="44.98666" lon="4.6835">
        <ele>486</ele>
        <time>2018-05-02T08:31:48+02:00</time>
      </trkpt>
      <trkpt lat="44.9867" lon="4.6833">
        <ele>484</ele>
        <time>2018-05-02T08:31:59+02:00</time>
      </trkpt>
      <trkpt lat="44.98673" lon="4.68313">
        <ele>484</ele>
        <time>2018-05-02T08:32:09+02:00</time>
      </trkpt>
      <trkpt lat="44.98678" lon="4.68295">
        <ele>483</ele>
        <time>2018-05-02T08:32:19+02:00</time>
      </trkpt>
      <trkpt lat="44.9868" lon="4.68285">
        <ele>482</ele>
        <time>2018-05-02T08:32:25+02:00</time>
      </trkpt>
      <trkpt lat="44.98682" lon="4.68275">
        <ele>482</ele>
        <time>2018-05-02T08:32:30+02:00</time>
      </trkpt>
      <trkpt lat="44.98683" lon="4.68257">
        <ele>482</ele>
        <time>2018-05-02T08:32:40+02:00</time>
      </trkpt>
      <trkpt lat="44.98685" lon="4.68241">
        <ele>481</ele>
        <time>2018-05-02T08:32:49+02:00</time>
      </trkpt>
      <trkpt lat="44.98685" lon="4.68224">
        <ele>479</ele>
        <time>2018-05-02T08:32:59+02:00</time>
      </trkpt>
      <trkpt lat="44.98685" lon="4.68211">
        <ele>478</ele>
        <time>2018-05-02T08:33:06+02:00</time>
      </trkpt>
      <trkpt lat="44.98684" lon="4.68204">
        <ele>478</ele>
        <time>2018-05-02T08:33:10+02:00</time>
      </trkpt>
      <trkpt lat="44.98679" lon="4.68185">
        <ele>477</ele>
        <time>2018-05-02T08:33:21+02:00</time>
      </trkpt>
      <trkpt lat="44.98674" lon="4.68171">
        <ele>476</ele>
        <time>2018-05-02T08:33:30+02:00</time>
      </trkpt>
      <trkpt lat="44.98669" lon="4.68155">
        <ele>476</ele>
        <time>2018-05-02T08:33:39+02:00</time>
      </trkpt>
      <trkpt lat="44.98664" lon="4.68139">
        <ele>475</ele>
        <time>2018-05-02T08:33:48+02:00</time>
      </trkpt>
      <trkpt lat="44.98659" lon="4.68126">
        <ele>474</ele>
        <time>2018-05-02T08:33:56+02:00</time>
      </trkpt>
      <trkpt lat="44.98653" lon="4.68109">
        <ele>473</ele>
        <time>2018-05-02T08:34:06+02:00</time>
      </trkpt>
      <trkpt lat="44.98649" lon="4.68095">
        <ele>472</ele>
        <time>2018-05-02T08:34:15+02:00</time>
      </trkpt>
      <trkpt lat="44.98648" lon="4.68088">
        <ele>471</ele>
        <time>2018-05-02T08:34:19+02:00</time>
      </trkpt>
      <trkpt lat="44.98648" lon="4.68068">
        <ele>470</ele>
        <time>2018-05-02T08:34:30+02:00</time>
      </trkpt>
      <trkpt lat="44.98649" lon="4.68062">
        <ele>470</ele>
        <time>2018-05-02T08:34:33+02:00</time>
      </trkpt>
      <trkpt lat="44.98652" lon="4.68044">
        <ele>470</ele>
        <time>2018-05-02T08:34:44+02:00</time>
      </trkpt>
      <trkpt lat="44.98654" lon="4.68038">
        <ele>469</ele>
        <time>2018-05-02T08:34:48+02:00</time>
      </trkpt>
      <trkpt lat="44.98654" lon="4.68033">
        <ele>469</ele>
        <time>2018-05-02T08:34:51+02:00</time>
      </trkpt>
      <trkpt lat="44.98661" lon="4.68016">
        <ele>469</ele>
        <time>2018-05-02T08:35:02+02:00</time>
      </trkpt>
      <trkpt lat="44.98669" lon="4.68003">
        <ele>468</ele>
        <time>2018-05-02T08:35:11+02:00</time>
      </trkpt>
      <trkpt lat="44.98671" lon="4.68">
        <ele>468</ele>
        <time>2018-05-02T08:35:13+02:00</time>
      </trkpt>
      <trkpt lat="44.9868" lon="4.67984">
        <ele>467</ele>
        <time>2018-05-02T08:35:23+02:00</time>
      </trkpt>
      <trkpt lat="44.98682" lon="4.6797">
        <ele>466</ele>
        <time>2018-05-02T08:35:31+02:00</time>
      </trkpt>
      <trkpt lat="44.98684" lon="4.67959">
        <ele>466</ele>
        <time>2018-05-02T08:35:39+02:00</time>
      </trkpt>
      <trkpt lat="44.98684" lon="4.67946">
        <ele>465</ele>
        <time>2018-05-02T08:35:48+02:00</time>
      </trkpt>
      <trkpt lat="44.98681" lon="4.67935">
        <ele>465</ele>
        <time>2018-05-02T08:35:55+02:00</time>
      </trkpt>
      <trkpt lat="44.98676" lon="4.67932">
        <ele>465</ele>
        <time>2018-05-02T08:36:00+02:00</time>
      </trkpt>
      <trkpt lat="44.98666" lon="4.67932">
        <ele>466</ele>
        <time>2018-05-02T08:36:09+02:00</time>
      </trkpt>
      <trkpt lat="44.98657" lon="4.67934">
        <ele>466</ele>
        <time>2018-05-02T08:36:17+02:00</time>
      </trkpt>
      <trkpt lat="44.98652" lon="4.67935">
        <ele>466</ele>
        <time>2018-05-02T08:36:23+02:00</time>
      </trkpt>
      <trkpt lat="44.98638" lon="4.6794">
        <ele>466</ele>
        <time>2018-05-02T08:36:31+02:00</time>
      </trkpt>
      <trkpt lat="44.98628" lon="4.67942">
        <ele>466</ele>
        <time>2018-05-02T08:36:38+02:00</time>
      </trkpt>
      <trkpt lat="44.98618" lon="4.67945">
        <ele>467</ele>
        <time>2018-05-02T08:36:45+02:00</time>
      </trkpt>
      <trkpt lat="44.98608" lon="4.67948">
        <ele>467</ele>
        <time>2018-05-02T08:36:53+02:00</time>
      </trkpt>
      <trkpt lat="44.98597" lon="4.67952">
        <ele>467</ele>
        <time>2018-05-02T08:37:01+02:00</time>
      </trkpt>
      <trkpt lat="44.98583" lon="4.67956">
        <ele>467</ele>
        <time>2018-05-02T08:37:10+02:00</time>
      </trkpt>
      <trkpt lat="44.98569" lon="4.67963">
        <ele>469</ele>
        <time>2018-05-02T08:37:20+02:00</time>
      </trkpt>
      <trkpt lat="44.98558" lon="4.67959">
        <ele>471</ele>
        <time>2018-05-02T08:37:28+02:00</time>
      </trkpt>
      <trkpt lat="44.98556" lon="4.67949">
        <ele>471</ele>
        <time>2018-05-02T08:37:34+02:00</time>
      </trkpt>
      <trkpt lat="44.98565" lon="4.67935">
        <ele>469</ele>
        <time>2018-05-02T08:37:44+02:00</time>
      </trkpt>
      <trkpt lat="44.98574" lon="4.67927">
        <ele>468</ele>
        <time>2018-05-02T08:37:52+02:00</time>
      </trkpt>
      <trkpt lat="44.98577" lon="4.67922">
        <ele>467</ele>
        <time>2018-05-02T08:37:56+02:00</time>
      </trkpt>
      <trkpt lat="44.98579" lon="4.67913">
        <ele>467</ele>
        <time>2018-05-02T08:38:01+02:00</time>
      </trkpt>
      <trkpt lat="44.98574" lon="4.67903">
        <ele>467</ele>
        <time>2018-05-02T08:38:09+02:00</time>
      </trkpt>
      <trkpt lat="44.98573" lon="4.67902">
        <ele>467</ele>
        <time>2018-05-02T08:38:10+02:00</time>
      </trkpt>
      <trkpt lat="44.98567" lon="4.67898">
        <ele>468</ele>
        <time>2018-05-02T08:38:14+02:00</time>
      </trkpt>
      <trkpt lat="44.98557" lon="4.67899">
        <ele>469</ele>
        <time>2018-05-02T08:38:23+02:00</time>
      </trkpt>
      <trkpt lat="44.9855" lon="4.67903">
        <ele>470</ele>
        <time>2018-05-02T08:38:29+02:00</time>
      </trkpt>
      <trkpt lat="44.98543" lon="4.67906">
        <ele>471</ele>
        <time>2018-05-02T08:38:36+02:00</time>
      </trkpt>
      <trkpt lat="44.98533" lon="4.67906">
        <ele>472</ele>
        <time>2018-05-02T08:38:43+02:00</time>
      </trkpt>
      <trkpt lat="44.98525" lon="4.67902">
        <ele>473</ele>
        <time>2018-05-02T08:38:52+02:00</time>
      </trkpt>
      <trkpt lat="44.9852" lon="4.679">
        <ele>473</ele>
        <time>2018-05-02T08:38:58+02:00</time>
      </trkpt>
      <trkpt lat="44.98514" lon="4.67895">
        <ele>474</ele>
        <time>2018-05-02T08:39:05+02:00</time>
      </trkpt>
      <trkpt lat="44.98507" lon="4.67889">
        <ele>474</ele>
        <time>2018-05-02T08:39:13+02:00</time>
      </trkpt>
      <trkpt lat="44.98497" lon="4.67884">
        <ele>475</ele>
        <time>2018-05-02T08:39:22+02:00</time>
      </trkpt>
      <trkpt lat="44.98487" lon="4.67881">
        <ele>476</ele>
        <time>2018-05-02T08:39:30+02:00</time>
      </trkpt>
      <trkpt lat="44.98477" lon="4.67878">
        <ele>477</ele>
        <time>2018-05-02T08:39:39+02:00</time>
      </trkpt>
      <trkpt lat="44.98468" lon="4.67877">
        <ele>478</ele>
        <time>2018-05-02T08:39:47+02:00</time>
      </trkpt>
      <trkpt lat="44.98459" lon="4.67877">
        <ele>479</ele>
        <time>2018-05-02T08:39:55+02:00</time>
      </trkpt>
      <trkpt lat="44.98455" lon="4.67876">
        <ele>479</ele>
        <time>2018-05-02T08:39:59+02:00</time>
      </trkpt>
      <trkpt lat="44.98444" lon="4.67875">
        <ele>480</ele>
        <time>2018-05-02T08:40:09+02:00</time>
      </trkpt>
      <trkpt lat="44.98436" lon="4.67877">
        <ele>481</ele>
        <time>2018-05-02T08:40:17+02:00</time>
      </trkpt>
      <trkpt lat="44.98427" lon="4.67875">
        <ele>482</ele>
        <time>2018-05-02T08:40:25+02:00</time>
      </trkpt>
      <trkpt lat="44.98422" lon="4.67874">
        <ele>483</ele>
        <time>2018-05-02T08:40:30+02:00</time>
      </trkpt>
      <trkpt lat="44.98411" lon="4.6787">
        <ele>484</ele>
        <time>2018-05-02T08:40:40+02:00</time>
      </trkpt>
      <trkpt lat="44.98408" lon="4.67876">
        <ele>486</ele>
        <time>2018-05-02T08:40:47+02:00</time>
      </trkpt>
      <trkpt lat="44.98409" lon="4.6788">
        <ele>486</ele>
        <time>2018-05-02T08:40:58+02:00</time>
      </trkpt>
      <trkpt lat="44.98413" lon="4.67887">
        <ele>486</ele>
        <time>2018-05-02T08:41:07+02:00</time>
      </trkpt>
      <trkpt lat="44.98418" lon="4.67896">
        <ele>486</ele>
        <time>2018-05-02T08:41:16+02:00</time>
      </trkpt>
      <trkpt lat="44.98424" lon="4.67903">
        <ele>486</ele>
        <time>2018-05-02T08:41:24+02:00</time>
      </trkpt>
      <trkpt lat="44.98425" lon="4.67904">
        <ele>486</ele>
        <time>2018-05-02T08:41:25+02:00</time>
      </trkpt>
      <trkpt lat="44.98432" lon="4.67912">
        <ele>486</ele>
        <time>2018-05-02T08:41:34+02:00</time>
      </trkpt>
      <trkpt lat="44.98438" lon="4.67923">
        <ele>486</ele>
        <time>2018-05-02T08:41:43+02:00</time>
      </trkpt>
      <trkpt lat="44.98439" lon="4.67925">
        <ele>486</ele>
        <time>2018-05-02T08:41:44+02:00</time>
      </trkpt>
      <trkpt lat="44.98442" lon="4.67939">
        <ele>487</ele>
        <time>2018-05-02T08:41:53+02:00</time>
      </trkpt>
      <trkpt lat="44.98435" lon="4.67944">
        <ele>489</ele>
        <time>2018-05-02T08:42:01+02:00</time>
      </trkpt>
      <trkpt lat="44.98429" lon="4.67941">
        <ele>489</ele>
        <time>2018-05-02T08:42:08+02:00</time>
      </trkpt>
      <trkpt lat="44.98423" lon="4.6794">
        <ele>490</ele>
        <time>2018-05-02T08:42:15+02:00</time>
      </trkpt>
      <trkpt lat="44.9842" lon="4.67938">
        <ele>491</ele>
        <time>2018-05-02T08:42:19+02:00</time>
      </trkpt>
      <trkpt lat="44.98412" lon="4.67932">
        <ele>492</ele>
        <time>2018-05-02T08:42:27+02:00</time>
      </trkpt>
      <trkpt lat="44.98404" lon="4.67929">
        <ele>493</ele>
        <time>2018-05-02T08:42:35+02:00</time>
      </trkpt>
      <trkpt lat="44.98396" lon="4.67926">
        <ele>495</ele>
        <time>2018-05-02T08:42:42+02:00</time>
      </trkpt>
      <trkpt lat="44.98388" lon="4.67925">
        <ele>496</ele>
        <time>2018-05-02T08:42:50+02:00</time>
      </trkpt>
      <trkpt lat="44.98381" lon="4.67922">
        <ele>498</ele>
        <time>2018-05-02T08:42:58+02:00</time>
      </trkpt>
      <trkpt lat="44.98375" lon="4.6792">
        <ele>499</ele>
        <time>2018-05-02T08:43:06+02:00</time>
      </trkpt>
      <trkpt lat="44.98366" lon="4.67916">
        <ele>501</ele>
        <time>2018-05-02T08:43:16+02:00</time>
      </trkpt>
      <trkpt lat="44.98358" lon="4.67911">
        <ele>502</ele>
        <time>2018-05-02T08:43:24+02:00</time>
      </trkpt>
      <trkpt lat="44.98357" lon="4.67911">
        <ele>502</ele>
        <time>2018-05-02T08:43:25+02:00</time>
      </trkpt>
      <trkpt lat="44.98351" lon="4.6791">
        <ele>503</ele>
        <time>2018-05-02T08:43:32+02:00</time>
      </trkpt>
      <trkpt lat="44.98343" lon="4.6791">
        <ele>505</ele>
        <time>2018-05-02T08:43:40+02:00</time>
      </trkpt>
      <trkpt lat="44.98337" lon="4.67909">
        <ele>506</ele>
        <time>2018-05-02T08:43:47+02:00</time>
      </trkpt>
      <trkpt lat="44.98332" lon="4.6791">
        <ele>508</ele>
        <time>2018-05-02T08:43:53+02:00</time>
      </trkpt>
      <trkpt lat="44.98328" lon="4.67909">
        <ele>508</ele>
        <time>2018-05-02T08:43:57+02:00</time>
      </trkpt>
      <trkpt lat="44.9832" lon="4.67908">
        <ele>510</ele>
        <time>2018-05-02T08:44:05+02:00</time>
      </trkpt>
      <trkpt lat="44.98313" lon="4.67909">
        <ele>511</ele>
        <time>2018-05-02T08:44:12+02:00</time>
      </trkpt>
      <trkpt lat="44.98308" lon="4.67911">
        <ele>512</ele>
        <time>2018-05-02T08:44:18+02:00</time>
      </trkpt>
      <trkpt lat="44.98307" lon="4.67912">
        <ele>512</ele>
        <time>2018-05-02T08:44:19+02:00</time>
      </trkpt>
      <trkpt lat="44.98299" lon="4.67917">
        <ele>514</ele>
        <time>2018-05-02T08:44:27+02:00</time>
      </trkpt>
      <trkpt lat="44.98291" lon="4.67922">
        <ele>515</ele>
        <time>2018-05-02T08:44:36+02:00</time>
      </trkpt>
      <trkpt lat="44.98282" lon="4.67928">
        <ele>516</ele>
        <time>2018-05-02T08:44:44+02:00</time>
      </trkpt>
      <trkpt lat="44.98276" lon="4.67931">
        <ele>517</ele>
        <time>2018-05-02T08:44:51+02:00</time>
      </trkpt>
      <trkpt lat="44.9827" lon="4.67935">
        <ele>518</ele>
        <time>2018-05-02T08:44:58+02:00</time>
      </trkpt>
      <trkpt lat="44.98263" lon="4.6794">
        <ele>519</ele>
        <time>2018-05-02T08:45:07+02:00</time>
      </trkpt>
      <trkpt lat="44.98255" lon="4.67944">
        <ele>520</ele>
        <time>2018-05-02T08:45:16+02:00</time>
      </trkpt>
      <trkpt lat="44.98247" lon="4.67947">
        <ele>521</ele>
        <time>2018-05-02T08:45:25+02:00</time>
      </trkpt>
      <trkpt lat="44.98238" lon="4.6795">
        <ele>522</ele>
        <time>2018-05-02T08:45:34+02:00</time>
      </trkpt>
      <trkpt lat="44.98229" lon="4.67951">
        <ele>523</ele>
        <time>2018-05-02T08:45:43+02:00</time>
      </trkpt>
      <trkpt lat="44.98222" lon="4.6795">
        <ele>525</ele>
        <time>2018-05-02T08:45:50+02:00</time>
      </trkpt>
      <trkpt lat="44.98212" lon="4.67949">
        <ele>526</ele>
        <time>2018-05-02T08:46:00+02:00</time>
      </trkpt>
      <trkpt lat="44.98203" lon="4.67946">
        <ele>528</ele>
        <time>2018-05-02T08:46:08+02:00</time>
      </trkpt>
      <trkpt lat="44.98197" lon="4.67945">
        <ele>529</ele>
        <time>2018-05-02T08:46:16+02:00</time>
      </trkpt>
      <trkpt lat="44.9819" lon="4.6794">
        <ele>530</ele>
        <time>2018-05-02T08:46:24+02:00</time>
      </trkpt>
      <trkpt lat="44.98183" lon="4.67936">
        <ele>532</ele>
        <time>2018-05-02T08:46:32+02:00</time>
      </trkpt>
      <trkpt lat="44.98177" lon="4.67931">
        <ele>533</ele>
        <time>2018-05-02T08:46:40+02:00</time>
      </trkpt>
      <trkpt lat="44.98172" lon="4.67932">
        <ele>533</ele>
        <time>2018-05-02T08:46:50+02:00</time>
      </trkpt>
      <trkpt lat="44.98172" lon="4.67935">
        <ele>533</ele>
        <time>2018-05-02T08:46:59+02:00</time>
      </trkpt>
      <trkpt lat="44.98173" lon="4.67937">
        <ele>533</ele>
        <time>2018-05-02T08:47:18+02:00</time>
      </trkpt>
      <trkpt lat="44.98176" lon="4.67936">
        <ele>533</ele>
        <time>2018-05-02T08:47:27+02:00</time>
      </trkpt>
      <trkpt lat="44.98177" lon="4.6793">
        <ele>533</ele>
        <time>2018-05-02T08:47:40+02:00</time>
      </trkpt>
      <trkpt lat="44.98167" lon="4.67924">
        <ele>535</ele>
        <time>2018-05-02T08:47:47+02:00</time>
      </trkpt>
      <trkpt lat="44.98159" lon="4.67922">
        <ele>536</ele>
        <time>2018-05-02T08:47:54+02:00</time>
      </trkpt>
      <trkpt lat="44.98152" lon="4.67917">
        <ele>538</ele>
        <time>2018-05-02T08:48:02+02:00</time>
      </trkpt>
      <trkpt lat="44.98142" lon="4.67913">
        <ele>540</ele>
        <time>2018-05-02T08:48:12+02:00</time>
      </trkpt>
      <trkpt lat="44.98136" lon="4.67905">
        <ele>541</ele>
        <time>2018-05-02T08:48:22+02:00</time>
      </trkpt>
      <trkpt lat="44.98134" lon="4.67902">
        <ele>542</ele>
        <time>2018-05-02T08:48:26+02:00</time>
      </trkpt>
      <trkpt lat="44.98132" lon="4.67899">
        <ele>542</ele>
        <time>2018-05-02T08:48:28+02:00</time>
      </trkpt>
      <trkpt lat="44.98128" lon="4.67889">
        <ele>543</ele>
        <time>2018-05-02T08:48:37+02:00</time>
      </trkpt>
      <trkpt lat="44.98124" lon="4.67878">
        <ele>544</ele>
        <time>2018-05-02T08:48:45+02:00</time>
      </trkpt>
      <trkpt lat="44.98122" lon="4.67872">
        <ele>544</ele>
        <time>2018-05-02T08:48:51+02:00</time>
      </trkpt>
      <trkpt lat="44.98119" lon="4.67864">
        <ele>544</ele>
        <time>2018-05-02T08:48:59+02:00</time>
      </trkpt>
      <trkpt lat="44.98113" lon="4.67855">
        <ele>545</ele>
        <time>2018-05-02T08:49:08+02:00</time>
      </trkpt>
      <trkpt lat="44.98104" lon="4.67844">
        <ele>547</ele>
        <time>2018-05-02T08:49:18+02:00</time>
      </trkpt>
      <trkpt lat="44.98099" lon="4.67838">
        <ele>548</ele>
        <time>2018-05-02T08:49:25+02:00</time>
      </trkpt>
      <trkpt lat="44.98094" lon="4.67834">
        <ele>549</ele>
        <time>2018-05-02T08:49:32+02:00</time>
      </trkpt>
      <trkpt lat="44.98093" lon="4.67834">
        <ele>549</ele>
        <time>2018-05-02T08:49:33+02:00</time>
      </trkpt>
      <trkpt lat="44.9809" lon="4.6783">
        <ele>550</ele>
        <time>2018-05-02T08:49:37+02:00</time>
      </trkpt>
      <trkpt lat="44.98084" lon="4.67823">
        <ele>550</ele>
        <time>2018-05-02T08:49:45+02:00</time>
      </trkpt>
      <trkpt lat="44.98079" lon="4.67819">
        <ele>551</ele>
        <time>2018-05-02T08:49:52+02:00</time>
      </trkpt>
      <trkpt lat="44.98074" lon="4.67814">
        <ele>552</ele>
        <time>2018-05-02T08:49:59+02:00</time>
      </trkpt>
      <trkpt lat="44.98066" lon="4.6781">
        <ele>553</ele>
        <time>2018-05-02T08:50:07+02:00</time>
      </trkpt>
      <trkpt lat="44.9806" lon="4.67807">
        <ele>554</ele>
        <time>2018-05-02T08:50:15+02:00</time>
      </trkpt>
      <trkpt lat="44.98056" lon="4.67803">
        <ele>554</ele>
        <time>2018-05-02T08:50:23+02:00</time>
      </trkpt>
      <trkpt lat="44.9805" lon="4.67804">
        <ele>555</ele>
        <time>2018-05-02T08:50:32+02:00</time>
      </trkpt>
      <trkpt lat="44.9804" lon="4.67796">
        <ele>557</ele>
        <time>2018-05-02T08:50:43+02:00</time>
      </trkpt>
      <trkpt lat="44.98034" lon="4.67787">
        <ele>557</ele>
        <time>2018-05-02T08:50:52+02:00</time>
      </trkpt>
      <trkpt lat="44.98027" lon="4.67777">
        <ele>558</ele>
        <time>2018-05-02T08:51:01+02:00</time>
      </trkpt>
      <trkpt lat="44.98019" lon="4.67768">
        <ele>558</ele>
        <time>2018-05-02T08:51:09+02:00</time>
      </trkpt>
      <trkpt lat="44.98011" lon="4.6776">
        <ele>559</ele>
        <time>2018-05-02T08:51:16+02:00</time>
      </trkpt>
      <trkpt lat="44.98003" lon="4.67752">
        <ele>560</ele>
        <time>2018-05-02T08:51:24+02:00</time>
      </trkpt>
      <trkpt lat="44.97991" lon="4.67747">
        <ele>561</ele>
        <time>2018-05-02T08:51:34+02:00</time>
      </trkpt>
      <trkpt lat="44.97989" lon="4.67747">
        <ele>562</ele>
        <time>2018-05-02T08:51:36+02:00</time>
      </trkpt>
      <trkpt lat="44.9798" lon="4.67748">
        <ele>564</ele>
        <time>2018-05-02T08:51:44+02:00</time>
      </trkpt>
      <trkpt lat="44.97972" lon="4.67751">
        <ele>566</ele>
        <time>2018-05-02T08:51:53+02:00</time>
      </trkpt>
      <trkpt lat="44.97964" lon="4.67754">
        <ele>568</ele>
        <time>2018-05-02T08:52:01+02:00</time>
      </trkpt>
      <trkpt lat="44.97964" lon="4.67766">
        <ele>569</ele>
        <time>2018-05-02T08:52:10+02:00</time>
      </trkpt>
      <trkpt lat="44.97965" lon="4.67771">
        <ele>569</ele>
        <time>2018-05-02T08:52:14+02:00</time>
      </trkpt>
      <trkpt lat="44.97963" lon="4.6778">
        <ele>570</ele>
        <time>2018-05-02T08:52:21+02:00</time>
      </trkpt>
      <trkpt lat="44.97956" lon="4.67782">
        <ele>572</ele>
        <time>2018-05-02T08:52:28+02:00</time>
      </trkpt>
      <trkpt lat="44.97947" lon="4.67783">
        <ele>574</ele>
        <time>2018-05-02T08:52:37+02:00</time>
      </trkpt>
      <trkpt lat="44.9794" lon="4.67788">
        <ele>576</ele>
        <time>2018-05-02T08:52:45+02:00</time>
      </trkpt>
      <trkpt lat="44.97941" lon="4.67801">
        <ele>577</ele>
        <time>2018-05-02T08:52:53+02:00</time>
      </trkpt>
      <trkpt lat="44.97942" lon="4.67813">
        <ele>578</ele>
        <time>2018-05-02T08:53:00+02:00</time>
      </trkpt>
      <trkpt lat="44.97943" lon="4.67816">
        <ele>578</ele>
        <time>2018-05-02T08:53:02+02:00</time>
      </trkpt>
      <trkpt lat="44.97946" lon="4.67835">
        <ele>579</ele>
        <time>2018-05-02T08:53:12+02:00</time>
      </trkpt>
      <trkpt lat="44.97947" lon="4.67853">
        <ele>579</ele>
        <time>2018-05-02T08:53:22+02:00</time>
      </trkpt>
      <trkpt lat="44.97949" lon="4.67867">
        <ele>578</ele>
        <time>2018-05-02T08:53:30+02:00</time>
      </trkpt>
      <trkpt lat="44.97953" lon="4.67878">
        <ele>577</ele>
        <time>2018-05-02T08:53:38+02:00</time>
      </trkpt>
      <trkpt lat="44.97954" lon="4.6789">
        <ele>577</ele>
        <time>2018-05-02T08:53:46+02:00</time>
      </trkpt>
      <trkpt lat="44.97955" lon="4.67902">
        <ele>577</ele>
        <time>2018-05-02T08:53:53+02:00</time>
      </trkpt>
      <trkpt lat="44.97956" lon="4.67911">
        <ele>577</ele>
        <time>2018-05-02T08:53:58+02:00</time>
      </trkpt>
      <trkpt lat="44.97952" lon="4.67925">
        <ele>577</ele>
        <time>2018-05-02T08:54:06+02:00</time>
      </trkpt>
      <trkpt lat="44.97947" lon="4.67935">
        <ele>578</ele>
        <time>2018-05-02T08:54:14+02:00</time>
      </trkpt>
      <trkpt lat="44.97938" lon="4.6794">
        <ele>579</ele>
        <time>2018-05-02T08:54:22+02:00</time>
      </trkpt>
      <trkpt lat="44.97931" lon="4.67938">
        <ele>581</ele>
        <time>2018-05-02T08:54:30+02:00</time>
      </trkpt>
      <trkpt lat="44.97927" lon="4.6793">
        <ele>582</ele>
        <time>2018-05-02T08:54:38+02:00</time>
      </trkpt>
      <trkpt lat="44.97926" lon="4.67928">
        <ele>582</ele>
        <time>2018-05-02T08:54:40+02:00</time>
      </trkpt>
      <trkpt lat="44.97923" lon="4.67921">
        <ele>583</ele>
        <time>2018-05-02T08:54:48+02:00</time>
      </trkpt>
      <trkpt lat="44.97919" lon="4.67915">
        <ele>584</ele>
        <time>2018-05-02T08:54:57+02:00</time>
      </trkpt>
      <trkpt lat="44.97917" lon="4.67912">
        <ele>585</ele>
        <time>2018-05-02T08:55:03+02:00</time>
      </trkpt>
      <trkpt lat="44.97912" lon="4.67901">
        <ele>587</ele>
        <time>2018-05-02T08:55:11+02:00</time>
      </trkpt>
      <trkpt lat="44.97908" lon="4.67893">
        <ele>588</ele>
        <time>2018-05-02T08:55:19+02:00</time>
      </trkpt>
      <trkpt lat="44.97904" lon="4.67882">
        <ele>590</ele>
        <time>2018-05-02T08:55:28+02:00</time>
      </trkpt>
      <trkpt lat="44.97902" lon="4.67877">
        <ele>590</ele>
        <time>2018-05-02T08:55:36+02:00</time>
      </trkpt>
      <trkpt lat="44.97899" lon="4.67873">
        <ele>592</ele>
        <time>2018-05-02T08:55:46+02:00</time>
      </trkpt>
      <trkpt lat="44.97894" lon="4.67882">
        <ele>593</ele>
        <time>2018-05-02T08:55:53+02:00</time>
      </trkpt>
      <trkpt lat="44.9789" lon="4.67895">
        <ele>595</ele>
        <time>2018-05-02T08:56:02+02:00</time>
      </trkpt>
      <trkpt lat="44.97888" lon="4.67905">
        <ele>595</ele>
        <time>2018-05-02T08:56:10+02:00</time>
      </trkpt>
      <trkpt lat="44.97885" lon="4.67913">
        <ele>596</ele>
        <time>2018-05-02T08:56:18+02:00</time>
      </trkpt>
      <trkpt lat="44.97881" lon="4.67919">
        <ele>597</ele>
        <time>2018-05-02T08:56:25+02:00</time>
      </trkpt>
      <trkpt lat="44.97872" lon="4.67925">
        <ele>600</ele>
        <time>2018-05-02T08:56:34+02:00</time>
      </trkpt>
      <trkpt lat="44.97865" lon="4.67927">
        <ele>602</ele>
        <time>2018-05-02T08:56:43+02:00</time>
      </trkpt>
      <trkpt lat="44.97858" lon="4.67928">
        <ele>605</ele>
        <time>2018-05-02T08:56:50+02:00</time>
      </trkpt>
      <trkpt lat="44.97851" lon="4.67928">
        <ele>607</ele>
        <time>2018-05-02T08:56:58+02:00</time>
      </trkpt>
      <trkpt lat="44.97844" lon="4.67923">
        <ele>610</ele>
        <time>2018-05-02T08:57:09+02:00</time>
      </trkpt>
      <trkpt lat="44.97838" lon="4.6792">
        <ele>612</ele>
        <time>2018-05-02T08:57:16+02:00</time>
      </trkpt>
      <trkpt lat="44.97837" lon="4.67915">
        <ele>613</ele>
        <time>2018-05-02T08:57:28+02:00</time>
      </trkpt>
      <trkpt lat="44.97836" lon="4.67917">
        <ele>613</ele>
        <time>2018-05-02T08:57:37+02:00</time>
      </trkpt>
      <trkpt lat="44.9783" lon="4.67922">
        <ele>615</ele>
        <time>2018-05-02T08:58:02+02:00</time>
      </trkpt>
      <trkpt lat="44.97829" lon="4.67925">
        <ele>615</ele>
        <time>2018-05-02T08:58:21+02:00</time>
      </trkpt>
      <trkpt lat="44.97831" lon="4.67921">
        <ele>614</ele>
        <time>2018-05-02T08:58:34+02:00</time>
      </trkpt>
      <trkpt lat="44.97831" lon="4.67918">
        <ele>615</ele>
        <time>2018-05-02T08:58:50+02:00</time>
      </trkpt>
      <trkpt lat="44.97836" lon="4.67909">
        <ele>613</ele>
        <time>2018-05-02T08:59:04+02:00</time>
      </trkpt>
      <trkpt lat="44.97835" lon="4.67904">
        <ele>614</ele>
        <time>2018-05-02T08:59:09+02:00</time>
      </trkpt>
      <trkpt lat="44.97838" lon="4.6789">
        <ele>613</ele>
        <time>2018-05-02T08:59:18+02:00</time>
      </trkpt>
      <trkpt lat="44.97839" lon="4.67878">
        <ele>613</ele>
        <time>2018-05-02T08:59:26+02:00</time>
      </trkpt>
      <trkpt lat="44.97833" lon="4.67866">
        <ele>615</ele>
        <time>2018-05-02T08:59:33+02:00</time>
      </trkpt>
      <trkpt lat="44.97827" lon="4.67852">
        <ele>618</ele>
        <time>2018-05-02T08:59:43+02:00</time>
      </trkpt>
      <trkpt lat="44.97817" lon="4.67843">
        <ele>621</ele>
        <time>2018-05-02T08:59:51+02:00</time>
      </trkpt>
      <trkpt lat="44.97808" lon="4.67837">
        <ele>624</ele>
        <time>2018-05-02T09:00:00+02:00</time>
      </trkpt>
      <trkpt lat="44.97802" lon="4.67831">
        <ele>625</ele>
        <time>2018-05-02T09:00:08+02:00</time>
      </trkpt>
      <trkpt lat="44.97799" lon="4.67834">
        <ele>627</ele>
        <time>2018-05-02T09:00:18+02:00</time>
      </trkpt>
      <trkpt lat="44.97795" lon="4.67851">
        <ele>628</ele>
        <time>2018-05-02T09:00:27+02:00</time>
      </trkpt>
      <trkpt lat="44.97789" lon="4.67862">
        <ele>629</ele>
        <time>2018-05-02T09:00:36+02:00</time>
      </trkpt>
      <trkpt lat="44.97786" lon="4.67871">
        <ele>630</ele>
        <time>2018-05-02T09:00:46+02:00</time>
      </trkpt>
      <trkpt lat="44.97783" lon="4.67882">
        <ele>631</ele>
        <time>2018-05-02T09:00:56+02:00</time>
      </trkpt>
      <trkpt lat="44.97778" lon="4.67893">
        <ele>633</ele>
        <time>2018-05-02T09:01:05+02:00</time>
      </trkpt>
      <trkpt lat="44.97773" lon="4.67905">
        <ele>634</ele>
        <time>2018-05-02T09:01:15+02:00</time>
      </trkpt>
      <trkpt lat="44.97768" lon="4.67916">
        <ele>636</ele>
        <time>2018-05-02T09:01:23+02:00</time>
      </trkpt>
      <trkpt lat="44.97764" lon="4.67927">
        <ele>636</ele>
        <time>2018-05-02T09:01:32+02:00</time>
      </trkpt>
      <trkpt lat="44.97763" lon="4.67934">
        <ele>636</ele>
        <time>2018-05-02T09:01:39+02:00</time>
      </trkpt>
      <trkpt lat="44.97761" lon="4.67941">
        <ele>637</ele>
        <time>2018-05-02T09:01:48+02:00</time>
      </trkpt>
      <trkpt lat="44.97756" lon="4.67951">
        <ele>638</ele>
        <time>2018-05-02T09:01:57+02:00</time>
      </trkpt>
      <trkpt lat="44.97746" lon="4.67957">
        <ele>640</ele>
        <time>2018-05-02T09:02:05+02:00</time>
      </trkpt>
      <trkpt lat="44.97742" lon="4.67954">
        <ele>641</ele>
        <time>2018-05-02T09:02:12+02:00</time>
      </trkpt>
      <trkpt lat="44.97735" lon="4.67945">
        <ele>643</ele>
        <time>2018-05-02T09:02:22+02:00</time>
      </trkpt>
      <trkpt lat="44.97731" lon="4.67942">
        <ele>644</ele>
        <time>2018-05-02T09:02:28+02:00</time>
      </trkpt>
      <trkpt lat="44.97727" lon="4.67938">
        <ele>645</ele>
        <time>2018-05-02T09:02:37+02:00</time>
      </trkpt>
      <trkpt lat="44.97722" lon="4.67933">
        <ele>646</ele>
        <time>2018-05-02T09:02:45+02:00</time>
      </trkpt>
      <trkpt lat="44.97716" lon="4.67925">
        <ele>649</ele>
        <time>2018-05-02T09:02:54+02:00</time>
      </trkpt>
      <trkpt lat="44.97711" lon="4.67921">
        <ele>650</ele>
        <time>2018-05-02T09:03:00+02:00</time>
      </trkpt>
      <trkpt lat="44.97704" lon="4.67914">
        <ele>653</ele>
        <time>2018-05-02T09:03:11+02:00</time>
      </trkpt>
      <trkpt lat="44.97698" lon="4.67907">
        <ele>654</ele>
        <time>2018-05-02T09:03:20+02:00</time>
      </trkpt>
      <trkpt lat="44.97692" lon="4.67901">
        <ele>656</ele>
        <time>2018-05-02T09:03:28+02:00</time>
      </trkpt>
      <trkpt lat="44.97686" lon="4.67893">
        <ele>657</ele>
        <time>2018-05-02T09:03:37+02:00</time>
      </trkpt>
      <trkpt lat="44.97682" lon="4.67886">
        <ele>659</ele>
        <time>2018-05-02T09:03:46+02:00</time>
      </trkpt>
      <trkpt lat="44.97679" lon="4.67881">
        <ele>660</ele>
        <time>2018-05-02T09:03:55+02:00</time>
      </trkpt>
      <trkpt lat="44.97674" lon="4.67872">
        <ele>661</ele>
        <time>2018-05-02T09:04:03+02:00</time>
      </trkpt>
      <trkpt lat="44.97671" lon="4.67863">
        <ele>663</ele>
        <time>2018-05-02T09:04:13+02:00</time>
      </trkpt>
      <trkpt lat="44.97669" lon="4.67858">
        <ele>663</ele>
        <time>2018-05-02T09:04:27+02:00</time>
      </trkpt>
      <trkpt lat="44.97664" lon="4.6785">
        <ele>664</ele>
        <time>2018-05-02T09:04:43+02:00</time>
      </trkpt>
      <trkpt lat="44.9766" lon="4.67848">
        <ele>665</ele>
        <time>2018-05-02T09:04:52+02:00</time>
      </trkpt>
      <trkpt lat="44.97653" lon="4.67848">
        <ele>666</ele>
        <time>2018-05-02T09:04:59+02:00</time>
      </trkpt>
      <trkpt lat="44.97644" lon="4.67849">
        <ele>667</ele>
        <time>2018-05-02T09:05:09+02:00</time>
      </trkpt>
      <trkpt lat="44.97638" lon="4.67851">
        <ele>668</ele>
        <time>2018-05-02T09:05:18+02:00</time>
      </trkpt>
      <trkpt lat="44.97632" lon="4.67854">
        <ele>668</ele>
        <time>2018-05-02T09:05:25+02:00</time>
      </trkpt>
      <trkpt lat="44.97623" lon="4.67857">
        <ele>669</ele>
        <time>2018-05-02T09:05:34+02:00</time>
      </trkpt>
      <trkpt lat="44.97616" lon="4.67857">
        <ele>670</ele>
        <time>2018-05-02T09:05:42+02:00</time>
      </trkpt>
      <trkpt lat="44.97608" lon="4.67855">
        <ele>671</ele>
        <time>2018-05-02T09:05:50+02:00</time>
      </trkpt>
      <trkpt lat="44.97603" lon="4.67854">
        <ele>672</ele>
        <time>2018-05-02T09:05:55+02:00</time>
      </trkpt>
      <trkpt lat="44.97593" lon="4.67853">
        <ele>673</ele>
        <time>2018-05-02T09:06:04+02:00</time>
      </trkpt>
      <trkpt lat="44.97586" lon="4.67855">
        <ele>674</ele>
        <time>2018-05-02T09:06:12+02:00</time>
      </trkpt>
      <trkpt lat="44.9758" lon="4.67856">
        <ele>675</ele>
        <time>2018-05-02T09:06:19+02:00</time>
      </trkpt>
      <trkpt lat="44.97573" lon="4.67856">
        <ele>675</ele>
        <time>2018-05-02T09:06:27+02:00</time>
      </trkpt>
      <trkpt lat="44.97562" lon="4.67852">
        <ele>676</ele>
        <time>2018-05-02T09:06:36+02:00</time>
      </trkpt>
      <trkpt lat="44.97557" lon="4.67849">
        <ele>676</ele>
        <time>2018-05-02T09:06:42+02:00</time>
      </trkpt>
      <trkpt lat="44.97548" lon="4.67846">
        <ele>677</ele>
        <time>2018-05-02T09:06:50+02:00</time>
      </trkpt>
      <trkpt lat="44.97539" lon="4.67843">
        <ele>678</ele>
        <time>2018-05-02T09:06:59+02:00</time>
      </trkpt>
      <trkpt lat="44.97531" lon="4.6784">
        <ele>679</ele>
        <time>2018-05-02T09:07:08+02:00</time>
      </trkpt>
      <trkpt lat="44.9753" lon="4.6784">
        <ele>679</ele>
        <time>2018-05-02T09:07:10+02:00</time>
      </trkpt>
      <trkpt lat="44.97522" lon="4.67836">
        <ele>679</ele>
        <time>2018-05-02T09:07:18+02:00</time>
      </trkpt>
      <trkpt lat="44.97518" lon="4.67835">
        <ele>680</ele>
        <time>2018-05-02T09:07:28+02:00</time>
      </trkpt>
      <trkpt lat="44.97512" lon="4.67835">
        <ele>680</ele>
        <time>2018-05-02T09:07:44+02:00</time>
      </trkpt>
      <trkpt lat="44.97502" lon="4.67832">
        <ele>681</ele>
        <time>2018-05-02T09:07:55+02:00</time>
      </trkpt>
      <trkpt lat="44.97488" lon="4.67827">
        <ele>682</ele>
        <time>2018-05-02T09:08:06+02:00</time>
      </trkpt>
      <trkpt lat="44.97479" lon="4.67823">
        <ele>683</ele>
        <time>2018-05-02T09:08:15+02:00</time>
      </trkpt>
      <trkpt lat="44.9747" lon="4.67818">
        <ele>683</ele>
        <time>2018-05-02T09:08:23+02:00</time>
      </trkpt>
      <trkpt lat="44.97461" lon="4.67814">
        <ele>684</ele>
        <time>2018-05-02T09:08:31+02:00</time>
      </trkpt>
      <trkpt lat="44.97454" lon="4.67809">
        <ele>684</ele>
        <time>2018-05-02T09:08:39+02:00</time>
      </trkpt>
      <trkpt lat="44.9745" lon="4.67804">
        <ele>685</ele>
        <time>2018-05-02T09:08:47+02:00</time>
      </trkpt>
      <trkpt lat="44.97444" lon="4.67797">
        <ele>685</ele>
        <time>2018-05-02T09:08:56+02:00</time>
      </trkpt>
      <trkpt lat="44.97435" lon="4.67791">
        <ele>686</ele>
        <time>2018-05-02T09:09:04+02:00</time>
      </trkpt>
      <trkpt lat="44.97428" lon="4.67787">
        <ele>686</ele>
        <time>2018-05-02T09:09:12+02:00</time>
      </trkpt>
      <trkpt lat="44.97421" lon="4.67782">
        <ele>686</ele>
        <time>2018-05-02T09:09:18+02:00</time>
      </trkpt>
      <trkpt lat="44.97409" lon="4.67775">
        <ele>688</ele>
        <time>2018-05-02T09:09:27+02:00</time>
      </trkpt>
      <trkpt lat="44.974" lon="4.67771">
        <ele>689</ele>
        <time>2018-05-02T09:09:36+02:00</time>
      </trkpt>
      <trkpt lat="44.97391" lon="4.67768">
        <ele>690</ele>
        <time>2018-05-02T09:09:46+02:00</time>
      </trkpt>
      <trkpt lat="44.97378" lon="4.67764">
        <ele>691</ele>
        <time>2018-05-02T09:09:56+02:00</time>
      </trkpt>
      <trkpt lat="44.97367" lon="4.67761">
        <ele>692</ele>
        <time>2018-05-02T09:10:06+02:00</time>
      </trkpt>
      <trkpt lat="44.97357" lon="4.67759">
        <ele>694</ele>
        <time>2018-05-02T09:10:16+02:00</time>
      </trkpt>
      <trkpt lat="44.97345" lon="4.67758">
        <ele>695</ele>
        <time>2018-05-02T09:10:27+02:00</time>
      </trkpt>
      <trkpt lat="44.97337" lon="4.67755">
        <ele>696</ele>
        <time>2018-05-02T09:10:35+02:00</time>
      </trkpt>
      <trkpt lat="44.97331" lon="4.67755">
        <ele>696</ele>
        <time>2018-05-02T09:10:42+02:00</time>
      </trkpt>
      <trkpt lat="44.97321" lon="4.67753">
        <ele>697</ele>
        <time>2018-05-02T09:10:51+02:00</time>
      </trkpt>
      <trkpt lat="44.97309" lon="4.67751">
        <ele>698</ele>
        <time>2018-05-02T09:11:00+02:00</time>
      </trkpt>
      <trkpt lat="44.97301" lon="4.6775">
        <ele>698</ele>
        <time>2018-05-02T09:11:08+02:00</time>
      </trkpt>
      <trkpt lat="44.97291" lon="4.67747">
        <ele>699</ele>
        <time>2018-05-02T09:11:17+02:00</time>
      </trkpt>
      <trkpt lat="44.9728" lon="4.67744">
        <ele>699</ele>
        <time>2018-05-02T09:11:26+02:00</time>
      </trkpt>
      <trkpt lat="44.97272" lon="4.6774">
        <ele>699</ele>
        <time>2018-05-02T09:11:33+02:00</time>
      </trkpt>
      <trkpt lat="44.97263" lon="4.67737">
        <ele>700</ele>
        <time>2018-05-02T09:11:42+02:00</time>
      </trkpt>
      <trkpt lat="44.9725" lon="4.67732">
        <ele>700</ele>
        <time>2018-05-02T09:11:51+02:00</time>
      </trkpt>
      <trkpt lat="44.9724" lon="4.67728">
        <ele>701</ele>
        <time>2018-05-02T09:12:00+02:00</time>
      </trkpt>
      <trkpt lat="44.97235" lon="4.67725">
        <ele>701</ele>
        <time>2018-05-02T09:12:05+02:00</time>
      </trkpt>
      <trkpt lat="44.97224" lon="4.67721">
        <ele>701</ele>
        <time>2018-05-02T09:12:14+02:00</time>
      </trkpt>
      <trkpt lat="44.97215" lon="4.67717">
        <ele>701</ele>
        <time>2018-05-02T09:12:22+02:00</time>
      </trkpt>
      <trkpt lat="44.97201" lon="4.67712">
        <ele>702</ele>
        <time>2018-05-02T09:12:34+02:00</time>
      </trkpt>
      <trkpt lat="44.97191" lon="4.67708">
        <ele>703</ele>
        <time>2018-05-02T09:12:43+02:00</time>
      </trkpt>
      <trkpt lat="44.9718" lon="4.67704">
        <ele>703</ele>
        <time>2018-05-02T09:12:53+02:00</time>
      </trkpt>
      <trkpt lat="44.97169" lon="4.67695">
        <ele>704</ele>
        <time>2018-05-02T09:13:04+02:00</time>
      </trkpt>
      <trkpt lat="44.97156" lon="4.67686">
        <ele>705</ele>
        <time>2018-05-02T09:13:15+02:00</time>
      </trkpt>
      <trkpt lat="44.97148" lon="4.67678">
        <ele>706</ele>
        <time>2018-05-02T09:13:24+02:00</time>
      </trkpt>
      <trkpt lat="44.97143" lon="4.67677">
        <ele>706</ele>
        <time>2018-05-02T09:13:30+02:00</time>
      </trkpt>
      <trkpt lat="44.97132" lon="4.67665">
        <ele>707</ele>
        <time>2018-05-02T09:13:40+02:00</time>
      </trkpt>
      <trkpt lat="44.97122" lon="4.67658">
        <ele>708</ele>
        <time>2018-05-02T09:13:49+02:00</time>
      </trkpt>
      <trkpt lat="44.97114" lon="4.67652">
        <ele>708</ele>
        <time>2018-05-02T09:13:58+02:00</time>
      </trkpt>
      <trkpt lat="44.97103" lon="4.67646">
        <ele>709</ele>
        <time>2018-05-02T09:14:08+02:00</time>
      </trkpt>
      <trkpt lat="44.97094" lon="4.67641">
        <ele>709</ele>
        <time>2018-05-02T09:14:16+02:00</time>
      </trkpt>
      <trkpt lat="44.97086" lon="4.67638">
        <ele>710</ele>
        <time>2018-05-02T09:14:23+02:00</time>
      </trkpt>
      <trkpt lat="44.97079" lon="4.67639">
        <ele>711</ele>
        <time>2018-05-02T09:14:30+02:00</time>
      </trkpt>
      <trkpt lat="44.97069" lon="4.67639">
        <ele>711</ele>
        <time>2018-05-02T09:14:39+02:00</time>
      </trkpt>
      <trkpt lat="44.97061" lon="4.6764">
        <ele>712</ele>
        <time>2018-05-02T09:14:46+02:00</time>
      </trkpt>
      <trkpt lat="44.97051" lon="4.67641">
        <ele>713</ele>
        <time>2018-05-02T09:14:55+02:00</time>
      </trkpt>
      <trkpt lat="44.97043" lon="4.67642">
        <ele>714</ele>
        <time>2018-05-02T09:15:02+02:00</time>
      </trkpt>
      <trkpt lat="44.97043" lon="4.67643">
        <ele>714</ele>
        <time>2018-05-02T09:15:03+02:00</time>
      </trkpt>
      <trkpt lat="44.97032" lon="4.67646">
        <ele>715</ele>
        <time>2018-05-02T09:15:12+02:00</time>
      </trkpt>
      <trkpt lat="44.97023" lon="4.67651">
        <ele>717</ele>
        <time>2018-05-02T09:15:21+02:00</time>
      </trkpt>
      <trkpt lat="44.97012" lon="4.67657">
        <ele>719</ele>
        <time>2018-05-02T09:15:31+02:00</time>
      </trkpt>
      <trkpt lat="44.97002" lon="4.67659">
        <ele>720</ele>
        <time>2018-05-02T09:15:40+02:00</time>
      </trkpt>
      <trkpt lat="44.96995" lon="4.67659">
        <ele>721</ele>
        <time>2018-05-02T09:15:48+02:00</time>
      </trkpt>
      <trkpt lat="44.96986" lon="4.67658">
        <ele>723</ele>
        <time>2018-05-02T09:15:55+02:00</time>
      </trkpt>
      <trkpt lat="44.96977" lon="4.67659">
        <ele>724</ele>
        <time>2018-05-02T09:16:03+02:00</time>
      </trkpt>
      <trkpt lat="44.96967" lon="4.67661">
        <ele>726</ele>
        <time>2018-05-02T09:16:12+02:00</time>
      </trkpt>
      <trkpt lat="44.96958" lon="4.67662">
        <ele>728</ele>
        <time>2018-05-02T09:16:21+02:00</time>
      </trkpt>
      <trkpt lat="44.96951" lon="4.67661">
        <ele>728</ele>
        <time>2018-05-02T09:16:28+02:00</time>
      </trkpt>
      <trkpt lat="44.96943" lon="4.67659">
        <ele>729</ele>
        <time>2018-05-02T09:16:36+02:00</time>
      </trkpt>
      <trkpt lat="44.96933" lon="4.67655">
        <ele>731</ele>
        <time>2018-05-02T09:16:44+02:00</time>
      </trkpt>
      <trkpt lat="44.96927" lon="4.67652">
        <ele>731</ele>
        <time>2018-05-02T09:16:51+02:00</time>
      </trkpt>
      <trkpt lat="44.96919" lon="4.67645">
        <ele>732</ele>
        <time>2018-05-02T09:17:00+02:00</time>
      </trkpt>
      <trkpt lat="44.96913" lon="4.6764">
        <ele>733</ele>
        <time>2018-05-02T09:17:06+02:00</time>
      </trkpt>
      <trkpt lat="44.96908" lon="4.67634">
        <ele>733</ele>
        <time>2018-05-02T09:17:13+02:00</time>
      </trkpt>
      <trkpt lat="44.96901" lon="4.67625">
        <ele>734</ele>
        <time>2018-05-02T09:17:22+02:00</time>
      </trkpt>
      <trkpt lat="44.96894" lon="4.67621">
        <ele>735</ele>
        <time>2018-05-02T09:17:29+02:00</time>
      </trkpt>
      <trkpt lat="44.9689" lon="4.67619">
        <ele>735</ele>
        <time>2018-05-02T09:17:36+02:00</time>
      </trkpt>
      <trkpt lat="44.96885" lon="4.67615">
        <ele>736</ele>
        <time>2018-05-02T09:17:42+02:00</time>
      </trkpt>
      <trkpt lat="44.96879" lon="4.6761">
        <ele>737</ele>
        <time>2018-05-02T09:17:48+02:00</time>
      </trkpt>
      <trkpt lat="44.96875" lon="4.67607">
        <ele>738</ele>
        <time>2018-05-02T09:17:56+02:00</time>
      </trkpt>
      <trkpt lat="44.96867" lon="4.67604">
        <ele>739</ele>
        <time>2018-05-02T09:18:04+02:00</time>
      </trkpt>
      <trkpt lat="44.9686" lon="4.676">
        <ele>740</ele>
        <time>2018-05-02T09:18:12+02:00</time>
      </trkpt>
      <trkpt lat="44.96851" lon="4.67596">
        <ele>742</ele>
        <time>2018-05-02T09:18:21+02:00</time>
      </trkpt>
      <trkpt lat="44.96846" lon="4.6759">
        <ele>743</ele>
        <time>2018-05-02T09:18:27+02:00</time>
      </trkpt>
      <trkpt lat="44.96843" lon="4.67586">
        <ele>744</ele>
        <time>2018-05-02T09:18:32+02:00</time>
      </trkpt>
      <trkpt lat="44.96834" lon="4.67581">
        <ele>746</ele>
        <time>2018-05-02T09:18:40+02:00</time>
      </trkpt>
      <trkpt lat="44.96827" lon="4.67575">
        <ele>747</ele>
        <time>2018-05-02T09:18:48+02:00</time>
      </trkpt>
      <trkpt lat="44.96819" lon="4.67568">
        <ele>748</ele>
        <time>2018-05-02T09:18:58+02:00</time>
      </trkpt>
      <trkpt lat="44.96815" lon="4.67564">
        <ele>748</ele>
        <time>2018-05-02T09:19:02+02:00</time>
      </trkpt>
      <trkpt lat="44.96807" lon="4.67557">
        <ele>749</ele>
        <time>2018-05-02T09:19:12+02:00</time>
      </trkpt>
      <trkpt lat="44.96802" lon="4.6755">
        <ele>750</ele>
        <time>2018-05-02T09:19:20+02:00</time>
      </trkpt>
      <trkpt lat="44.96793" lon="4.67545">
        <ele>751</ele>
        <time>2018-05-02T09:19:29+02:00</time>
      </trkpt>
      <trkpt lat="44.96787" lon="4.6754">
        <ele>752</ele>
        <time>2018-05-02T09:19:36+02:00</time>
      </trkpt>
      <trkpt lat="44.96775" lon="4.67529">
        <ele>753</ele>
        <time>2018-05-02T09:19:45+02:00</time>
      </trkpt>
      <trkpt lat="44.96772" lon="4.67525">
        <ele>754</ele>
        <time>2018-05-02T09:19:49+02:00</time>
      </trkpt>
      <trkpt lat="44.96768" lon="4.67523">
        <ele>754</ele>
        <time>2018-05-02T09:19:52+02:00</time>
      </trkpt>
      <trkpt lat="44.9676" lon="4.67514">
        <ele>756</ele>
        <time>2018-05-02T09:20:01+02:00</time>
      </trkpt>
      <trkpt lat="44.96753" lon="4.67509">
        <ele>757</ele>
        <time>2018-05-02T09:20:09+02:00</time>
      </trkpt>
      <trkpt lat="44.96748" lon="4.67505">
        <ele>758</ele>
        <time>2018-05-02T09:20:15+02:00</time>
      </trkpt>
      <trkpt lat="44.96741" lon="4.67497">
        <ele>758</ele>
        <time>2018-05-02T09:20:23+02:00</time>
      </trkpt>
      <trkpt lat="44.96737" lon="4.67492">
        <ele>759</ele>
        <time>2018-05-02T09:20:28+02:00</time>
      </trkpt>
      <trkpt lat="44.96729" lon="4.67482">
        <ele>760</ele>
        <time>2018-05-02T09:20:38+02:00</time>
      </trkpt>
      <trkpt lat="44.96721" lon="4.67469">
        <ele>761</ele>
        <time>2018-05-02T09:20:48+02:00</time>
      </trkpt>
      <trkpt lat="44.96713" lon="4.67454">
        <ele>762</ele>
        <time>2018-05-02T09:20:59+02:00</time>
      </trkpt>
      <trkpt lat="44.96711" lon="4.67449">
        <ele>763</ele>
        <time>2018-05-02T09:21:02+02:00</time>
      </trkpt>
      <trkpt lat="44.96706" lon="4.67438">
        <ele>764</ele>
        <time>2018-05-02T09:21:10+02:00</time>
      </trkpt>
      <trkpt lat="44.96704" lon="4.67433">
        <ele>764</ele>
        <time>2018-05-02T09:21:14+02:00</time>
      </trkpt>
      <trkpt lat="44.96701" lon="4.67427">
        <ele>764</ele>
        <time>2018-05-02T09:21:18+02:00</time>
      </trkpt>
      <trkpt lat="44.96695" lon="4.67411">
        <ele>766</ele>
        <time>2018-05-02T09:21:29+02:00</time>
      </trkpt>
      <trkpt lat="44.96689" lon="4.67401">
        <ele>767</ele>
        <time>2018-05-02T09:21:37+02:00</time>
      </trkpt>
      <trkpt lat="44.96687" lon="4.67396">
        <ele>768</ele>
        <time>2018-05-02T09:21:41+02:00</time>
      </trkpt>
      <trkpt lat="44.96686" lon="4.67393">
        <ele>768</ele>
        <time>2018-05-02T09:21:43+02:00</time>
      </trkpt>
      <trkpt lat="44.96682" lon="4.67384">
        <ele>769</ele>
        <time>2018-05-02T09:21:52+02:00</time>
      </trkpt>
      <trkpt lat="44.96677" lon="4.67371">
        <ele>770</ele>
        <time>2018-05-02T09:22:01+02:00</time>
      </trkpt>
      <trkpt lat="44.96672" lon="4.67359">
        <ele>771</ele>
        <time>2018-05-02T09:22:10+02:00</time>
      </trkpt>
      <trkpt lat="44.96667" lon="4.67349">
        <ele>773</ele>
        <time>2018-05-02T09:22:18+02:00</time>
      </trkpt>
      <trkpt lat="44.96661" lon="4.67341">
        <ele>773</ele>
        <time>2018-05-02T09:22:27+02:00</time>
      </trkpt>
      <trkpt lat="44.9666" lon="4.6734">
        <ele>774</ele>
        <time>2018-05-02T09:22:28+02:00</time>
      </trkpt>
      <trkpt lat="44.96652" lon="4.67333">
        <ele>775</ele>
        <time>2018-05-02T09:22:36+02:00</time>
      </trkpt>
      <trkpt lat="44.96648" lon="4.6733">
        <ele>775</ele>
        <time>2018-05-02T09:22:42+02:00</time>
      </trkpt>
      <trkpt lat="44.9664" lon="4.67329">
        <ele>776</ele>
        <time>2018-05-02T09:22:51+02:00</time>
      </trkpt>
      <trkpt lat="44.96639" lon="4.67329">
        <ele>777</ele>
        <time>2018-05-02T09:22:52+02:00</time>
      </trkpt>
      <trkpt lat="44.96627" lon="4.67333">
        <ele>778</ele>
        <time>2018-05-02T09:23:03+02:00</time>
      </trkpt>
      <trkpt lat="44.96623" lon="4.67336">
        <ele>778</ele>
        <time>2018-05-02T09:23:07+02:00</time>
      </trkpt>
      <trkpt lat="44.96615" lon="4.67337">
        <ele>779</ele>
        <time>2018-05-02T09:23:14+02:00</time>
      </trkpt>
      <trkpt lat="44.96607" lon="4.67337">
        <ele>780</ele>
        <time>2018-05-02T09:23:22+02:00</time>
      </trkpt>
      <trkpt lat="44.96597" lon="4.67338">
        <ele>781</ele>
        <time>2018-05-02T09:23:31+02:00</time>
      </trkpt>
      <trkpt lat="44.96588" lon="4.67338">
        <ele>782</ele>
        <time>2018-05-02T09:23:39+02:00</time>
      </trkpt>
      <trkpt lat="44.96579" lon="4.67341">
        <ele>783</ele>
        <time>2018-05-02T09:23:47+02:00</time>
      </trkpt>
      <trkpt lat="44.96569" lon="4.6734">
        <ele>783</ele>
        <time>2018-05-02T09:23:56+02:00</time>
      </trkpt>
      <trkpt lat="44.96561" lon="4.67336">
        <ele>783</ele>
        <time>2018-05-02T09:24:04+02:00</time>
      </trkpt>
      <trkpt lat="44.9655" lon="4.67333">
        <ele>783</ele>
        <time>2018-05-02T09:24:14+02:00</time>
      </trkpt>
      <trkpt lat="44.96539" lon="4.67329">
        <ele>784</ele>
        <time>2018-05-02T09:24:24+02:00</time>
      </trkpt>
      <trkpt lat="44.96531" lon="4.67321">
        <ele>786</ele>
        <time>2018-05-02T09:24:32+02:00</time>
      </trkpt>
      <trkpt lat="44.96529" lon="4.67317">
        <ele>787</ele>
        <time>2018-05-02T09:24:35+02:00</time>
      </trkpt>
      <trkpt lat="44.96531" lon="4.67309">
        <ele>788</ele>
        <time>2018-05-02T09:24:41+02:00</time>
      </trkpt>
      <trkpt lat="44.96539" lon="4.67303">
        <ele>789</ele>
        <time>2018-05-02T09:24:50+02:00</time>
      </trkpt>
      <trkpt lat="44.96546" lon="4.67297">
        <ele>789</ele>
        <time>2018-05-02T09:24:58+02:00</time>
      </trkpt>
      <trkpt lat="44.96552" lon="4.67291">
        <ele>790</ele>
        <time>2018-05-02T09:25:04+02:00</time>
      </trkpt>
      <trkpt lat="44.96558" lon="4.67284">
        <ele>791</ele>
        <time>2018-05-02T09:25:12+02:00</time>
      </trkpt>
      <trkpt lat="44.96559" lon="4.67285">
        <ele>791</ele>
        <time>2018-05-02T09:25:23+02:00</time>
      </trkpt>
      <trkpt lat="44.96558" lon="4.67285">
        <ele>791</ele>
        <time>2018-05-02T09:25:33+02:00</time>
      </trkpt>
      <trkpt lat="44.96563" lon="4.67282">
        <ele>791</ele>
        <time>2018-05-02T09:25:37+02:00</time>
      </trkpt>
      <trkpt lat="44.96565" lon="4.67279">
        <ele>791</ele>
        <time>2018-05-02T09:25:39+02:00</time>
      </trkpt>
      <trkpt lat="44.96568" lon="4.67275">
        <ele>792</ele>
        <time>2018-05-02T09:25:43+02:00</time>
      </trkpt>
      <trkpt lat="44.96574" lon="4.67263">
        <ele>793</ele>
        <time>2018-05-02T09:25:52+02:00</time>
      </trkpt>
      <trkpt lat="44.96579" lon="4.67257">
        <ele>793</ele>
        <time>2018-05-02T09:25:57+02:00</time>
      </trkpt>
      <trkpt lat="44.96587" lon="4.67244">
        <ele>794</ele>
        <time>2018-05-02T09:26:07+02:00</time>
      </trkpt>
      <trkpt lat="44.96591" lon="4.67234">
        <ele>793</ele>
        <time>2018-05-02T09:26:15+02:00</time>
      </trkpt>
      <trkpt lat="44.96593" lon="4.67228">
        <ele>793</ele>
        <time>2018-05-02T09:26:23+02:00</time>
      </trkpt>
      <trkpt lat="44.96594" lon="4.67223">
        <ele>793</ele>
        <time>2018-05-02T09:26:31+02:00</time>
      </trkpt>
      <trkpt lat="44.96595" lon="4.6721">
        <ele>794</ele>
        <time>2018-05-02T09:26:40+02:00</time>
      </trkpt>
      <trkpt lat="44.96601" lon="4.67192">
        <ele>794</ele>
        <time>2018-05-02T09:26:50+02:00</time>
      </trkpt>
      <trkpt lat="44.96605" lon="4.67178">
        <ele>794</ele>
        <time>2018-05-02T09:26:58+02:00</time>
      </trkpt>
      <trkpt lat="44.96611" lon="4.67168">
        <ele>794</ele>
        <time>2018-05-02T09:27:06+02:00</time>
      </trkpt>
      <trkpt lat="44.96618" lon="4.67159">
        <ele>793</ele>
        <time>2018-05-02T09:27:14+02:00</time>
      </trkpt>
      <trkpt lat="44.96624" lon="4.67145">
        <ele>794</ele>
        <time>2018-05-02T09:27:24+02:00</time>
      </trkpt>
      <trkpt lat="44.96626" lon="4.67136">
        <ele>795</ele>
        <time>2018-05-02T09:27:36+02:00</time>
      </trkpt>
      <trkpt lat="44.96631" lon="4.67128">
        <ele>795</ele>
        <time>2018-05-02T09:27:46+02:00</time>
      </trkpt>
      <trkpt lat="44.96637" lon="4.67118">
        <ele>795</ele>
        <time>2018-05-02T09:27:56+02:00</time>
      </trkpt>
      <trkpt lat="44.96644" lon="4.67107">
        <ele>796</ele>
        <time>2018-05-02T09:28:06+02:00</time>
      </trkpt>
      <trkpt lat="44.96647" lon="4.67104">
        <ele>796</ele>
        <time>2018-05-02T09:28:08+02:00</time>
      </trkpt>
      <trkpt lat="44.96657" lon="4.67092">
        <ele>796</ele>
        <time>2018-05-02T09:28:17+02:00</time>
      </trkpt>
      <trkpt lat="44.96662" lon="4.67081">
        <ele>797</ele>
        <time>2018-05-02T09:28:25+02:00</time>
      </trkpt>
      <trkpt lat="44.96666" lon="4.67074">
        <ele>797</ele>
        <time>2018-05-02T09:28:33+02:00</time>
      </trkpt>
      <trkpt lat="44.96671" lon="4.67063">
        <ele>797</ele>
        <time>2018-05-02T09:28:44+02:00</time>
      </trkpt>
      <trkpt lat="44.96678" lon="4.67049">
        <ele>798</ele>
        <time>2018-05-02T09:28:55+02:00</time>
      </trkpt>
      <trkpt lat="44.96684" lon="4.67038">
        <ele>798</ele>
        <time>2018-05-02T09:29:04+02:00</time>
      </trkpt>
      <trkpt lat="44.96693" lon="4.67025">
        <ele>798</ele>
        <time>2018-05-02T09:29:14+02:00</time>
      </trkpt>
      <trkpt lat="44.96698" lon="4.67017">
        <ele>798</ele>
        <time>2018-05-02T09:29:22+02:00</time>
      </trkpt>
      <trkpt lat="44.96702" lon="4.67007">
        <ele>799</ele>
        <time>2018-05-02T09:29:30+02:00</time>
      </trkpt>
      <trkpt lat="44.9671" lon="4.66993">
        <ele>799</ele>
        <time>2018-05-02T09:29:40+02:00</time>
      </trkpt>
      <trkpt lat="44.96718" lon="4.66981">
        <ele>799</ele>
        <time>2018-05-02T09:29:49+02:00</time>
      </trkpt>
      <trkpt lat="44.96726" lon="4.66964">
        <ele>799</ele>
        <time>2018-05-02T09:30:00+02:00</time>
      </trkpt>
      <trkpt lat="44.9673" lon="4.6695">
        <ele>800</ele>
        <time>2018-05-02T09:30:09+02:00</time>
      </trkpt>
      <trkpt lat="44.96736" lon="4.66935">
        <ele>801</ele>
        <time>2018-05-02T09:30:19+02:00</time>
      </trkpt>
      <trkpt lat="44.96742" lon="4.66923">
        <ele>801</ele>
        <time>2018-05-02T09:30:28+02:00</time>
      </trkpt>
      <trkpt lat="44.96749" lon="4.66911">
        <ele>801</ele>
        <time>2018-05-02T09:30:39+02:00</time>
      </trkpt>
      <trkpt lat="44.9675" lon="4.66896">
        <ele>802</ele>
        <time>2018-05-02T09:30:47+02:00</time>
      </trkpt>
      <trkpt lat="44.96757" lon="4.66872">
        <ele>800</ele>
        <time>2018-05-02T09:30:58+02:00</time>
      </trkpt>
      <trkpt lat="44.96756" lon="4.66855">
        <ele>801</ele>
        <time>2018-05-02T09:31:05+02:00</time>
      </trkpt>
      <trkpt lat="44.96761" lon="4.66839">
        <ele>800</ele>
        <time>2018-05-02T09:31:16+02:00</time>
      </trkpt>
      <trkpt lat="44.96759" lon="4.66827">
        <ele>800</ele>
        <time>2018-05-02T09:31:24+02:00</time>
      </trkpt>
      <trkpt lat="44.9676" lon="4.66812">
        <ele>799</ele>
        <time>2018-05-02T09:31:33+02:00</time>
      </trkpt>
      <trkpt lat="44.96755" lon="4.66802">
        <ele>799</ele>
        <time>2018-05-02T09:31:42+02:00</time>
      </trkpt>
      <trkpt lat="44.96746" lon="4.66784">
        <ele>799</ele>
        <time>2018-05-02T09:31:53+02:00</time>
      </trkpt>
      <trkpt lat="44.96738" lon="4.66771">
        <ele>798</ele>
        <time>2018-05-02T09:32:03+02:00</time>
      </trkpt>
      <trkpt lat="44.96729" lon="4.66758">
        <ele>796</ele>
        <time>2018-05-02T09:32:12+02:00</time>
      </trkpt>
      <trkpt lat="44.96723" lon="4.6675">
        <ele>795</ele>
        <time>2018-05-02T09:32:21+02:00</time>
      </trkpt>
      <trkpt lat="44.96717" lon="4.66738">
        <ele>793</ele>
        <time>2018-05-02T09:32:30+02:00</time>
      </trkpt>
      <trkpt lat="44.9671" lon="4.66726">
        <ele>791</ele>
        <time>2018-05-02T09:32:41+02:00</time>
      </trkpt>
      <trkpt lat="44.96705" lon="4.66713">
        <ele>788</ele>
        <time>2018-05-02T09:32:50+02:00</time>
      </trkpt>
      <trkpt lat="44.96704" lon="4.66699">
        <ele>786</ele>
        <time>2018-05-02T09:33:00+02:00</time>
      </trkpt>
      <trkpt lat="44.96706" lon="4.66685">
        <ele>784</ele>
        <time>2018-05-02T09:33:09+02:00</time>
      </trkpt>
      <trkpt lat="44.96705" lon="4.66663">
        <ele>780</ele>
        <time>2018-05-02T09:33:19+02:00</time>
      </trkpt>
      <trkpt lat="44.96705" lon="4.66641">
        <ele>779</ele>
        <time>2018-05-02T09:33:30+02:00</time>
      </trkpt>
      <trkpt lat="44.96705" lon="4.66628">
        <ele>778</ele>
        <time>2018-05-02T09:33:38+02:00</time>
      </trkpt>
      <trkpt lat="44.967" lon="4.66617">
        <ele>778</ele>
        <time>2018-05-02T09:33:46+02:00</time>
      </trkpt>
      <trkpt lat="44.96694" lon="4.66611">
        <ele>777</ele>
        <time>2018-05-02T09:33:52+02:00</time>
      </trkpt>
      <trkpt lat="44.96687" lon="4.66606">
        <ele>776</ele>
        <time>2018-05-02T09:34:00+02:00</time>
      </trkpt>
      <trkpt lat="44.96682" lon="4.66603">
        <ele>776</ele>
        <time>2018-05-02T09:34:11+02:00</time>
      </trkpt>
      <trkpt lat="44.96677" lon="4.66601">
        <ele>776</ele>
        <time>2018-05-02T09:34:19+02:00</time>
      </trkpt>
      <trkpt lat="44.96668" lon="4.6659">
        <ele>775</ele>
        <time>2018-05-02T09:34:30+02:00</time>
      </trkpt>
      <trkpt lat="44.96661" lon="4.66585">
        <ele>774</ele>
        <time>2018-05-02T09:34:35+02:00</time>
      </trkpt>
      <trkpt lat="44.96648" lon="4.66577">
        <ele>772</ele>
        <time>2018-05-02T09:34:45+02:00</time>
      </trkpt>
      <trkpt lat="44.96638" lon="4.66569">
        <ele>771</ele>
        <time>2018-05-02T09:34:55+02:00</time>
      </trkpt>
      <trkpt lat="44.96631" lon="4.6656">
        <ele>770</ele>
        <time>2018-05-02T09:35:04+02:00</time>
      </trkpt>
      <trkpt lat="44.96619" lon="4.66552">
        <ele>769</ele>
        <time>2018-05-02T09:35:13+02:00</time>
      </trkpt>
      <trkpt lat="44.96616" lon="4.6654">
        <ele>769</ele>
        <time>2018-05-02T09:35:23+02:00</time>
      </trkpt>
      <trkpt lat="44.96621" lon="4.66525">
        <ele>770</ele>
        <time>2018-05-02T09:35:35+02:00</time>
      </trkpt>
      <trkpt lat="44.96625" lon="4.66511">
        <ele>770</ele>
        <time>2018-05-02T09:35:45+02:00</time>
      </trkpt>
      <trkpt lat="44.96627" lon="4.66506">
        <ele>771</ele>
        <time>2018-05-02T09:35:49+02:00</time>
      </trkpt>
      <trkpt lat="44.96628" lon="4.66497">
        <ele>771</ele>
        <time>2018-05-02T09:35:54+02:00</time>
      </trkpt>
      <trkpt lat="44.96628" lon="4.66479">
        <ele>770</ele>
        <time>2018-05-02T09:36:02+02:00</time>
      </trkpt>
      <trkpt lat="44.96625" lon="4.6646">
        <ele>769</ele>
        <time>2018-05-02T09:36:11+02:00</time>
      </trkpt>
      <trkpt lat="44.96625" lon="4.66445">
        <ele>768</ele>
        <time>2018-05-02T09:36:21+02:00</time>
      </trkpt>
      <trkpt lat="44.96624" lon="4.6643">
        <ele>767</ele>
        <time>2018-05-02T09:36:31+02:00</time>
      </trkpt>
      <trkpt lat="44.96622" lon="4.66413">
        <ele>767</ele>
        <time>2018-05-02T09:36:41+02:00</time>
      </trkpt>
      <trkpt lat="44.96622" lon="4.66393">
        <ele>767</ele>
        <time>2018-05-02T09:36:51+02:00</time>
      </trkpt>
      <trkpt lat="44.96624" lon="4.66377">
        <ele>766</ele>
        <time>2018-05-02T09:37:00+02:00</time>
      </trkpt>
      <trkpt lat="44.96625" lon="4.66362">
        <ele>766</ele>
        <time>2018-05-02T09:37:08+02:00</time>
      </trkpt>
      <trkpt lat="44.96624" lon="4.66347">
        <ele>766</ele>
        <time>2018-05-02T09:37:17+02:00</time>
      </trkpt>
      <trkpt lat="44.96626" lon="4.66335">
        <ele>765</ele>
        <time>2018-05-02T09:37:27+02:00</time>
      </trkpt>
      <trkpt lat="44.96627" lon="4.66326">
        <ele>765</ele>
        <time>2018-05-02T09:37:37+02:00</time>
      </trkpt>
      <trkpt lat="44.96627" lon="4.66309">
        <ele>763</ele>
        <time>2018-05-02T09:37:48+02:00</time>
      </trkpt>
      <trkpt lat="44.96626" lon="4.66295">
        <ele>762</ele>
        <time>2018-05-02T09:37:57+02:00</time>
      </trkpt>
      <trkpt lat="44.96623" lon="4.66278">
        <ele>761</ele>
        <time>2018-05-02T09:38:07+02:00</time>
      </trkpt>
      <trkpt lat="44.96619" lon="4.66263">
        <ele>761</ele>
        <time>2018-05-02T09:38:17+02:00</time>
      </trkpt>
      <trkpt lat="44.96615" lon="4.66249">
        <ele>760</ele>
        <time>2018-05-02T09:38:26+02:00</time>
      </trkpt>
      <trkpt lat="44.96608" lon="4.66239">
        <ele>760</ele>
        <time>2018-05-02T09:38:35+02:00</time>
      </trkpt>
      <trkpt lat="44.966" lon="4.66223">
        <ele>760</ele>
        <time>2018-05-02T09:38:44+02:00</time>
      </trkpt>
      <trkpt lat="44.96594" lon="4.66212">
        <ele>760</ele>
        <time>2018-05-02T09:38:54+02:00</time>
      </trkpt>
      <trkpt lat="44.9659" lon="4.66196">
        <ele>758</ele>
        <time>2018-05-02T09:39:03+02:00</time>
      </trkpt>
      <trkpt lat="44.96585" lon="4.66183">
        <ele>758</ele>
        <time>2018-05-02T09:39:11+02:00</time>
      </trkpt>
      <trkpt lat="44.9658" lon="4.66167">
        <ele>757</ele>
        <time>2018-05-02T09:39:20+02:00</time>
      </trkpt>
      <trkpt lat="44.96578" lon="4.6615">
        <ele>757</ele>
        <time>2018-05-02T09:39:28+02:00</time>
      </trkpt>
      <trkpt lat="44.96578" lon="4.66146">
        <ele>757</ele>
        <time>2018-05-02T09:39:30+02:00</time>
      </trkpt>
      <trkpt lat="44.96577" lon="4.66136">
        <ele>757</ele>
        <time>2018-05-02T09:39:36+02:00</time>
      </trkpt>
      <trkpt lat="44.96576" lon="4.66119">
        <ele>757</ele>
        <time>2018-05-02T09:39:46+02:00</time>
      </trkpt>
      <trkpt lat="44.96576" lon="4.66106">
        <ele>757</ele>
        <time>2018-05-02T09:39:54+02:00</time>
      </trkpt>
      <trkpt lat="44.96576" lon="4.66095">
        <ele>757</ele>
        <time>2018-05-02T09:40:02+02:00</time>
      </trkpt>
      <trkpt lat="44.96576" lon="4.66084">
        <ele>757</ele>
        <time>2018-05-02T09:40:10+02:00</time>
      </trkpt>
      <trkpt lat="44.96576" lon="4.66071">
        <ele>757</ele>
        <time>2018-05-02T09:40:20+02:00</time>
      </trkpt>
      <trkpt lat="44.96576" lon="4.66057">
        <ele>757</ele>
        <time>2018-05-02T09:40:30+02:00</time>
      </trkpt>
      <trkpt lat="44.96572" lon="4.66033">
        <ele>757</ele>
        <time>2018-05-02T09:40:40+02:00</time>
      </trkpt>
      <trkpt lat="44.9657" lon="4.65999">
        <ele>757</ele>
        <time>2018-05-02T09:40:52+02:00</time>
      </trkpt>
      <trkpt lat="44.9657" lon="4.65978">
        <ele>756</ele>
        <time>2018-05-02T09:41:03+02:00</time>
      </trkpt>
      <trkpt lat="44.96568" lon="4.65962">
        <ele>756</ele>
        <time>2018-05-02T09:41:13+02:00</time>
      </trkpt>
      <trkpt lat="44.9657" lon="4.65937">
        <ele>754</ele>
        <time>2018-05-02T09:41:23+02:00</time>
      </trkpt>
      <trkpt lat="44.96573" lon="4.65917">
        <ele>753</ele>
        <time>2018-05-02T09:41:33+02:00</time>
      </trkpt>
      <trkpt lat="44.96575" lon="4.659">
        <ele>750</ele>
        <time>2018-05-02T09:41:41+02:00</time>
      </trkpt>
      <trkpt lat="44.96574" lon="4.65882">
        <ele>747</ele>
        <time>2018-05-02T09:41:51+02:00</time>
      </trkpt>
      <trkpt lat="44.96572" lon="4.65868">
        <ele>746</ele>
        <time>2018-05-02T09:41:59+02:00</time>
      </trkpt>
      <trkpt lat="44.96568" lon="4.65855">
        <ele>744</ele>
        <time>2018-05-02T09:42:07+02:00</time>
      </trkpt>
      <trkpt lat="44.96564" lon="4.6584">
        <ele>742</ele>
        <time>2018-05-02T09:42:16+02:00</time>
      </trkpt>
      <trkpt lat="44.96561" lon="4.65827">
        <ele>741</ele>
        <time>2018-05-02T09:42:25+02:00</time>
      </trkpt>
      <trkpt lat="44.96558" lon="4.65812">
        <ele>739</ele>
        <time>2018-05-02T09:42:36+02:00</time>
      </trkpt>
      <trkpt lat="44.96553" lon="4.65795">
        <ele>737</ele>
        <time>2018-05-02T09:42:46+02:00</time>
      </trkpt>
      <trkpt lat="44.96549" lon="4.65776">
        <ele>734</ele>
        <time>2018-05-02T09:42:57+02:00</time>
      </trkpt>
      <trkpt lat="44.96542" lon="4.65759">
        <ele>732</ele>
        <time>2018-05-02T09:43:08+02:00</time>
      </trkpt>
      <trkpt lat="44.96534" lon="4.65741">
        <ele>730</ele>
        <time>2018-05-02T09:43:20+02:00</time>
      </trkpt>
      <trkpt lat="44.96531" lon="4.65724">
        <ele>728</ele>
        <time>2018-05-02T09:43:30+02:00</time>
      </trkpt>
      <trkpt lat="44.96521" lon="4.65707">
        <ele>727</ele>
        <time>2018-05-02T09:43:40+02:00</time>
      </trkpt>
      <trkpt lat="44.96516" lon="4.6569">
        <ele>725</ele>
        <time>2018-05-02T09:43:51+02:00</time>
      </trkpt>
      <trkpt lat="44.96517" lon="4.65672">
        <ele>722</ele>
        <time>2018-05-02T09:44:01+02:00</time>
      </trkpt>
      <trkpt lat="44.96516" lon="4.65662">
        <ele>721</ele>
        <time>2018-05-02T09:44:07+02:00</time>
      </trkpt>
      <trkpt lat="44.96517" lon="4.65649">
        <ele>720</ele>
        <time>2018-05-02T09:44:15+02:00</time>
      </trkpt>
      <trkpt lat="44.96515" lon="4.65638">
        <ele>719</ele>
        <time>2018-05-02T09:44:23+02:00</time>
      </trkpt>
      <trkpt lat="44.96513" lon="4.65624">
        <ele>718</ele>
        <time>2018-05-02T09:44:33+02:00</time>
      </trkpt>
      <trkpt lat="44.96513" lon="4.6561">
        <ele>717</ele>
        <time>2018-05-02T09:44:40+02:00</time>
      </trkpt>
      <trkpt lat="44.96514" lon="4.65603">
        <ele>716</ele>
        <time>2018-05-02T09:44:44+02:00</time>
      </trkpt>
      <trkpt lat="44.96516" lon="4.65588">
        <ele>714</ele>
        <time>2018-05-02T09:44:52+02:00</time>
      </trkpt>
      <trkpt lat="44.9652" lon="4.65572">
        <ele>712</ele>
        <time>2018-05-02T09:45:01+02:00</time>
      </trkpt>
      <trkpt lat="44.96519" lon="4.65561">
        <ele>711</ele>
        <time>2018-05-02T09:45:09+02:00</time>
      </trkpt>
      <trkpt lat="44.96518" lon="4.65546">
        <ele>710</ele>
        <time>2018-05-02T09:45:19+02:00</time>
      </trkpt>
      <trkpt lat="44.96513" lon="4.65533">
        <ele>709</ele>
        <time>2018-05-02T09:45:28+02:00</time>
      </trkpt>
      <trkpt lat="44.96512" lon="4.65528">
        <ele>709</ele>
        <time>2018-05-02T09:45:31+02:00</time>
      </trkpt>
      <trkpt lat="44.96505" lon="4.65508">
        <ele>707</ele>
        <time>2018-05-02T09:45:42+02:00</time>
      </trkpt>
      <trkpt lat="44.96503" lon="4.65494">
        <ele>706</ele>
        <time>2018-05-02T09:45:50+02:00</time>
      </trkpt>
      <trkpt lat="44.96504" lon="4.65488">
        <ele>705</ele>
        <time>2018-05-02T09:45:53+02:00</time>
      </trkpt>
      <trkpt lat="44.96509" lon="4.65477">
        <ele>704</ele>
        <time>2018-05-02T09:46:02+02:00</time>
      </trkpt>
      <trkpt lat="44.96513" lon="4.65479">
        <ele>704</ele>
        <time>2018-05-02T09:46:11+02:00</time>
      </trkpt>
      <trkpt lat="44.96514" lon="4.65482">
        <ele>704</ele>
        <time>2018-05-02T09:46:31+02:00</time>
      </trkpt>
      <trkpt lat="44.96509" lon="4.65487">
        <ele>705</ele>
        <time>2018-05-02T09:46:45+02:00</time>
      </trkpt>
      <trkpt lat="44.96514" lon="4.65479">
        <ele>704</ele>
        <time>2018-05-02T09:46:56+02:00</time>
      </trkpt>
      <trkpt lat="44.96516" lon="4.65476">
        <ele>703</ele>
        <time>2018-05-02T09:47:10+02:00</time>
      </trkpt>
      <trkpt lat="44.96514" lon="4.65477">
        <ele>704</ele>
        <time>2018-05-02T09:47:26+02:00</time>
      </trkpt>
      <trkpt lat="44.96516" lon="4.65475">
        <ele>703</ele>
        <time>2018-05-02T09:47:39+02:00</time>
      </trkpt>
      <trkpt lat="44.96517" lon="4.65476">
        <ele>703</ele>
        <time>2018-05-02T09:47:51+02:00</time>
      </trkpt>
      <trkpt lat="44.96515" lon="4.65476">
        <ele>703</ele>
        <time>2018-05-02T09:48:06+02:00</time>
      </trkpt>
      <trkpt lat="44.96514" lon="4.65478">
        <ele>704</ele>
        <time>2018-05-02T09:48:19+02:00</time>
      </trkpt>
      <trkpt lat="44.96515" lon="4.65475">
        <ele>703</ele>
        <time>2018-05-02T09:48:34+02:00</time>
      </trkpt>
      <trkpt lat="44.96515" lon="4.65475">
        <ele>703</ele>
        <time>2018-05-02T09:48:46+02:00</time>
      </trkpt>
      <trkpt lat="44.96515" lon="4.65476">
        <ele>703</ele>
        <time>2018-05-02T09:48:59+02:00</time>
      </trkpt>
      <trkpt lat="44.96514" lon="4.65477">
        <ele>704</ele>
        <time>2018-05-02T09:49:16+02:00</time>
      </trkpt>
      <trkpt lat="44.96514" lon="4.65478">
        <ele>704</ele>
        <time>2018-05-02T09:49:32+02:00</time>
      </trkpt>
      <trkpt lat="44.96512" lon="4.6548">
        <ele>704</ele>
        <time>2018-05-02T09:49:42+02:00</time>
      </trkpt>
      <trkpt lat="44.96513" lon="4.65477">
        <ele>704</ele>
        <time>2018-05-02T09:49:52+02:00</time>
      </trkpt>
      <trkpt lat="44.96512" lon="4.65473">
        <ele>703</ele>
        <time>2018-05-02T09:50:02+02:00</time>
      </trkpt>
      <trkpt lat="44.96512" lon="4.65474">
        <ele>703</ele>
        <time>2018-05-02T09:50:03+02:00</time>
      </trkpt>
      <trkpt lat="44.96514" lon="4.65476">
        <ele>703</ele>
        <time>2018-05-02T09:50:17+02:00</time>
      </trkpt>
      <trkpt lat="44.96516" lon="4.65475">
        <ele>703</ele>
        <time>2018-05-02T09:50:31+02:00</time>
      </trkpt>
      <trkpt lat="44.96518" lon="4.65475">
        <ele>703</ele>
        <time>2018-05-02T09:50:43+02:00</time>
      </trkpt>
      <trkpt lat="44.96515" lon="4.65478">
        <ele>703</ele>
        <time>2018-05-02T09:50:53+02:00</time>
      </trkpt>
      <trkpt lat="44.96518" lon="4.65478">
        <ele>703</ele>
        <time>2018-05-02T09:51:00+02:00</time>
      </trkpt>
      <trkpt lat="44.9653" lon="4.6548">
        <ele>703</ele>
        <time>2018-05-02T09:51:10+02:00</time>
      </trkpt>
      <trkpt lat="44.96541" lon="4.65481">
        <ele>702</ele>
        <time>2018-05-02T09:51:18+02:00</time>
      </trkpt>
      <trkpt lat="44.9655" lon="4.65481">
        <ele>702</ele>
        <time>2018-05-02T09:51:26+02:00</time>
      </trkpt>
      <trkpt lat="44.96564" lon="4.65482">
        <ele>701</ele>
        <time>2018-05-02T09:51:36+02:00</time>
      </trkpt>
      <trkpt lat="44.9657" lon="4.65483">
        <ele>700</ele>
        <time>2018-05-02T09:51:41+02:00</time>
      </trkpt>
      <trkpt lat="44.96584" lon="4.65476">
        <ele>700</ele>
        <time>2018-05-02T09:51:52+02:00</time>
      </trkpt>
      <trkpt lat="44.96597" lon="4.6547">
        <ele>698</ele>
        <time>2018-05-02T09:52:01+02:00</time>
      </trkpt>
      <trkpt lat="44.9661" lon="4.65463">
        <ele>696</ele>
        <time>2018-05-02T09:52:11+02:00</time>
      </trkpt>
      <trkpt lat="44.96621" lon="4.65457">
        <ele>695</ele>
        <time>2018-05-02T09:52:20+02:00</time>
      </trkpt>
      <trkpt lat="44.96632" lon="4.65451">
        <ele>695</ele>
        <time>2018-05-02T09:52:29+02:00</time>
      </trkpt>
      <trkpt lat="44.96642" lon="4.65446">
        <ele>694</ele>
        <time>2018-05-02T09:52:37+02:00</time>
      </trkpt>
      <trkpt lat="44.9665" lon="4.65444">
        <ele>693</ele>
        <time>2018-05-02T09:52:45+02:00</time>
      </trkpt>
      <trkpt lat="44.96651" lon="4.65452">
        <ele>692</ele>
        <time>2018-05-02T09:52:53+02:00</time>
      </trkpt>
      <trkpt lat="44.96651" lon="4.65452">
        <ele>692</ele>
        <time>2018-05-02T09:52:54+02:00</time>
      </trkpt>
      <trkpt lat="44.96651" lon="4.65458">
        <ele>691</ele>
        <time>2018-05-02T09:52:59+02:00</time>
      </trkpt>
      <trkpt lat="44.9665" lon="4.65466">
        <ele>690</ele>
        <time>2018-05-02T09:53:06+02:00</time>
      </trkpt>
      <trkpt lat="44.9665" lon="4.65467">
        <ele>690</ele>
        <time>2018-05-02T09:53:13+02:00</time>
      </trkpt>
      <trkpt lat="44.96647" lon="4.6548">
        <ele>689</ele>
        <time>2018-05-02T09:53:21+02:00</time>
      </trkpt>
      <trkpt lat="44.96645" lon="4.65492">
        <ele>688</ele>
        <time>2018-05-02T09:53:28+02:00</time>
      </trkpt>
      <trkpt lat="44.96645" lon="4.65504">
        <ele>687</ele>
        <time>2018-05-02T09:53:34+02:00</time>
      </trkpt>
      <trkpt lat="44.96644" lon="4.65514">
        <ele>687</ele>
        <time>2018-05-02T09:53:40+02:00</time>
      </trkpt>
      <trkpt lat="44.96639" lon="4.65531">
        <ele>687</ele>
        <time>2018-05-02T09:53:50+02:00</time>
      </trkpt>
      <trkpt lat="44.96636" lon="4.65544">
        <ele>688</ele>
        <time>2018-05-02T09:53:58+02:00</time>
      </trkpt>
      <trkpt lat="44.96637" lon="4.65559">
        <ele>687</ele>
        <time>2018-05-02T09:54:06+02:00</time>
      </trkpt>
      <trkpt lat="44.96642" lon="4.6557">
        <ele>685</ele>
        <time>2018-05-02T09:54:12+02:00</time>
      </trkpt>
      <trkpt lat="44.96644" lon="4.65589">
        <ele>685</ele>
        <time>2018-05-02T09:54:21+02:00</time>
      </trkpt>
      <trkpt lat="44.96648" lon="4.65603">
        <ele>686</ele>
        <time>2018-05-02T09:54:28+02:00</time>
      </trkpt>
      <trkpt lat="44.96651" lon="4.65609">
        <ele>685</ele>
        <time>2018-05-02T09:54:31+02:00</time>
      </trkpt>
      <trkpt lat="44.96653" lon="4.65621">
        <ele>686</ele>
        <time>2018-05-02T09:54:38+02:00</time>
      </trkpt>
      <trkpt lat="44.96658" lon="4.65633">
        <ele>686</ele>
        <time>2018-05-02T09:54:45+02:00</time>
      </trkpt>
      <trkpt lat="44.96662" lon="4.65644">
        <ele>686</ele>
        <time>2018-05-02T09:54:52+02:00</time>
      </trkpt>
      <trkpt lat="44.96668" lon="4.65654">
        <ele>685</ele>
        <time>2018-05-02T09:54:59+02:00</time>
      </trkpt>
      <trkpt lat="44.96672" lon="4.65664">
        <ele>685</ele>
        <time>2018-05-02T09:55:06+02:00</time>
      </trkpt>
      <trkpt lat="44.96676" lon="4.65676">
        <ele>684</ele>
        <time>2018-05-02T09:55:14+02:00</time>
      </trkpt>
      <trkpt lat="44.96679" lon="4.65684">
        <ele>684</ele>
        <time>2018-05-02T09:55:19+02:00</time>
      </trkpt>
      <trkpt lat="44.96685" lon="4.65695">
        <ele>683</ele>
        <time>2018-05-02T09:55:26+02:00</time>
      </trkpt>
      <trkpt lat="44.96689" lon="4.65712">
        <ele>683</ele>
        <time>2018-05-02T09:55:35+02:00</time>
      </trkpt>
      <trkpt lat="44.96692" lon="4.65719">
        <ele>682</ele>
        <time>2018-05-02T09:55:40+02:00</time>
      </trkpt>
      <trkpt lat="44.96692" lon="4.6572">
        <ele>682</ele>
        <time>2018-05-02T09:55:41+02:00</time>
      </trkpt>
      <trkpt lat="44.96694" lon="4.65723">
        <ele>682</ele>
        <time>2018-05-02T09:55:43+02:00</time>
      </trkpt>
      <trkpt lat="44.96695" lon="4.65728">
        <ele>682</ele>
        <time>2018-05-02T09:55:47+02:00</time>
      </trkpt>
      <trkpt lat="44.96697" lon="4.65733">
        <ele>681</ele>
        <time>2018-05-02T09:55:50+02:00</time>
      </trkpt>
      <trkpt lat="44.96703" lon="4.65746">
        <ele>680</ele>
        <time>2018-05-02T09:55:58+02:00</time>
      </trkpt>
      <trkpt lat="44.96705" lon="4.65751">
        <ele>680</ele>
        <time>2018-05-02T09:56:01+02:00</time>
      </trkpt>
      <trkpt lat="44.96708" lon="4.6576">
        <ele>679</ele>
        <time>2018-05-02T09:56:09+02:00</time>
      </trkpt>
      <trkpt lat="44.96711" lon="4.65768">
        <ele>679</ele>
        <time>2018-05-02T09:56:16+02:00</time>
      </trkpt>
      <trkpt lat="44.96717" lon="4.6578">
        <ele>677</ele>
        <time>2018-05-02T09:56:24+02:00</time>
      </trkpt>
      <trkpt lat="44.96718" lon="4.65784">
        <ele>677</ele>
        <time>2018-05-02T09:56:27+02:00</time>
      </trkpt>
      <trkpt lat="44.96721" lon="4.65794">
        <ele>677</ele>
        <time>2018-05-02T09:56:34+02:00</time>
      </trkpt>
      <trkpt lat="44.96728" lon="4.65805">
        <ele>675</ele>
        <time>2018-05-02T09:56:41+02:00</time>
      </trkpt>
      <trkpt lat="44.96737" lon="4.65819">
        <ele>672</ele>
        <time>2018-05-02T09:56:50+02:00</time>
      </trkpt>
      <trkpt lat="44.9674" lon="4.65832">
        <ele>672</ele>
        <time>2018-05-02T09:56:58+02:00</time>
      </trkpt>
      <trkpt lat="44.96743" lon="4.65844">
        <ele>672</ele>
        <time>2018-05-02T09:57:05+02:00</time>
      </trkpt>
      <trkpt lat="44.96746" lon="4.65853">
        <ele>672</ele>
        <time>2018-05-02T09:57:11+02:00</time>
      </trkpt>
      <trkpt lat="44.96748" lon="4.65861">
        <ele>672</ele>
        <time>2018-05-02T09:57:16+02:00</time>
      </trkpt>
      <trkpt lat="44.96754" lon="4.65869">
        <ele>670</ele>
        <time>2018-05-02T09:57:24+02:00</time>
      </trkpt>
      <trkpt lat="44.96758" lon="4.65868">
        <ele>669</ele>
        <time>2018-05-02T09:57:36+02:00</time>
      </trkpt>
      <trkpt lat="44.96759" lon="4.6587">
        <ele>669</ele>
        <time>2018-05-02T09:57:43+02:00</time>
      </trkpt>
      <trkpt lat="44.9676" lon="4.65873">
        <ele>669</ele>
        <time>2018-05-02T09:57:45+02:00</time>
      </trkpt>
      <trkpt lat="44.96766" lon="4.65882">
        <ele>668</ele>
        <time>2018-05-02T09:57:52+02:00</time>
      </trkpt>
      <trkpt lat="44.9677" lon="4.65884">
        <ele>667</ele>
        <time>2018-05-02T09:57:55+02:00</time>
      </trkpt>
      <trkpt lat="44.96772" lon="4.65881">
        <ele>667</ele>
        <time>2018-05-02T09:58:01+02:00</time>
      </trkpt>
      <trkpt lat="44.96772" lon="4.65877">
        <ele>666</ele>
        <time>2018-05-02T09:58:11+02:00</time>
      </trkpt>
      <trkpt lat="44.9677" lon="4.65867">
        <ele>665</ele>
        <time>2018-05-02T09:58:20+02:00</time>
      </trkpt>
      <trkpt lat="44.96771" lon="4.65866">
        <ele>665</ele>
        <time>2018-05-02T09:58:21+02:00</time>
      </trkpt>
      <trkpt lat="44.9677" lon="4.65857">
        <ele>664</ele>
        <time>2018-05-02T09:58:29+02:00</time>
      </trkpt>
      <trkpt lat="44.9677" lon="4.65854">
        <ele>664</ele>
        <time>2018-05-02T09:58:35+02:00</time>
      </trkpt>
      <trkpt lat="44.96771" lon="4.65853">
        <ele>663</ele>
        <time>2018-05-02T09:58:41+02:00</time>
      </trkpt>
      <trkpt lat="44.9677" lon="4.65849">
        <ele>663</ele>
        <time>2018-05-02T09:58:48+02:00</time>
      </trkpt>
      <trkpt lat="44.96769" lon="4.6584">
        <ele>662</ele>
        <time>2018-05-02T09:58:55+02:00</time>
      </trkpt>
      <trkpt lat="44.96769" lon="4.65832">
        <ele>661</ele>
        <time>2018-05-02T09:59:00+02:00</time>
      </trkpt>
      <trkpt lat="44.96768" lon="4.65818">
        <ele>660</ele>
        <time>2018-05-02T09:59:08+02:00</time>
      </trkpt>
      <trkpt lat="44.96768" lon="4.65813">
        <ele>660</ele>
        <time>2018-05-02T09:59:17+02:00</time>
      </trkpt>
      <trkpt lat="44.96766" lon="4.65808">
        <ele>659</ele>
        <time>2018-05-02T09:59:21+02:00</time>
      </trkpt>
      <trkpt lat="44.96762" lon="4.65796">
        <ele>660</ele>
        <time>2018-05-02T09:59:29+02:00</time>
      </trkpt>
      <trkpt lat="44.96762" lon="4.65794">
        <ele>659</ele>
        <time>2018-05-02T09:59:30+02:00</time>
      </trkpt>
      <trkpt lat="44.96763" lon="4.65779">
        <ele>658</ele>
        <time>2018-05-02T09:59:38+02:00</time>
      </trkpt>
      <trkpt lat="44.96763" lon="4.65774">
        <ele>657</ele>
        <time>2018-05-02T09:59:41+02:00</time>
      </trkpt>
      <trkpt lat="44.96764" lon="4.65771">
        <ele>657</ele>
        <time>2018-05-02T09:59:43+02:00</time>
      </trkpt>
      <trkpt lat="44.96762" lon="4.65763">
        <ele>656</ele>
        <time>2018-05-02T09:59:48+02:00</time>
      </trkpt>
      <trkpt lat="44.96765" lon="4.65757">
        <ele>655</ele>
        <time>2018-05-02T09:59:54+02:00</time>
      </trkpt>
      <trkpt lat="44.96763" lon="4.65744">
        <ele>655</ele>
        <time>2018-05-02T10:00:01+02:00</time>
      </trkpt>
      <trkpt lat="44.96762" lon="4.65729">
        <ele>654</ele>
        <time>2018-05-02T10:00:09+02:00</time>
      </trkpt>
      <trkpt lat="44.96761" lon="4.65727">
        <ele>654</ele>
        <time>2018-05-02T10:00:11+02:00</time>
      </trkpt>
      <trkpt lat="44.96758" lon="4.65721">
        <ele>655</ele>
        <time>2018-05-02T10:00:15+02:00</time>
      </trkpt>
      <trkpt lat="44.96757" lon="4.65712">
        <ele>654</ele>
        <time>2018-05-02T10:00:20+02:00</time>
      </trkpt>
      <trkpt lat="44.96755" lon="4.65701">
        <ele>654</ele>
        <time>2018-05-02T10:00:26+02:00</time>
      </trkpt>
      <trkpt lat="44.96758" lon="4.6569">
        <ele>653</ele>
        <time>2018-05-02T10:00:31+02:00</time>
      </trkpt>
      <trkpt lat="44.96752" lon="4.65683">
        <ele>654</ele>
        <time>2018-05-02T10:00:36+02:00</time>
      </trkpt>
      <trkpt lat="44.9675" lon="4.65681">
        <ele>654</ele>
        <time>2018-05-02T10:00:38+02:00</time>
      </trkpt>
      <trkpt lat="44.96753" lon="4.65664">
        <ele>652</ele>
        <time>2018-05-02T10:00:44+02:00</time>
      </trkpt>
      <trkpt lat="44.9675" lon="4.65654">
        <ele>654</ele>
        <time>2018-05-02T10:00:48+02:00</time>
      </trkpt>
      <trkpt lat="44.96751" lon="4.65647">
        <ele>654</ele>
        <time>2018-05-02T10:00:51+02:00</time>
      </trkpt>
      <trkpt lat="44.96748" lon="4.65641">
        <ele>655</ele>
        <time>2018-05-02T10:00:55+02:00</time>
      </trkpt>
      <trkpt lat="44.96741" lon="4.65631">
        <ele>658</ele>
        <time>2018-05-02T10:01:03+02:00</time>
      </trkpt>
      <trkpt lat="44.96738" lon="4.65623">
        <ele>659</ele>
        <time>2018-05-02T10:01:10+02:00</time>
      </trkpt>
      <trkpt lat="44.96741" lon="4.65605">
        <ele>659</ele>
        <time>2018-05-02T10:01:17+02:00</time>
      </trkpt>
      <trkpt lat="44.96742" lon="4.656">
        <ele>658</ele>
        <time>2018-05-02T10:01:20+02:00</time>
      </trkpt>
      <trkpt lat="44.96743" lon="4.65588">
        <ele>659</ele>
        <time>2018-05-02T10:01:28+02:00</time>
      </trkpt>
      <trkpt lat="44.96744" lon="4.65587">
        <ele>658</ele>
        <time>2018-05-02T10:01:29+02:00</time>
      </trkpt>
      <trkpt lat="44.96754" lon="4.65579">
        <ele>657</ele>
        <time>2018-05-02T10:01:39+02:00</time>
      </trkpt>
      <trkpt lat="44.96762" lon="4.65575">
        <ele>656</ele>
        <time>2018-05-02T10:01:47+02:00</time>
      </trkpt>
      <trkpt lat="44.96771" lon="4.6557">
        <ele>656</ele>
        <time>2018-05-02T10:01:53+02:00</time>
      </trkpt>
      <trkpt lat="44.96784" lon="4.65563">
        <ele>655</ele>
        <time>2018-05-02T10:02:03+02:00</time>
      </trkpt>
      <trkpt lat="44.96792" lon="4.65555">
        <ele>655</ele>
        <time>2018-05-02T10:02:11+02:00</time>
      </trkpt>
      <trkpt lat="44.96801" lon="4.65547">
        <ele>655</ele>
        <time>2018-05-02T10:02:20+02:00</time>
      </trkpt>
      <trkpt lat="44.9681" lon="4.65544">
        <ele>655</ele>
        <time>2018-05-02T10:02:27+02:00</time>
      </trkpt>
      <trkpt lat="44.96821" lon="4.65547">
        <ele>653</ele>
        <time>2018-05-02T10:02:35+02:00</time>
      </trkpt>
      <trkpt lat="44.96835" lon="4.65551">
        <ele>651</ele>
        <time>2018-05-02T10:02:45+02:00</time>
      </trkpt>
      <trkpt lat="44.96845" lon="4.65549">
        <ele>650</ele>
        <time>2018-05-02T10:02:54+02:00</time>
      </trkpt>
      <trkpt lat="44.96851" lon="4.65547">
        <ele>650</ele>
        <time>2018-05-02T10:02:59+02:00</time>
      </trkpt>
      <trkpt lat="44.96862" lon="4.65538">
        <ele>650</ele>
        <time>2018-05-02T10:03:08+02:00</time>
      </trkpt>
      <trkpt lat="44.96873" lon="4.65528">
        <ele>651</ele>
        <time>2018-05-02T10:03:17+02:00</time>
      </trkpt>
      <trkpt lat="44.96886" lon="4.6552">
        <ele>651</ele>
        <time>2018-05-02T10:03:26+02:00</time>
      </trkpt>
      <trkpt lat="44.96896" lon="4.65511">
        <ele>651</ele>
        <time>2018-05-02T10:03:35+02:00</time>
      </trkpt>
      <trkpt lat="44.96903" lon="4.65502">
        <ele>652</ele>
        <time>2018-05-02T10:03:43+02:00</time>
      </trkpt>
      <trkpt lat="44.96906" lon="4.65495">
        <ele>652</ele>
        <time>2018-05-02T10:03:47+02:00</time>
      </trkpt>
      <trkpt lat="44.96907" lon="4.65489">
        <ele>652</ele>
        <time>2018-05-02T10:03:50+02:00</time>
      </trkpt>
      <trkpt lat="44.96909" lon="4.65486">
        <ele>652</ele>
        <time>2018-05-02T10:03:52+02:00</time>
      </trkpt>
      <trkpt lat="44.96911" lon="4.65481">
        <ele>652</ele>
        <time>2018-05-02T10:03:55+02:00</time>
      </trkpt>
      <trkpt lat="44.96914" lon="4.65468">
        <ele>652</ele>
        <time>2018-05-02T10:04:02+02:00</time>
      </trkpt>
      <trkpt lat="44.96918" lon="4.65449">
        <ele>652</ele>
        <time>2018-05-02T10:04:13+02:00</time>
      </trkpt>
      <trkpt lat="44.96921" lon="4.6544">
        <ele>652</ele>
        <time>2018-05-02T10:04:18+02:00</time>
      </trkpt>
      <trkpt lat="44.9692" lon="4.65421">
        <ele>653</ele>
        <time>2018-05-02T10:04:27+02:00</time>
      </trkpt>
      <trkpt lat="44.9692" lon="4.65416">
        <ele>653</ele>
        <time>2018-05-02T10:04:30+02:00</time>
      </trkpt>
      <trkpt lat="44.96921" lon="4.65401">
        <ele>653</ele>
        <time>2018-05-02T10:04:38+02:00</time>
      </trkpt>
      <trkpt lat="44.96923" lon="4.65384">
        <ele>652</ele>
        <time>2018-05-02T10:04:46+02:00</time>
      </trkpt>
      <trkpt lat="44.96924" lon="4.65372">
        <ele>652</ele>
        <time>2018-05-02T10:04:53+02:00</time>
      </trkpt>
      <trkpt lat="44.9692" lon="4.65361">
        <ele>653</ele>
        <time>2018-05-02T10:04:59+02:00</time>
      </trkpt>
      <trkpt lat="44.9692" lon="4.65345">
        <ele>654</ele>
        <time>2018-05-02T10:05:07+02:00</time>
      </trkpt>
      <trkpt lat="44.96918" lon="4.65328">
        <ele>654</ele>
        <time>2018-05-02T10:05:16+02:00</time>
      </trkpt>
      <trkpt lat="44.96921" lon="4.65312">
        <ele>654</ele>
        <time>2018-05-02T10:05:25+02:00</time>
      </trkpt>
      <trkpt lat="44.96922" lon="4.65299">
        <ele>653</ele>
        <time>2018-05-02T10:05:33+02:00</time>
      </trkpt>
      <trkpt lat="44.96923" lon="4.6528">
        <ele>653</ele>
        <time>2018-05-02T10:05:42+02:00</time>
      </trkpt>
      <trkpt lat="44.96924" lon="4.65266">
        <ele>653</ele>
        <time>2018-05-02T10:05:52+02:00</time>
      </trkpt>
      <trkpt lat="44.96919" lon="4.6525">
        <ele>655</ele>
        <time>2018-05-02T10:06:02+02:00</time>
      </trkpt>
      <trkpt lat="44.96917" lon="4.65244">
        <ele>656</ele>
        <time>2018-05-02T10:06:06+02:00</time>
      </trkpt>
      <trkpt lat="44.96918" lon="4.6524">
        <ele>655</ele>
        <time>2018-05-02T10:06:08+02:00</time>
      </trkpt>
      <trkpt lat="44.96925" lon="4.65225">
        <ele>653</ele>
        <time>2018-05-02T10:06:17+02:00</time>
      </trkpt>
      <trkpt lat="44.96925" lon="4.65207">
        <ele>653</ele>
        <time>2018-05-02T10:06:26+02:00</time>
      </trkpt>
      <trkpt lat="44.96925" lon="4.65203">
        <ele>653</ele>
        <time>2018-05-02T10:06:28+02:00</time>
      </trkpt>
      <trkpt lat="44.96926" lon="4.65199">
        <ele>653</ele>
        <time>2018-05-02T10:06:30+02:00</time>
      </trkpt>
      <trkpt lat="44.96942" lon="4.65179">
        <ele>647</ele>
        <time>2018-05-02T10:06:40+02:00</time>
      </trkpt>
      <trkpt lat="44.96945" lon="4.65172">
        <ele>647</ele>
        <time>2018-05-02T10:06:49+02:00</time>
      </trkpt>
      <trkpt lat="44.9694" lon="4.6517">
        <ele>648</ele>
        <time>2018-05-02T10:06:58+02:00</time>
      </trkpt>
      <trkpt lat="44.96947" lon="4.65162">
        <ele>646</ele>
        <time>2018-05-02T10:07:07+02:00</time>
      </trkpt>
      <trkpt lat="44.96954" lon="4.65151">
        <ele>645</ele>
        <time>2018-05-02T10:07:17+02:00</time>
      </trkpt>
      <trkpt lat="44.96955" lon="4.65146">
        <ele>645</ele>
        <time>2018-05-02T10:07:20+02:00</time>
      </trkpt>
      <trkpt lat="44.96957" lon="4.65142">
        <ele>645</ele>
        <time>2018-05-02T10:07:27+02:00</time>
      </trkpt>
      <trkpt lat="44.96957" lon="4.65138">
        <ele>645</ele>
        <time>2018-05-02T10:07:35+02:00</time>
      </trkpt>
      <trkpt lat="44.96959" lon="4.65133">
        <ele>645</ele>
        <time>2018-05-02T10:07:43+02:00</time>
      </trkpt>
      <trkpt lat="44.96961" lon="4.65126">
        <ele>645</ele>
        <time>2018-05-02T10:07:50+02:00</time>
      </trkpt>
      <trkpt lat="44.96965" lon="4.65114">
        <ele>645</ele>
        <time>2018-05-02T10:07:58+02:00</time>
      </trkpt>
      <trkpt lat="44.96976" lon="4.65091">
        <ele>644</ele>
        <time>2018-05-02T10:08:08+02:00</time>
      </trkpt>
      <trkpt lat="44.96976" lon="4.65076">
        <ele>645</ele>
        <time>2018-05-02T10:08:16+02:00</time>
      </trkpt>
      <trkpt lat="44.96975" lon="4.65062">
        <ele>647</ele>
        <time>2018-05-02T10:08:24+02:00</time>
      </trkpt>
      <trkpt lat="44.96978" lon="4.6505">
        <ele>647</ele>
        <time>2018-05-02T10:08:31+02:00</time>
      </trkpt>
      <trkpt lat="44.96976" lon="4.65036">
        <ele>649</ele>
        <time>2018-05-02T10:08:41+02:00</time>
      </trkpt>
      <trkpt lat="44.96987" lon="4.65019">
        <ele>648</ele>
        <time>2018-05-02T10:08:49+02:00</time>
      </trkpt>
      <trkpt lat="44.96999" lon="4.6501">
        <ele>645</ele>
        <time>2018-05-02T10:08:58+02:00</time>
      </trkpt>
      <trkpt lat="44.97003" lon="4.65008">
        <ele>644</ele>
        <time>2018-05-02T10:09:03+02:00</time>
      </trkpt>
      <trkpt lat="44.97013" lon="4.65008">
        <ele>643</ele>
        <time>2018-05-02T10:09:12+02:00</time>
      </trkpt>
      <trkpt lat="44.97022" lon="4.65006">
        <ele>641</ele>
        <time>2018-05-02T10:09:20+02:00</time>
      </trkpt>
      <trkpt lat="44.97036" lon="4.65004">
        <ele>639</ele>
        <time>2018-05-02T10:09:30+02:00</time>
      </trkpt>
      <trkpt lat="44.9704" lon="4.65">
        <ele>638</ele>
        <time>2018-05-02T10:09:33+02:00</time>
      </trkpt>
      <trkpt lat="44.97044" lon="4.64991">
        <ele>637</ele>
        <time>2018-05-02T10:09:41+02:00</time>
      </trkpt>
      <trkpt lat="44.97047" lon="4.64982">
        <ele>637</ele>
        <time>2018-05-02T10:09:49+02:00</time>
      </trkpt>
      <trkpt lat="44.97048" lon="4.64972">
        <ele>636</ele>
        <time>2018-05-02T10:09:55+02:00</time>
      </trkpt>
      <trkpt lat="44.97045" lon="4.64962">
        <ele>637</ele>
        <time>2018-05-02T10:10:02+02:00</time>
      </trkpt>
      <trkpt lat="44.97042" lon="4.64946">
        <ele>637</ele>
        <time>2018-05-02T10:10:12+02:00</time>
      </trkpt>
      <trkpt lat="44.97042" lon="4.6494">
        <ele>637</ele>
        <time>2018-05-02T10:10:16+02:00</time>
      </trkpt>
      <trkpt lat="44.97042" lon="4.64929">
        <ele>637</ele>
        <time>2018-05-02T10:10:22+02:00</time>
      </trkpt>
      <trkpt lat="44.97043" lon="4.64913">
        <ele>636</ele>
        <time>2018-05-02T10:10:31+02:00</time>
      </trkpt>
      <trkpt lat="44.97041" lon="4.64902">
        <ele>636</ele>
        <time>2018-05-02T10:10:38+02:00</time>
      </trkpt>
      <trkpt lat="44.97043" lon="4.6489">
        <ele>636</ele>
        <time>2018-05-02T10:10:45+02:00</time>
      </trkpt>
      <trkpt lat="44.97045" lon="4.64884">
        <ele>635</ele>
        <time>2018-05-02T10:10:48+02:00</time>
      </trkpt>
      <trkpt lat="44.97048" lon="4.64869">
        <ele>635</ele>
        <time>2018-05-02T10:10:54+02:00</time>
      </trkpt>
      <trkpt lat="44.97047" lon="4.64861">
        <ele>635</ele>
        <time>2018-05-02T10:10:59+02:00</time>
      </trkpt>
      <trkpt lat="44.97044" lon="4.64846">
        <ele>635</ele>
        <time>2018-05-02T10:11:08+02:00</time>
      </trkpt>
      <trkpt lat="44.97044" lon="4.64845">
        <ele>635</ele>
        <time>2018-05-02T10:11:09+02:00</time>
      </trkpt>
      <trkpt lat="44.97046" lon="4.64836">
        <ele>634</ele>
        <time>2018-05-02T10:11:14+02:00</time>
      </trkpt>
      <trkpt lat="44.97047" lon="4.64833">
        <ele>634</ele>
        <time>2018-05-02T10:11:16+02:00</time>
      </trkpt>
      <trkpt lat="44.97051" lon="4.64823">
        <ele>634</ele>
        <time>2018-05-02T10:11:22+02:00</time>
      </trkpt>
      <trkpt lat="44.97053" lon="4.64815">
        <ele>635</ele>
        <time>2018-05-02T10:11:27+02:00</time>
      </trkpt>
      <trkpt lat="44.97055" lon="4.64809">
        <ele>635</ele>
        <time>2018-05-02T10:11:36+02:00</time>
      </trkpt>
      <trkpt lat="44.97057" lon="4.64801">
        <ele>635</ele>
        <time>2018-05-02T10:11:42+02:00</time>
      </trkpt>
      <trkpt lat="44.97057" lon="4.64791">
        <ele>636</ele>
        <time>2018-05-02T10:11:49+02:00</time>
      </trkpt>
      <trkpt lat="44.97056" lon="4.64777">
        <ele>636</ele>
        <time>2018-05-02T10:11:58+02:00</time>
      </trkpt>
      <trkpt lat="44.97057" lon="4.64765">
        <ele>637</ele>
        <time>2018-05-02T10:12:06+02:00</time>
      </trkpt>
      <trkpt lat="44.97058" lon="4.64764">
        <ele>637</ele>
        <time>2018-05-02T10:12:07+02:00</time>
      </trkpt>
      <trkpt lat="44.97064" lon="4.6476">
        <ele>637</ele>
        <time>2018-05-02T10:12:14+02:00</time>
      </trkpt>
      <trkpt lat="44.97067" lon="4.64757">
        <ele>638</ele>
        <time>2018-05-02T10:12:20+02:00</time>
      </trkpt>
      <trkpt lat="44.97075" lon="4.64753">
        <ele>638</ele>
        <time>2018-05-02T10:12:28+02:00</time>
      </trkpt>
      <trkpt lat="44.97082" lon="4.64745">
        <ele>639</ele>
        <time>2018-05-02T10:12:36+02:00</time>
      </trkpt>
      <trkpt lat="44.9709" lon="4.64733">
        <ele>641</ele>
        <time>2018-05-02T10:12:46+02:00</time>
      </trkpt>
      <trkpt lat="44.97091" lon="4.64732">
        <ele>641</ele>
        <time>2018-05-02T10:12:47+02:00</time>
      </trkpt>
      <trkpt lat="44.97096" lon="4.64722">
        <ele>642</ele>
        <time>2018-05-02T10:12:55+02:00</time>
      </trkpt>
      <trkpt lat="44.97102" lon="4.64712">
        <ele>643</ele>
        <time>2018-05-02T10:13:04+02:00</time>
      </trkpt>
      <trkpt lat="44.97107" lon="4.64705">
        <ele>644</ele>
        <time>2018-05-02T10:13:11+02:00</time>
      </trkpt>
      <trkpt lat="44.97111" lon="4.64697">
        <ele>645</ele>
        <time>2018-05-02T10:13:19+02:00</time>
      </trkpt>
      <trkpt lat="44.97115" lon="4.6469">
        <ele>647</ele>
        <time>2018-05-02T10:13:26+02:00</time>
      </trkpt>
      <trkpt lat="44.97116" lon="4.64676">
        <ele>649</ele>
        <time>2018-05-02T10:13:36+02:00</time>
      </trkpt>
      <trkpt lat="44.97114" lon="4.64665">
        <ele>650</ele>
        <time>2018-05-02T10:13:45+02:00</time>
      </trkpt>
      <trkpt lat="44.97112" lon="4.64661">
        <ele>651</ele>
        <time>2018-05-02T10:13:49+02:00</time>
      </trkpt>
      <trkpt lat="44.97108" lon="4.64651">
        <ele>652</ele>
        <time>2018-05-02T10:13:58+02:00</time>
      </trkpt>
      <trkpt lat="44.97109" lon="4.64643">
        <ele>653</ele>
        <time>2018-05-02T10:14:06+02:00</time>
      </trkpt>
      <trkpt lat="44.97112" lon="4.64638">
        <ele>654</ele>
        <time>2018-05-02T10:14:13+02:00</time>
      </trkpt>
      <trkpt lat="44.97119" lon="4.64633">
        <ele>655</ele>
        <time>2018-05-02T10:14:24+02:00</time>
      </trkpt>
      <trkpt lat="44.97126" lon="4.64631">
        <ele>656</ele>
        <time>2018-05-02T10:14:33+02:00</time>
      </trkpt>
      <trkpt lat="44.97129" lon="4.64626">
        <ele>657</ele>
        <time>2018-05-02T10:14:39+02:00</time>
      </trkpt>
      <trkpt lat="44.97135" lon="4.64621">
        <ele>658</ele>
        <time>2018-05-02T10:14:47+02:00</time>
      </trkpt>
      <trkpt lat="44.97142" lon="4.6462">
        <ele>659</ele>
        <time>2018-05-02T10:14:55+02:00</time>
      </trkpt>
      <trkpt lat="44.97147" lon="4.64618">
        <ele>659</ele>
        <time>2018-05-02T10:15:01+02:00</time>
      </trkpt>
      <trkpt lat="44.97145" lon="4.64617">
        <ele>659</ele>
        <time>2018-05-02T10:15:09+02:00</time>
      </trkpt>
      <trkpt lat="44.97148" lon="4.64618">
        <ele>659</ele>
        <time>2018-05-02T10:15:15+02:00</time>
      </trkpt>
      <trkpt lat="44.97157" lon="4.64621">
        <ele>660</ele>
        <time>2018-05-02T10:15:24+02:00</time>
      </trkpt>
      <trkpt lat="44.97165" lon="4.6462">
        <ele>661</ele>
        <time>2018-05-02T10:15:31+02:00</time>
      </trkpt>
      <trkpt lat="44.97168" lon="4.64619">
        <ele>661</ele>
        <time>2018-05-02T10:15:34+02:00</time>
      </trkpt>
      <trkpt lat="44.97175" lon="4.64617">
        <ele>661</ele>
        <time>2018-05-02T10:15:41+02:00</time>
      </trkpt>
      <trkpt lat="44.97183" lon="4.64611">
        <ele>662</ele>
        <time>2018-05-02T10:15:51+02:00</time>
      </trkpt>
      <trkpt lat="44.97186" lon="4.64612">
        <ele>662</ele>
        <time>2018-05-02T10:16:02+02:00</time>
      </trkpt>
      <trkpt lat="44.97188" lon="4.64609">
        <ele>663</ele>
        <time>2018-05-02T10:16:09+02:00</time>
      </trkpt>
      <trkpt lat="44.97195" lon="4.64598">
        <ele>664</ele>
        <time>2018-05-02T10:16:18+02:00</time>
      </trkpt>
      <trkpt lat="44.97202" lon="4.64582">
        <ele>667</ele>
        <time>2018-05-02T10:16:27+02:00</time>
      </trkpt>
      <trkpt lat="44.97208" lon="4.64574">
        <ele>668</ele>
        <time>2018-05-02T10:16:35+02:00</time>
      </trkpt>
      <trkpt lat="44.97214" lon="4.64566">
        <ele>669</ele>
        <time>2018-05-02T10:16:43+02:00</time>
      </trkpt>
      <trkpt lat="44.97219" lon="4.64568">
        <ele>668</ele>
        <time>2018-05-02T10:16:53+02:00</time>
      </trkpt>
      <trkpt lat="44.97222" lon="4.64569">
        <ele>668</ele>
        <time>2018-05-02T10:16:56+02:00</time>
      </trkpt>
      <trkpt lat="44.97231" lon="4.64574">
        <ele>668</ele>
        <time>2018-05-02T10:17:04+02:00</time>
      </trkpt>
      <trkpt lat="44.97239" lon="4.64579">
        <ele>667</ele>
        <time>2018-05-02T10:17:12+02:00</time>
      </trkpt>
      <trkpt lat="44.97251" lon="4.64583">
        <ele>666</ele>
        <time>2018-05-02T10:17:22+02:00</time>
      </trkpt>
      <trkpt lat="44.97262" lon="4.64583">
        <ele>666</ele>
        <time>2018-05-02T10:17:30+02:00</time>
      </trkpt>
      <trkpt lat="44.97271" lon="4.64582">
        <ele>666</ele>
        <time>2018-05-02T10:17:39+02:00</time>
      </trkpt>
      <trkpt lat="44.97282" lon="4.64578">
        <ele>666</ele>
        <time>2018-05-02T10:17:48+02:00</time>
      </trkpt>
      <trkpt lat="44.9729" lon="4.64574">
        <ele>667</ele>
        <time>2018-05-02T10:17:56+02:00</time>
      </trkpt>
      <trkpt lat="44.97299" lon="4.64566">
        <ele>668</ele>
        <time>2018-05-02T10:18:05+02:00</time>
      </trkpt>
      <trkpt lat="44.97307" lon="4.64557">
        <ele>670</ele>
        <time>2018-05-02T10:18:14+02:00</time>
      </trkpt>
      <trkpt lat="44.97314" lon="4.6455">
        <ele>671</ele>
        <time>2018-05-02T10:18:24+02:00</time>
      </trkpt>
      <trkpt lat="44.97323" lon="4.64546">
        <ele>671</ele>
        <time>2018-05-02T10:18:31+02:00</time>
      </trkpt>
      <trkpt lat="44.97327" lon="4.64544">
        <ele>672</ele>
        <time>2018-05-02T10:18:37+02:00</time>
      </trkpt>
      <trkpt lat="44.97334" lon="4.64545">
        <ele>672</ele>
        <time>2018-05-02T10:18:44+02:00</time>
      </trkpt>
      <trkpt lat="44.97338" lon="4.64546">
        <ele>672</ele>
        <time>2018-05-02T10:18:48+02:00</time>
      </trkpt>
      <trkpt lat="44.9735" lon="4.64552">
        <ele>672</ele>
        <time>2018-05-02T10:18:58+02:00</time>
      </trkpt>
      <trkpt lat="44.97359" lon="4.6456">
        <ele>671</ele>
        <time>2018-05-02T10:19:05+02:00</time>
      </trkpt>
      <trkpt lat="44.97364" lon="4.6456">
        <ele>672</ele>
        <time>2018-05-02T10:19:10+02:00</time>
      </trkpt>
      <trkpt lat="44.97372" lon="4.64562">
        <ele>673</ele>
        <time>2018-05-02T10:19:18+02:00</time>
      </trkpt>
      <trkpt lat="44.97378" lon="4.64566">
        <ele>673</ele>
        <time>2018-05-02T10:19:23+02:00</time>
      </trkpt>
      <trkpt lat="44.97386" lon="4.64572">
        <ele>672</ele>
        <time>2018-05-02T10:19:32+02:00</time>
      </trkpt>
      <trkpt lat="44.97391" lon="4.64579">
        <ele>672</ele>
        <time>2018-05-02T10:19:40+02:00</time>
      </trkpt>
      <trkpt lat="44.97401" lon="4.6459">
        <ele>671</ele>
        <time>2018-05-02T10:19:49+02:00</time>
      </trkpt>
      <trkpt lat="44.97406" lon="4.64595">
        <ele>671</ele>
        <time>2018-05-02T10:19:56+02:00</time>
      </trkpt>
      <trkpt lat="44.97411" lon="4.64597">
        <ele>671</ele>
        <time>2018-05-02T10:20:04+02:00</time>
      </trkpt>
      <trkpt lat="44.97411" lon="4.64595">
        <ele>671</ele>
        <time>2018-05-02T10:20:20+02:00</time>
      </trkpt>
      <trkpt lat="44.97412" lon="4.64594">
        <ele>671</ele>
        <time>2018-05-02T10:20:35+02:00</time>
      </trkpt>
      <trkpt lat="44.97415" lon="4.64593">
        <ele>672</ele>
        <time>2018-05-02T10:20:47+02:00</time>
      </trkpt>
      <trkpt lat="44.97418" lon="4.64595">
        <ele>672</ele>
        <time>2018-05-02T10:20:59+02:00</time>
      </trkpt>
      <trkpt lat="44.97421" lon="4.64594">
        <ele>672</ele>
        <time>2018-05-02T10:21:08+02:00</time>
      </trkpt>
      <trkpt lat="44.97423" lon="4.64593">
        <ele>672</ele>
        <time>2018-05-02T10:21:17+02:00</time>
      </trkpt>
      <trkpt lat="44.97428" lon="4.64592">
        <ele>672</ele>
        <time>2018-05-02T10:21:22+02:00</time>
      </trkpt>
      <trkpt lat="44.97435" lon="4.64586">
        <ele>673</ele>
        <time>2018-05-02T10:21:30+02:00</time>
      </trkpt>
      <trkpt lat="44.97435" lon="4.64585">
        <ele>673</ele>
        <time>2018-05-02T10:21:31+02:00</time>
      </trkpt>
      <trkpt lat="44.97441" lon="4.64577">
        <ele>674</ele>
        <time>2018-05-02T10:21:40+02:00</time>
      </trkpt>
      <trkpt lat="44.97448" lon="4.64562">
        <ele>676</ele>
        <time>2018-05-02T10:21:52+02:00</time>
      </trkpt>
      <trkpt lat="44.97452" lon="4.64555">
        <ele>677</ele>
        <time>2018-05-02T10:21:59+02:00</time>
      </trkpt>
      <trkpt lat="44.97456" lon="4.64541">
        <ele>678</ele>
        <time>2018-05-02T10:22:07+02:00</time>
      </trkpt>
      <trkpt lat="44.97457" lon="4.6454">
        <ele>679</ele>
        <time>2018-05-02T10:22:08+02:00</time>
      </trkpt>
      <trkpt lat="44.97461" lon="4.64527">
        <ele>680</ele>
        <time>2018-05-02T10:22:15+02:00</time>
      </trkpt>
      <trkpt lat="44.97462" lon="4.64515">
        <ele>682</ele>
        <time>2018-05-02T10:22:22+02:00</time>
      </trkpt>
      <trkpt lat="44.97461" lon="4.64514">
        <ele>682</ele>
        <time>2018-05-02T10:22:24+02:00</time>
      </trkpt>
      <trkpt lat="44.97461" lon="4.64508">
        <ele>683</ele>
        <time>2018-05-02T10:22:28+02:00</time>
      </trkpt>
      <trkpt lat="44.97461" lon="4.64495">
        <ele>684</ele>
        <time>2018-05-02T10:22:36+02:00</time>
      </trkpt>
      <trkpt lat="44.97461" lon="4.64483">
        <ele>686</ele>
        <time>2018-05-02T10:22:44+02:00</time>
      </trkpt>
      <trkpt lat="44.97462" lon="4.6447">
        <ele>688</ele>
        <time>2018-05-02T10:22:51+02:00</time>
      </trkpt>
      <trkpt lat="44.97466" lon="4.64457">
        <ele>689</ele>
        <time>2018-05-02T10:22:59+02:00</time>
      </trkpt>
      <trkpt lat="44.97466" lon="4.64451">
        <ele>690</ele>
        <time>2018-05-02T10:23:06+02:00</time>
      </trkpt>
      <trkpt lat="44.97471" lon="4.6444">
        <ele>691</ele>
        <time>2018-05-02T10:23:14+02:00</time>
      </trkpt>
      <trkpt lat="44.97475" lon="4.64429">
        <ele>692</ele>
        <time>2018-05-02T10:23:21+02:00</time>
      </trkpt>
      <trkpt lat="44.97482" lon="4.64418">
        <ele>694</ele>
        <time>2018-05-02T10:23:28+02:00</time>
      </trkpt>
      <trkpt lat="44.97487" lon="4.64415">
        <ele>694</ele>
        <time>2018-05-02T10:23:34+02:00</time>
      </trkpt>
      <trkpt lat="44.9749" lon="4.64414">
        <ele>694</ele>
        <time>2018-05-02T10:23:36+02:00</time>
      </trkpt>
      <trkpt lat="44.975" lon="4.64412">
        <ele>694</ele>
        <time>2018-05-02T10:23:45+02:00</time>
      </trkpt>
      <trkpt lat="44.97509" lon="4.64414">
        <ele>694</ele>
        <time>2018-05-02T10:23:55+02:00</time>
      </trkpt>
      <trkpt lat="44.97518" lon="4.64418">
        <ele>694</ele>
        <time>2018-05-02T10:24:04+02:00</time>
      </trkpt>
      <trkpt lat="44.97526" lon="4.64424">
        <ele>693</ele>
        <time>2018-05-02T10:24:11+02:00</time>
      </trkpt>
      <trkpt lat="44.97535" lon="4.64434">
        <ele>691</ele>
        <time>2018-05-02T10:24:19+02:00</time>
      </trkpt>
      <trkpt lat="44.97544" lon="4.64438">
        <ele>691</ele>
        <time>2018-05-02T10:24:26+02:00</time>
      </trkpt>
      <trkpt lat="44.97551" lon="4.64441">
        <ele>690</ele>
        <time>2018-05-02T10:24:34+02:00</time>
      </trkpt>
      <trkpt lat="44.97557" lon="4.64444">
        <ele>690</ele>
        <time>2018-05-02T10:24:41+02:00</time>
      </trkpt>
      <trkpt lat="44.97566" lon="4.64443">
        <ele>690</ele>
        <time>2018-05-02T10:24:49+02:00</time>
      </trkpt>
      <trkpt lat="44.97577" lon="4.64441">
        <ele>691</ele>
        <time>2018-05-02T10:24:57+02:00</time>
      </trkpt>
      <trkpt lat="44.9759" lon="4.64438">
        <ele>692</ele>
        <time>2018-05-02T10:25:06+02:00</time>
      </trkpt>
      <trkpt lat="44.97599" lon="4.64432">
        <ele>693</ele>
        <time>2018-05-02T10:25:13+02:00</time>
      </trkpt>
      <trkpt lat="44.97606" lon="4.64421">
        <ele>696</ele>
        <time>2018-05-02T10:25:21+02:00</time>
      </trkpt>
      <trkpt lat="44.97611" lon="4.64409">
        <ele>698</ele>
        <time>2018-05-02T10:25:28+02:00</time>
      </trkpt>
      <trkpt lat="44.97614" lon="4.64398">
        <ele>700</ele>
        <time>2018-05-02T10:25:35+02:00</time>
      </trkpt>
      <trkpt lat="44.97617" lon="4.64388">
        <ele>703</ele>
        <time>2018-05-02T10:25:42+02:00</time>
      </trkpt>
      <trkpt lat="44.97618" lon="4.64387">
        <ele>703</ele>
        <time>2018-05-02T10:25:51+02:00</time>
      </trkpt>
      <trkpt lat="44.97617" lon="4.64391">
        <ele>702</ele>
        <time>2018-05-02T10:26:16+02:00</time>
      </trkpt>
      <trkpt lat="44.97617" lon="4.64398">
        <ele>700</ele>
        <time>2018-05-02T10:26:32+02:00</time>
      </trkpt>
      <trkpt lat="44.97621" lon="4.64387">
        <ele>703</ele>
        <time>2018-05-02T10:26:42+02:00</time>
      </trkpt>
      <trkpt lat="44.97625" lon="4.64376">
        <ele>705</ele>
        <time>2018-05-02T10:26:51+02:00</time>
      </trkpt>
      <trkpt lat="44.97626" lon="4.64372">
        <ele>706</ele>
        <time>2018-05-02T10:27:01+02:00</time>
      </trkpt>
      <trkpt lat="44.97633" lon="4.64361">
        <ele>708</ele>
        <time>2018-05-02T10:27:12+02:00</time>
      </trkpt>
      <trkpt lat="44.97634" lon="4.6436">
        <ele>708</ele>
        <time>2018-05-02T10:27:14+02:00</time>
      </trkpt>
      <trkpt lat="44.97641" lon="4.64362">
        <ele>708</ele>
        <time>2018-05-02T10:27:21+02:00</time>
      </trkpt>
      <trkpt lat="44.97644" lon="4.64364">
        <ele>707</ele>
        <time>2018-05-02T10:27:24+02:00</time>
      </trkpt>
      <trkpt lat="44.97648" lon="4.64374">
        <ele>705</ele>
        <time>2018-05-02T10:27:31+02:00</time>
      </trkpt>
      <trkpt lat="44.97652" lon="4.64378">
        <ele>704</ele>
        <time>2018-05-02T10:27:36+02:00</time>
      </trkpt>
      <trkpt lat="44.97662" lon="4.64391">
        <ele>701</ele>
        <time>2018-05-02T10:27:47+02:00</time>
      </trkpt>
      <trkpt lat="44.97668" lon="4.64396">
        <ele>700</ele>
        <time>2018-05-02T10:27:52+02:00</time>
      </trkpt>
      <trkpt lat="44.97677" lon="4.644">
        <ele>700</ele>
        <time>2018-05-02T10:28:00+02:00</time>
      </trkpt>
      <trkpt lat="44.97686" lon="4.644">
        <ele>701</ele>
        <time>2018-05-02T10:28:08+02:00</time>
      </trkpt>
      <trkpt lat="44.97692" lon="4.64403">
        <ele>701</ele>
        <time>2018-05-02T10:28:14+02:00</time>
      </trkpt>
      <trkpt lat="44.977" lon="4.64408">
        <ele>701</ele>
        <time>2018-05-02T10:28:22+02:00</time>
      </trkpt>
      <trkpt lat="44.97712" lon="4.64414">
        <ele>701</ele>
        <time>2018-05-02T10:28:31+02:00</time>
      </trkpt>
      <trkpt lat="44.97724" lon="4.64424">
        <ele>700</ele>
        <time>2018-05-02T10:28:39+02:00</time>
      </trkpt>
      <trkpt lat="44.97734" lon="4.6443">
        <ele>700</ele>
        <time>2018-05-02T10:28:47+02:00</time>
      </trkpt>
      <trkpt lat="44.97744" lon="4.64434">
        <ele>700</ele>
        <time>2018-05-02T10:28:55+02:00</time>
      </trkpt>
      <trkpt lat="44.97746" lon="4.64435">
        <ele>699</ele>
        <time>2018-05-02T10:28:57+02:00</time>
      </trkpt>
      <trkpt lat="44.97754" lon="4.6444">
        <ele>699</ele>
        <time>2018-05-02T10:29:04+02:00</time>
      </trkpt>
      <trkpt lat="44.97756" lon="4.64443">
        <ele>699</ele>
        <time>2018-05-02T10:29:06+02:00</time>
      </trkpt>
      <trkpt lat="44.97759" lon="4.64449">
        <ele>697</ele>
        <time>2018-05-02T10:29:11+02:00</time>
      </trkpt>
      <trkpt lat="44.97761" lon="4.64451">
        <ele>697</ele>
        <time>2018-05-02T10:29:13+02:00</time>
      </trkpt>
      <trkpt lat="44.97766" lon="4.64462">
        <ele>695</ele>
        <time>2018-05-02T10:29:21+02:00</time>
      </trkpt>
      <trkpt lat="44.97768" lon="4.64464">
        <ele>695</ele>
        <time>2018-05-02T10:29:27+02:00</time>
      </trkpt>
      <trkpt lat="44.97768" lon="4.6447">
        <ele>693</ele>
        <time>2018-05-02T10:29:43+02:00</time>
      </trkpt>
      <trkpt lat="44.97774" lon="4.64475">
        <ele>693</ele>
        <time>2018-05-02T10:29:53+02:00</time>
      </trkpt>
      <trkpt lat="44.97779" lon="4.64483">
        <ele>692</ele>
        <time>2018-05-02T10:30:00+02:00</time>
      </trkpt>
      <trkpt lat="44.9778" lon="4.64486">
        <ele>691</ele>
        <time>2018-05-02T10:30:08+02:00</time>
      </trkpt>
      <trkpt lat="44.97782" lon="4.64492">
        <ele>690</ele>
        <time>2018-05-02T10:30:19+02:00</time>
      </trkpt>
      <trkpt lat="44.97786" lon="4.64496">
        <ele>690</ele>
        <time>2018-05-02T10:30:24+02:00</time>
      </trkpt>
      <trkpt lat="44.97792" lon="4.64503">
        <ele>689</ele>
        <time>2018-05-02T10:30:32+02:00</time>
      </trkpt>
      <trkpt lat="44.97799" lon="4.64507">
        <ele>690</ele>
        <time>2018-05-02T10:30:41+02:00</time>
      </trkpt>
      <trkpt lat="44.97799" lon="4.64507">
        <ele>690</ele>
        <time>2018-05-02T10:30:50+02:00</time>
      </trkpt>
      <trkpt lat="44.97798" lon="4.64506">
        <ele>690</ele>
        <time>2018-05-02T10:31:02+02:00</time>
      </trkpt>
      <trkpt lat="44.97804" lon="4.64509">
        <ele>691</ele>
        <time>2018-05-02T10:31:09+02:00</time>
      </trkpt>
      <trkpt lat="44.97811" lon="4.64511">
        <ele>692</ele>
        <time>2018-05-02T10:31:17+02:00</time>
      </trkpt>
      <trkpt lat="44.97813" lon="4.64514">
        <ele>692</ele>
        <time>2018-05-02T10:31:25+02:00</time>
      </trkpt>
      <trkpt lat="44.97817" lon="4.64517">
        <ele>692</ele>
        <time>2018-05-02T10:31:40+02:00</time>
      </trkpt>
      <trkpt lat="44.97826" lon="4.64521">
        <ele>693</ele>
        <time>2018-05-02T10:31:50+02:00</time>
      </trkpt>
      <trkpt lat="44.97839" lon="4.64526">
        <ele>695</ele>
        <time>2018-05-02T10:32:00+02:00</time>
      </trkpt>
      <trkpt lat="44.97844" lon="4.64535">
        <ele>695</ele>
        <time>2018-05-02T10:32:10+02:00</time>
      </trkpt>
      <trkpt lat="44.97845" lon="4.64553">
        <ele>692</ele>
        <time>2018-05-02T10:32:20+02:00</time>
      </trkpt>
      <trkpt lat="44.97845" lon="4.64564">
        <ele>691</ele>
        <time>2018-05-02T10:32:27+02:00</time>
      </trkpt>
      <trkpt lat="44.97848" lon="4.64578">
        <ele>689</ele>
        <time>2018-05-02T10:32:35+02:00</time>
      </trkpt>
      <trkpt lat="44.9785" lon="4.64591">
        <ele>688</ele>
        <time>2018-05-02T10:32:42+02:00</time>
      </trkpt>
      <trkpt lat="44.97854" lon="4.64599">
        <ele>688</ele>
        <time>2018-05-02T10:32:48+02:00</time>
      </trkpt>
      <trkpt lat="44.97854" lon="4.64602">
        <ele>687</ele>
        <time>2018-05-02T10:32:50+02:00</time>
      </trkpt>
      <trkpt lat="44.97855" lon="4.64607">
        <ele>687</ele>
        <time>2018-05-02T10:32:53+02:00</time>
      </trkpt>
      <trkpt lat="44.97856" lon="4.6461">
        <ele>687</ele>
        <time>2018-05-02T10:32:55+02:00</time>
      </trkpt>
      <trkpt lat="44.97863" lon="4.64623">
        <ele>687</ele>
        <time>2018-05-02T10:33:04+02:00</time>
      </trkpt>
      <trkpt lat="44.97867" lon="4.64635">
        <ele>686</ele>
        <time>2018-05-02T10:33:12+02:00</time>
      </trkpt>
      <trkpt lat="44.97867" lon="4.64637">
        <ele>686</ele>
        <time>2018-05-02T10:33:13+02:00</time>
      </trkpt>
      <trkpt lat="44.97872" lon="4.64649">
        <ele>685</ele>
        <time>2018-05-02T10:33:20+02:00</time>
      </trkpt>
      <trkpt lat="44.97874" lon="4.64663">
        <ele>684</ele>
        <time>2018-05-02T10:33:27+02:00</time>
      </trkpt>
      <trkpt lat="44.97873" lon="4.64677">
        <ele>682</ele>
        <time>2018-05-02T10:33:35+02:00</time>
      </trkpt>
      <trkpt lat="44.9787" lon="4.6469">
        <ele>679</ele>
        <time>2018-05-02T10:33:44+02:00</time>
      </trkpt>
      <trkpt lat="44.97865" lon="4.64698">
        <ele>677</ele>
        <time>2018-05-02T10:33:51+02:00</time>
      </trkpt>
      <trkpt lat="44.97864" lon="4.64701">
        <ele>676</ele>
        <time>2018-05-02T10:33:53+02:00</time>
      </trkpt>
      <trkpt lat="44.97861" lon="4.64717">
        <ele>674</ele>
        <time>2018-05-02T10:34:02+02:00</time>
      </trkpt>
      <trkpt lat="44.9786" lon="4.64726">
        <ele>672</ele>
        <time>2018-05-02T10:34:10+02:00</time>
      </trkpt>
      <trkpt lat="44.97861" lon="4.64731">
        <ele>672</ele>
        <time>2018-05-02T10:34:19+02:00</time>
      </trkpt>
      <trkpt lat="44.97862" lon="4.64737">
        <ele>672</ele>
        <time>2018-05-02T10:34:24+02:00</time>
      </trkpt>
      <trkpt lat="44.97863" lon="4.64756">
        <ele>670</ele>
        <time>2018-05-02T10:34:35+02:00</time>
      </trkpt>
      <trkpt lat="44.97865" lon="4.64769">
        <ele>669</ele>
        <time>2018-05-02T10:34:43+02:00</time>
      </trkpt>
      <trkpt lat="44.97866" lon="4.64774">
        <ele>669</ele>
        <time>2018-05-02T10:34:46+02:00</time>
      </trkpt>
      <trkpt lat="44.97867" lon="4.64781">
        <ele>669</ele>
        <time>2018-05-02T10:34:55+02:00</time>
      </trkpt>
      <trkpt lat="44.9787" lon="4.64788">
        <ele>669</ele>
        <time>2018-05-02T10:35:06+02:00</time>
      </trkpt>
      <trkpt lat="44.97874" lon="4.64801">
        <ele>669</ele>
        <time>2018-05-02T10:35:15+02:00</time>
      </trkpt>
      <trkpt lat="44.97876" lon="4.64803">
        <ele>669</ele>
        <time>2018-05-02T10:35:23+02:00</time>
      </trkpt>
      <trkpt lat="44.97875" lon="4.64805">
        <ele>669</ele>
        <time>2018-05-02T10:35:38+02:00</time>
      </trkpt>
      <trkpt lat="44.97876" lon="4.64804">
        <ele>669</ele>
        <time>2018-05-02T10:35:49+02:00</time>
      </trkpt>
      <trkpt lat="44.97876" lon="4.64805">
        <ele>669</ele>
        <time>2018-05-02T10:36:00+02:00</time>
      </trkpt>
      <trkpt lat="44.97875" lon="4.64811">
        <ele>668</ele>
        <time>2018-05-02T10:36:10+02:00</time>
      </trkpt>
      <trkpt lat="44.97876" lon="4.64808">
        <ele>669</ele>
        <time>2018-05-02T10:36:22+02:00</time>
      </trkpt>
      <trkpt lat="44.97875" lon="4.64809">
        <ele>668</ele>
        <time>2018-05-02T10:36:36+02:00</time>
      </trkpt>
      <trkpt lat="44.97875" lon="4.64811">
        <ele>668</ele>
        <time>2018-05-02T10:36:51+02:00</time>
      </trkpt>
      <trkpt lat="44.97875" lon="4.64811">
        <ele>668</ele>
        <time>2018-05-02T10:37:08+02:00</time>
      </trkpt>
      <trkpt lat="44.97877" lon="4.64807">
        <ele>669</ele>
        <time>2018-05-02T10:37:26+02:00</time>
      </trkpt>
      <trkpt lat="44.97877" lon="4.64807">
        <ele>669</ele>
        <time>2018-05-02T10:37:38+02:00</time>
      </trkpt>
      <trkpt lat="44.97875" lon="4.64809">
        <ele>668</ele>
        <time>2018-05-02T10:37:47+02:00</time>
      </trkpt>
      <trkpt lat="44.97874" lon="4.64809">
        <ele>668</ele>
        <time>2018-05-02T10:38:03+02:00</time>
      </trkpt>
      <trkpt lat="44.97875" lon="4.64809">
        <ele>668</ele>
        <time>2018-05-02T10:38:18+02:00</time>
      </trkpt>
      <trkpt lat="44.97876" lon="4.64808">
        <ele>669</ele>
        <time>2018-05-02T10:38:35+02:00</time>
      </trkpt>
      <trkpt lat="44.97874" lon="4.64811">
        <ele>668</ele>
        <time>2018-05-02T10:38:52+02:00</time>
      </trkpt>
      <trkpt lat="44.97875" lon="4.64807">
        <ele>669</ele>
        <time>2018-05-02T10:39:10+02:00</time>
      </trkpt>
      <trkpt lat="44.97874" lon="4.64805">
        <ele>668</ele>
        <time>2018-05-02T10:39:26+02:00</time>
      </trkpt>
      <trkpt lat="44.97875" lon="4.64807">
        <ele>669</ele>
        <time>2018-05-02T10:39:42+02:00</time>
      </trkpt>
      <trkpt lat="44.97877" lon="4.64807">
        <ele>669</ele>
        <time>2018-05-02T10:39:57+02:00</time>
      </trkpt>
      <trkpt lat="44.97878" lon="4.64806">
        <ele>669</ele>
        <time>2018-05-02T10:40:15+02:00</time>
      </trkpt>
      <trkpt lat="44.97878" lon="4.64805">
        <ele>670</ele>
        <time>2018-05-02T10:40:31+02:00</time>
      </trkpt>
      <trkpt lat="44.97877" lon="4.64807">
        <ele>669</ele>
        <time>2018-05-02T10:40:49+02:00</time>
      </trkpt>
      <trkpt lat="44.97876" lon="4.6481">
        <ele>668</ele>
        <time>2018-05-02T10:41:02+02:00</time>
      </trkpt>
      <trkpt lat="44.97876" lon="4.64812">
        <ele>668</ele>
        <time>2018-05-02T10:41:16+02:00</time>
      </trkpt>
      <trkpt lat="44.97874" lon="4.64814">
        <ele>668</ele>
        <time>2018-05-02T10:41:33+02:00</time>
      </trkpt>
      <trkpt lat="44.97875" lon="4.64814">
        <ele>668</ele>
        <time>2018-05-02T10:41:42+02:00</time>
      </trkpt>
      <trkpt lat="44.97877" lon="4.64813">
        <ele>668</ele>
        <time>2018-05-02T10:41:55+02:00</time>
      </trkpt>
      <trkpt lat="44.97879" lon="4.64812">
        <ele>669</ele>
        <time>2018-05-02T10:42:13+02:00</time>
      </trkpt>
      <trkpt lat="44.9788" lon="4.64816">
        <ele>669</ele>
        <time>2018-05-02T10:42:27+02:00</time>
      </trkpt>
      <trkpt lat="44.97881" lon="4.64817">
        <ele>669</ele>
        <time>2018-05-02T10:42:28+02:00</time>
      </trkpt>
      <trkpt lat="44.97888" lon="4.64824">
        <ele>670</ele>
        <time>2018-05-02T10:42:37+02:00</time>
      </trkpt>
      <trkpt lat="44.97893" lon="4.64828">
        <ele>671</ele>
        <time>2018-05-02T10:42:42+02:00</time>
      </trkpt>
      <trkpt lat="44.97902" lon="4.64837">
        <ele>672</ele>
        <time>2018-05-02T10:42:50+02:00</time>
      </trkpt>
      <trkpt lat="44.97908" lon="4.64847">
        <ele>674</ele>
        <time>2018-05-02T10:42:57+02:00</time>
      </trkpt>
      <trkpt lat="44.97911" lon="4.64854">
        <ele>674</ele>
        <time>2018-05-02T10:43:02+02:00</time>
      </trkpt>
      <trkpt lat="44.97911" lon="4.64857">
        <ele>674</ele>
        <time>2018-05-02T10:43:04+02:00</time>
      </trkpt>
      <trkpt lat="44.97905" lon="4.64873">
        <ele>671</ele>
        <time>2018-05-02T10:43:13+02:00</time>
      </trkpt>
      <trkpt lat="44.97896" lon="4.64889">
        <ele>668</ele>
        <time>2018-05-02T10:43:22+02:00</time>
      </trkpt>
      <trkpt lat="44.97894" lon="4.64902">
        <ele>667</ele>
        <time>2018-05-02T10:43:30+02:00</time>
      </trkpt>
      <trkpt lat="44.97892" lon="4.64906">
        <ele>666</ele>
        <time>2018-05-02T10:43:33+02:00</time>
      </trkpt>
      <trkpt lat="44.97891" lon="4.6492">
        <ele>665</ele>
        <time>2018-05-02T10:43:39+02:00</time>
      </trkpt>
      <trkpt lat="44.97891" lon="4.64928">
        <ele>665</ele>
        <time>2018-05-02T10:43:43+02:00</time>
      </trkpt>
      <trkpt lat="44.97885" lon="4.64946">
        <ele>663</ele>
        <time>2018-05-02T10:43:52+02:00</time>
      </trkpt>
      <trkpt lat="44.97884" lon="4.6495">
        <ele>663</ele>
        <time>2018-05-02T10:43:54+02:00</time>
      </trkpt>
      <trkpt lat="44.97882" lon="4.64957">
        <ele>662</ele>
        <time>2018-05-02T10:43:58+02:00</time>
      </trkpt>
      <trkpt lat="44.97878" lon="4.64972">
        <ele>660</ele>
        <time>2018-05-02T10:44:07+02:00</time>
      </trkpt>
      <trkpt lat="44.97875" lon="4.64988">
        <ele>658</ele>
        <time>2018-05-02T10:44:16+02:00</time>
      </trkpt>
      <trkpt lat="44.97869" lon="4.65005">
        <ele>656</ele>
        <time>2018-05-02T10:44:26+02:00</time>
      </trkpt>
      <trkpt lat="44.97865" lon="4.6502">
        <ele>654</ele>
        <time>2018-05-02T10:44:33+02:00</time>
      </trkpt>
      <trkpt lat="44.97865" lon="4.65022">
        <ele>654</ele>
        <time>2018-05-02T10:44:34+02:00</time>
      </trkpt>
      <trkpt lat="44.97862" lon="4.65037">
        <ele>652</ele>
        <time>2018-05-02T10:44:42+02:00</time>
      </trkpt>
      <trkpt lat="44.9786" lon="4.65056">
        <ele>652</ele>
        <time>2018-05-02T10:44:51+02:00</time>
      </trkpt>
      <trkpt lat="44.97859" lon="4.65059">
        <ele>651</ele>
        <time>2018-05-02T10:44:53+02:00</time>
      </trkpt>
      <trkpt lat="44.97852" lon="4.65075">
        <ele>648</ele>
        <time>2018-05-02T10:45:03+02:00</time>
      </trkpt>
      <trkpt lat="44.97845" lon="4.65091">
        <ele>645</ele>
        <time>2018-05-02T10:45:12+02:00</time>
      </trkpt>
      <trkpt lat="44.97847" lon="4.65101">
        <ele>644</ele>
        <time>2018-05-02T10:45:18+02:00</time>
      </trkpt>
      <trkpt lat="44.97852" lon="4.65115">
        <ele>645</ele>
        <time>2018-05-02T10:45:26+02:00</time>
      </trkpt>
      <trkpt lat="44.97851" lon="4.65117">
        <ele>645</ele>
        <time>2018-05-02T10:45:34+02:00</time>
      </trkpt>
      <trkpt lat="44.97854" lon="4.65123">
        <ele>645</ele>
        <time>2018-05-02T10:45:39+02:00</time>
      </trkpt>
      <trkpt lat="44.97861" lon="4.65127">
        <ele>647</ele>
        <time>2018-05-02T10:45:48+02:00</time>
      </trkpt>
      <trkpt lat="44.97864" lon="4.65129">
        <ele>648</ele>
        <time>2018-05-02T10:45:59+02:00</time>
      </trkpt>
      <trkpt lat="44.97865" lon="4.6513">
        <ele>649</ele>
        <time>2018-05-02T10:46:00+02:00</time>
      </trkpt>
      <trkpt lat="44.9787" lon="4.65138">
        <ele>650</ele>
        <time>2018-05-02T10:46:07+02:00</time>
      </trkpt>
      <trkpt lat="44.97872" lon="4.65146">
        <ele>650</ele>
        <time>2018-05-02T10:46:12+02:00</time>
      </trkpt>
      <trkpt lat="44.97875" lon="4.65157">
        <ele>650</ele>
        <time>2018-05-02T10:46:18+02:00</time>
      </trkpt>
      <trkpt lat="44.97878" lon="4.65174">
        <ele>650</ele>
        <time>2018-05-02T10:46:26+02:00</time>
      </trkpt>
      <trkpt lat="44.97879" lon="4.65179">
        <ele>650</ele>
        <time>2018-05-02T10:46:28+02:00</time>
      </trkpt>
      <trkpt lat="44.97884" lon="4.65194">
        <ele>651</ele>
        <time>2018-05-02T10:46:37+02:00</time>
      </trkpt>
      <trkpt lat="44.97886" lon="4.65208">
        <ele>651</ele>
        <time>2018-05-02T10:46:44+02:00</time>
      </trkpt>
      <trkpt lat="44.97888" lon="4.65218">
        <ele>652</ele>
        <time>2018-05-02T10:46:49+02:00</time>
      </trkpt>
      <trkpt lat="44.9789" lon="4.65235">
        <ele>651</ele>
        <time>2018-05-02T10:46:58+02:00</time>
      </trkpt>
      <trkpt lat="44.97891" lon="4.65248">
        <ele>651</ele>
        <time>2018-05-02T10:47:06+02:00</time>
      </trkpt>
      <trkpt lat="44.97892" lon="4.65251">
        <ele>651</ele>
        <time>2018-05-02T10:47:08+02:00</time>
      </trkpt>
      <trkpt lat="44.97891" lon="4.65259">
        <ele>650</ele>
        <time>2018-05-02T10:47:14+02:00</time>
      </trkpt>
      <trkpt lat="44.97892" lon="4.65276">
        <ele>649</ele>
        <time>2018-05-02T10:47:21+02:00</time>
      </trkpt>
      <trkpt lat="44.97894" lon="4.65291">
        <ele>648</ele>
        <time>2018-05-02T10:47:29+02:00</time>
      </trkpt>
      <trkpt lat="44.97896" lon="4.65303">
        <ele>647</ele>
        <time>2018-05-02T10:47:35+02:00</time>
      </trkpt>
      <trkpt lat="44.979" lon="4.65313">
        <ele>648</ele>
        <time>2018-05-02T10:47:42+02:00</time>
      </trkpt>
      <trkpt lat="44.97905" lon="4.65325">
        <ele>648</ele>
        <time>2018-05-02T10:47:49+02:00</time>
      </trkpt>
      <trkpt lat="44.97906" lon="4.65336">
        <ele>647</ele>
        <time>2018-05-02T10:47:56+02:00</time>
      </trkpt>
      <trkpt lat="44.97909" lon="4.65346">
        <ele>647</ele>
        <time>2018-05-02T10:48:02+02:00</time>
      </trkpt>
      <trkpt lat="44.97913" lon="4.65364">
        <ele>647</ele>
        <time>2018-05-02T10:48:09+02:00</time>
      </trkpt>
      <trkpt lat="44.97914" lon="4.65369">
        <ele>646</ele>
        <time>2018-05-02T10:48:11+02:00</time>
      </trkpt>
      <trkpt lat="44.97914" lon="4.65377">
        <ele>645</ele>
        <time>2018-05-02T10:48:14+02:00</time>
      </trkpt>
      <trkpt lat="44.97905" lon="4.65394">
        <ele>641</ele>
        <time>2018-05-02T10:48:24+02:00</time>
      </trkpt>
      <trkpt lat="44.97904" lon="4.65399">
        <ele>640</ele>
        <time>2018-05-02T10:48:27+02:00</time>
      </trkpt>
      <trkpt lat="44.979" lon="4.65409">
        <ele>638</ele>
        <time>2018-05-02T10:48:33+02:00</time>
      </trkpt>
      <trkpt lat="44.979" lon="4.65415">
        <ele>637</ele>
        <time>2018-05-02T10:48:36+02:00</time>
      </trkpt>
      <trkpt lat="44.97898" lon="4.65432">
        <ele>635</ele>
        <time>2018-05-02T10:48:45+02:00</time>
      </trkpt>
      <trkpt lat="44.97898" lon="4.65436">
        <ele>634</ele>
        <time>2018-05-02T10:48:47+02:00</time>
      </trkpt>
      <trkpt lat="44.97903" lon="4.65447">
        <ele>634</ele>
        <time>2018-05-02T10:48:55+02:00</time>
      </trkpt>
      <trkpt lat="44.97908" lon="4.65453">
        <ele>635</ele>
        <time>2018-05-02T10:49:00+02:00</time>
      </trkpt>
      <trkpt lat="44.97916" lon="4.65458">
        <ele>636</ele>
        <time>2018-05-02T10:49:05+02:00</time>
      </trkpt>
      <trkpt lat="44.97922" lon="4.65464">
        <ele>637</ele>
        <time>2018-05-02T10:49:09+02:00</time>
      </trkpt>
      <trkpt lat="44.97932" lon="4.65479">
        <ele>637</ele>
        <time>2018-05-02T10:49:19+02:00</time>
      </trkpt>
      <trkpt lat="44.97941" lon="4.65498">
        <ele>636</ele>
        <time>2018-05-02T10:49:30+02:00</time>
      </trkpt>
      <trkpt lat="44.97947" lon="4.65513">
        <ele>637</ele>
        <time>2018-05-02T10:49:39+02:00</time>
      </trkpt>
      <trkpt lat="44.97953" lon="4.65527">
        <ele>637</ele>
        <time>2018-05-02T10:49:47+02:00</time>
      </trkpt>
      <trkpt lat="44.97956" lon="4.65541">
        <ele>636</ele>
        <time>2018-05-02T10:49:55+02:00</time>
      </trkpt>
      <trkpt lat="44.97953" lon="4.65555">
        <ele>635</ele>
        <time>2018-05-02T10:50:03+02:00</time>
      </trkpt>
      <trkpt lat="44.97949" lon="4.6557">
        <ele>633</ele>
        <time>2018-05-02T10:50:11+02:00</time>
      </trkpt>
      <trkpt lat="44.97949" lon="4.65578">
        <ele>632</ele>
        <time>2018-05-02T10:50:15+02:00</time>
      </trkpt>
      <trkpt lat="44.97947" lon="4.65596">
        <ele>630</ele>
        <time>2018-05-02T10:50:24+02:00</time>
      </trkpt>
      <trkpt lat="44.97944" lon="4.65611">
        <ele>629</ele>
        <time>2018-05-02T10:50:32+02:00</time>
      </trkpt>
      <trkpt lat="44.97943" lon="4.65627">
        <ele>627</ele>
        <time>2018-05-02T10:50:41+02:00</time>
      </trkpt>
      <trkpt lat="44.97942" lon="4.65636">
        <ele>626</ele>
        <time>2018-05-02T10:50:45+02:00</time>
      </trkpt>
      <trkpt lat="44.97942" lon="4.65652">
        <ele>624</ele>
        <time>2018-05-02T10:50:54+02:00</time>
      </trkpt>
      <trkpt lat="44.97946" lon="4.65669">
        <ele>624</ele>
        <time>2018-05-02T10:51:03+02:00</time>
      </trkpt>
      <trkpt lat="44.97954" lon="4.65686">
        <ele>623</ele>
        <time>2018-05-02T10:51:12+02:00</time>
      </trkpt>
      <trkpt lat="44.9796" lon="4.65697">
        <ele>623</ele>
        <time>2018-05-02T10:51:19+02:00</time>
      </trkpt>
      <trkpt lat="44.9797" lon="4.65708">
        <ele>623</ele>
        <time>2018-05-02T10:51:28+02:00</time>
      </trkpt>
      <trkpt lat="44.97972" lon="4.6571">
        <ele>623</ele>
        <time>2018-05-02T10:51:30+02:00</time>
      </trkpt>
      <trkpt lat="44.97982" lon="4.65713">
        <ele>624</ele>
        <time>2018-05-02T10:51:37+02:00</time>
      </trkpt>
      <trkpt lat="44.97992" lon="4.65719">
        <ele>625</ele>
        <time>2018-05-02T10:51:45+02:00</time>
      </trkpt>
      <trkpt lat="44.97999" lon="4.65716">
        <ele>626</ele>
        <time>2018-05-02T10:51:53+02:00</time>
      </trkpt>
      <trkpt lat="44.98011" lon="4.65715">
        <ele>629</ele>
        <time>2018-05-02T10:52:02+02:00</time>
      </trkpt>
      <trkpt lat="44.98011" lon="4.65715">
        <ele>629</ele>
        <time>2018-05-02T10:52:04+02:00</time>
      </trkpt>
      <trkpt lat="44.98016" lon="4.65717">
        <ele>629</ele>
        <time>2018-05-02T10:52:08+02:00</time>
      </trkpt>
      <trkpt lat="44.98026" lon="4.65721">
        <ele>630</ele>
        <time>2018-05-02T10:52:16+02:00</time>
      </trkpt>
      <trkpt lat="44.98038" lon="4.6573">
        <ele>631</ele>
        <time>2018-05-02T10:52:26+02:00</time>
      </trkpt>
      <trkpt lat="44.98048" lon="4.6574">
        <ele>631</ele>
        <time>2018-05-02T10:52:34+02:00</time>
      </trkpt>
      <trkpt lat="44.98054" lon="4.65747">
        <ele>631</ele>
        <time>2018-05-02T10:52:40+02:00</time>
      </trkpt>
      <trkpt lat="44.98055" lon="4.65759">
        <ele>630</ele>
        <time>2018-05-02T10:52:47+02:00</time>
      </trkpt>
      <trkpt lat="44.98059" lon="4.6577">
        <ele>628</ele>
        <time>2018-05-02T10:52:53+02:00</time>
      </trkpt>
      <trkpt lat="44.98066" lon="4.65779">
        <ele>628</ele>
        <time>2018-05-02T10:53:01+02:00</time>
      </trkpt>
      <trkpt lat="44.98071" lon="4.65786">
        <ele>627</ele>
        <time>2018-05-02T10:53:07+02:00</time>
      </trkpt>
      <trkpt lat="44.9808" lon="4.65798">
        <ele>627</ele>
        <time>2018-05-02T10:53:15+02:00</time>
      </trkpt>
      <trkpt lat="44.98083" lon="4.658">
        <ele>627</ele>
        <time>2018-05-02T10:53:18+02:00</time>
      </trkpt>
      <trkpt lat="44.98084" lon="4.65801">
        <ele>627</ele>
        <time>2018-05-02T10:53:19+02:00</time>
      </trkpt>
      <trkpt lat="44.98091" lon="4.65803">
        <ele>627</ele>
        <time>2018-05-02T10:53:25+02:00</time>
      </trkpt>
      <trkpt lat="44.98093" lon="4.65803">
        <ele>627</ele>
        <time>2018-05-02T10:53:27+02:00</time>
      </trkpt>
      <trkpt lat="44.98094" lon="4.65803">
        <ele>627</ele>
        <time>2018-05-02T10:53:28+02:00</time>
      </trkpt>
      <trkpt lat="44.98106" lon="4.65806">
        <ele>627</ele>
        <time>2018-05-02T10:53:36+02:00</time>
      </trkpt>
      <trkpt lat="44.98116" lon="4.65813">
        <ele>627</ele>
        <time>2018-05-02T10:53:44+02:00</time>
      </trkpt>
      <trkpt lat="44.98127" lon="4.6582">
        <ele>626</ele>
        <time>2018-05-02T10:53:52+02:00</time>
      </trkpt>
      <trkpt lat="44.98131" lon="4.65823">
        <ele>625</ele>
        <time>2018-05-02T10:53:55+02:00</time>
      </trkpt>
      <trkpt lat="44.98133" lon="4.65825">
        <ele>625</ele>
        <time>2018-05-02T10:53:56+02:00</time>
      </trkpt>
      <trkpt lat="44.98148" lon="4.65835">
        <ele>624</ele>
        <time>2018-05-02T10:54:07+02:00</time>
      </trkpt>
      <trkpt lat="44.98159" lon="4.6584">
        <ele>624</ele>
        <time>2018-05-02T10:54:16+02:00</time>
      </trkpt>
      <trkpt lat="44.98161" lon="4.6584">
        <ele>624</ele>
        <time>2018-05-02T10:54:17+02:00</time>
      </trkpt>
      <trkpt lat="44.98162" lon="4.6584">
        <ele>624</ele>
        <time>2018-05-02T10:54:18+02:00</time>
      </trkpt>
      <trkpt lat="44.98164" lon="4.6584">
        <ele>624</ele>
        <time>2018-05-02T10:54:19+02:00</time>
      </trkpt>
      <trkpt lat="44.98165" lon="4.6584">
        <ele>624</ele>
        <time>2018-05-02T10:54:20+02:00</time>
      </trkpt>
      <trkpt lat="44.98169" lon="4.65841">
        <ele>624</ele>
        <time>2018-05-02T10:54:23+02:00</time>
      </trkpt>
      <trkpt lat="44.98179" lon="4.6584">
        <ele>624</ele>
        <time>2018-05-02T10:54:30+02:00</time>
      </trkpt>
      <trkpt lat="44.98187" lon="4.65839">
        <ele>624</ele>
        <time>2018-05-02T10:54:36+02:00</time>
      </trkpt>
      <trkpt lat="44.98189" lon="4.6584">
        <ele>624</ele>
        <time>2018-05-02T10:54:37+02:00</time>
      </trkpt>
      <trkpt lat="44.98202" lon="4.6584">
        <ele>624</ele>
        <time>2018-05-02T10:54:46+02:00</time>
      </trkpt>
      <trkpt lat="44.98215" lon="4.65839">
        <ele>625</ele>
        <time>2018-05-02T10:54:55+02:00</time>
      </trkpt>
      <trkpt lat="44.98229" lon="4.65837">
        <ele>625</ele>
        <time>2018-05-02T10:55:04+02:00</time>
      </trkpt>
      <trkpt lat="44.9823" lon="4.65838">
        <ele>625</ele>
        <time>2018-05-02T10:55:05+02:00</time>
      </trkpt>
      <trkpt lat="44.98231" lon="4.65838">
        <ele>625</ele>
        <time>2018-05-02T10:55:06+02:00</time>
      </trkpt>
      <trkpt lat="44.98233" lon="4.65839">
        <ele>625</ele>
        <time>2018-05-02T10:55:07+02:00</time>
      </trkpt>
      <trkpt lat="44.98234" lon="4.6584">
        <ele>625</ele>
        <time>2018-05-02T10:55:08+02:00</time>
      </trkpt>
      <trkpt lat="44.98237" lon="4.6585">
        <ele>623</ele>
        <time>2018-05-02T10:55:15+02:00</time>
      </trkpt>
      <trkpt lat="44.98235" lon="4.65866">
        <ele>620</ele>
        <time>2018-05-02T10:55:23+02:00</time>
      </trkpt>
      <trkpt lat="44.98238" lon="4.65887">
        <ele>616</ele>
        <time>2018-05-02T10:55:33+02:00</time>
      </trkpt>
      <trkpt lat="44.98243" lon="4.65904">
        <ele>613</ele>
        <time>2018-05-02T10:55:43+02:00</time>
      </trkpt>
      <trkpt lat="44.98247" lon="4.65912">
        <ele>612</ele>
        <time>2018-05-02T10:55:49+02:00</time>
      </trkpt>
      <trkpt lat="44.98252" lon="4.65926">
        <ele>610</ele>
        <time>2018-05-02T10:55:57+02:00</time>
      </trkpt>
      <trkpt lat="44.98253" lon="4.65935">
        <ele>608</ele>
        <time>2018-05-02T10:56:02+02:00</time>
      </trkpt>
      <trkpt lat="44.98253" lon="4.65937">
        <ele>608</ele>
        <time>2018-05-02T10:56:03+02:00</time>
      </trkpt>
      <trkpt lat="44.98253" lon="4.65939">
        <ele>607</ele>
        <time>2018-05-02T10:56:04+02:00</time>
      </trkpt>
      <trkpt lat="44.98252" lon="4.6594">
        <ele>607</ele>
        <time>2018-05-02T10:56:05+02:00</time>
      </trkpt>
      <trkpt lat="44.98251" lon="4.65942">
        <ele>607</ele>
        <time>2018-05-02T10:56:06+02:00</time>
      </trkpt>
      <trkpt lat="44.9825" lon="4.65943">
        <ele>607</ele>
        <time>2018-05-02T10:56:07+02:00</time>
      </trkpt>
      <trkpt lat="44.98239" lon="4.65949">
        <ele>606</ele>
        <time>2018-05-02T10:56:16+02:00</time>
      </trkpt>
      <trkpt lat="44.9823" lon="4.65948">
        <ele>606</ele>
        <time>2018-05-02T10:56:24+02:00</time>
      </trkpt>
      <trkpt lat="44.98229" lon="4.65947">
        <ele>606</ele>
        <time>2018-05-02T10:56:25+02:00</time>
      </trkpt>
      <trkpt lat="44.98227" lon="4.65947">
        <ele>606</ele>
        <time>2018-05-02T10:56:26+02:00</time>
      </trkpt>
      <trkpt lat="44.98226" lon="4.65947">
        <ele>606</ele>
        <time>2018-05-02T10:56:27+02:00</time>
      </trkpt>
      <trkpt lat="44.98211" lon="4.65947">
        <ele>607</ele>
        <time>2018-05-02T10:56:37+02:00</time>
      </trkpt>
      <trkpt lat="44.98198" lon="4.65957">
        <ele>605</ele>
        <time>2018-05-02T10:56:47+02:00</time>
      </trkpt>
      <trkpt lat="44.98191" lon="4.65973">
        <ele>603</ele>
        <time>2018-05-02T10:56:56+02:00</time>
      </trkpt>
      <trkpt lat="44.98189" lon="4.65981">
        <ele>602</ele>
        <time>2018-05-02T10:57:02+02:00</time>
      </trkpt>
      <trkpt lat="44.98189" lon="4.65983">
        <ele>602</ele>
        <time>2018-05-02T10:57:03+02:00</time>
      </trkpt>
      <trkpt lat="44.98187" lon="4.65997">
        <ele>600</ele>
        <time>2018-05-02T10:57:11+02:00</time>
      </trkpt>
      <trkpt lat="44.98178" lon="4.66012">
        <ele>597</ele>
        <time>2018-05-02T10:57:21+02:00</time>
      </trkpt>
      <trkpt lat="44.98167" lon="4.66011">
        <ele>598</ele>
        <time>2018-05-02T10:57:30+02:00</time>
      </trkpt>
      <trkpt lat="44.98158" lon="4.66002">
        <ele>599</ele>
        <time>2018-05-02T10:57:38+02:00</time>
      </trkpt>
      <trkpt lat="44.98149" lon="4.65992">
        <ele>599</ele>
        <time>2018-05-02T10:57:46+02:00</time>
      </trkpt>
      <trkpt lat="44.98141" lon="4.65984">
        <ele>600</ele>
        <time>2018-05-02T10:57:54+02:00</time>
      </trkpt>
      <trkpt lat="44.98131" lon="4.65972">
        <ele>600</ele>
        <time>2018-05-02T10:58:04+02:00</time>
      </trkpt>
      <trkpt lat="44.98118" lon="4.65966">
        <ele>600</ele>
        <time>2018-05-02T10:58:14+02:00</time>
      </trkpt>
      <trkpt lat="44.98109" lon="4.65968">
        <ele>599</ele>
        <time>2018-05-02T10:58:21+02:00</time>
      </trkpt>
      <trkpt lat="44.98099" lon="4.65974">
        <ele>597</ele>
        <time>2018-05-02T10:58:29+02:00</time>
      </trkpt>
      <trkpt lat="44.98088" lon="4.65981">
        <ele>595</ele>
        <time>2018-05-02T10:58:38+02:00</time>
      </trkpt>
      <trkpt lat="44.98086" lon="4.65981">
        <ele>595</ele>
        <time>2018-05-02T10:58:39+02:00</time>
      </trkpt>
      <trkpt lat="44.98084" lon="4.65981">
        <ele>595</ele>
        <time>2018-05-02T10:58:40+02:00</time>
      </trkpt>
      <trkpt lat="44.98083" lon="4.65981">
        <ele>594</ele>
        <time>2018-05-02T10:58:41+02:00</time>
      </trkpt>
      <trkpt lat="44.98082" lon="4.65981">
        <ele>594</ele>
        <time>2018-05-02T10:58:42+02:00</time>
      </trkpt>
      <trkpt lat="44.98081" lon="4.65981">
        <ele>594</ele>
        <time>2018-05-02T10:58:43+02:00</time>
      </trkpt>
      <trkpt lat="44.98075" lon="4.65976">
        <ele>594</ele>
        <time>2018-05-02T10:58:51+02:00</time>
      </trkpt>
      <trkpt lat="44.98075" lon="4.6597">
        <ele>595</ele>
        <time>2018-05-02T10:58:59+02:00</time>
      </trkpt>
      <trkpt lat="44.98073" lon="4.65961">
        <ele>596</ele>
        <time>2018-05-02T10:59:05+02:00</time>
      </trkpt>
      <trkpt lat="44.98072" lon="4.65959">
        <ele>596</ele>
        <time>2018-05-02T10:59:06+02:00</time>
      </trkpt>
      <trkpt lat="44.98068" lon="4.65943">
        <ele>598</ele>
        <time>2018-05-02T10:59:15+02:00</time>
      </trkpt>
      <trkpt lat="44.98061" lon="4.65928">
        <ele>599</ele>
        <time>2018-05-02T10:59:24+02:00</time>
      </trkpt>
      <trkpt lat="44.98048" lon="4.65921">
        <ele>598</ele>
        <time>2018-05-02T10:59:33+02:00</time>
      </trkpt>
      <trkpt lat="44.98036" lon="4.65919">
        <ele>596</ele>
        <time>2018-05-02T10:59:41+02:00</time>
      </trkpt>
      <trkpt lat="44.98028" lon="4.65918">
        <ele>595</ele>
        <time>2018-05-02T10:59:47+02:00</time>
      </trkpt>
      <trkpt lat="44.98025" lon="4.65918">
        <ele>595</ele>
        <time>2018-05-02T10:59:49+02:00</time>
      </trkpt>
      <trkpt lat="44.98023" lon="4.65918">
        <ele>595</ele>
        <time>2018-05-02T10:59:50+02:00</time>
      </trkpt>
      <trkpt lat="44.98022" lon="4.65919">
        <ele>595</ele>
        <time>2018-05-02T10:59:51+02:00</time>
      </trkpt>
      <trkpt lat="44.9802" lon="4.65919">
        <ele>594</ele>
        <time>2018-05-02T10:59:52+02:00</time>
      </trkpt>
      <trkpt lat="44.98019" lon="4.65919">
        <ele>594</ele>
        <time>2018-05-02T10:59:53+02:00</time>
      </trkpt>
      <trkpt lat="44.98018" lon="4.6592">
        <ele>594</ele>
        <time>2018-05-02T10:59:54+02:00</time>
      </trkpt>
      <trkpt lat="44.98016" lon="4.65921">
        <ele>594</ele>
        <time>2018-05-02T10:59:55+02:00</time>
      </trkpt>
      <trkpt lat="44.98015" lon="4.65921">
        <ele>593</ele>
        <time>2018-05-02T10:59:56+02:00</time>
      </trkpt>
      <trkpt lat="44.98014" lon="4.65922">
        <ele>593</ele>
        <time>2018-05-02T10:59:57+02:00</time>
      </trkpt>
      <trkpt lat="44.98004" lon="4.65927">
        <ele>591</ele>
        <time>2018-05-02T11:00:05+02:00</time>
      </trkpt>
      <trkpt lat="44.97997" lon="4.65929">
        <ele>590</ele>
        <time>2018-05-02T11:00:11+02:00</time>
      </trkpt>
      <trkpt lat="44.97996" lon="4.65929">
        <ele>590</ele>
        <time>2018-05-02T11:00:12+02:00</time>
      </trkpt>
      <trkpt lat="44.97995" lon="4.65929">
        <ele>590</ele>
        <time>2018-05-02T11:00:13+02:00</time>
      </trkpt>
      <trkpt lat="44.97987" lon="4.65927">
        <ele>588</ele>
        <time>2018-05-02T11:00:21+02:00</time>
      </trkpt>
      <trkpt lat="44.97975" lon="4.65926">
        <ele>587</ele>
        <time>2018-05-02T11:00:29+02:00</time>
      </trkpt>
      <trkpt lat="44.97966" lon="4.65921">
        <ele>586</ele>
        <time>2018-05-02T11:00:36+02:00</time>
      </trkpt>
      <trkpt lat="44.97963" lon="4.65925">
        <ele>585</ele>
        <time>2018-05-02T11:00:43+02:00</time>
      </trkpt>
      <trkpt lat="44.97963" lon="4.65926">
        <ele>585</ele>
        <time>2018-05-02T11:00:44+02:00</time>
      </trkpt>
      <trkpt lat="44.97963" lon="4.65928">
        <ele>584</ele>
        <time>2018-05-02T11:00:45+02:00</time>
      </trkpt>
      <trkpt lat="44.97959" lon="4.65938">
        <ele>582</ele>
        <time>2018-05-02T11:00:52+02:00</time>
      </trkpt>
      <trkpt lat="44.97954" lon="4.65949">
        <ele>580</ele>
        <time>2018-05-02T11:01:01+02:00</time>
      </trkpt>
      <trkpt lat="44.9795" lon="4.6596">
        <ele>578</ele>
        <time>2018-05-02T11:01:09+02:00</time>
      </trkpt>
      <trkpt lat="44.97944" lon="4.6597">
        <ele>576</ele>
        <time>2018-05-02T11:01:17+02:00</time>
      </trkpt>
      <trkpt lat="44.97938" lon="4.65977">
        <ele>574</ele>
        <time>2018-05-02T11:01:24+02:00</time>
      </trkpt>
      <trkpt lat="44.97934" lon="4.65982">
        <ele>573</ele>
        <time>2018-05-02T11:01:30+02:00</time>
      </trkpt>
      <trkpt lat="44.9793" lon="4.65992">
        <ele>571</ele>
        <time>2018-05-02T11:01:38+02:00</time>
      </trkpt>
      <trkpt lat="44.97929" lon="4.65993">
        <ele>570</ele>
        <time>2018-05-02T11:01:39+02:00</time>
      </trkpt>
      <trkpt lat="44.97924" lon="4.66007">
        <ele>568</ele>
        <time>2018-05-02T11:01:48+02:00</time>
      </trkpt>
      <trkpt lat="44.97923" lon="4.66009">
        <ele>567</ele>
        <time>2018-05-02T11:01:49+02:00</time>
      </trkpt>
      <trkpt lat="44.97923" lon="4.66011">
        <ele>567</ele>
        <time>2018-05-02T11:01:50+02:00</time>
      </trkpt>
      <trkpt lat="44.97921" lon="4.66023">
        <ele>566</ele>
        <time>2018-05-02T11:01:58+02:00</time>
      </trkpt>
      <trkpt lat="44.97922" lon="4.66032">
        <ele>565</ele>
        <time>2018-05-02T11:02:05+02:00</time>
      </trkpt>
      <trkpt lat="44.97922" lon="4.66037">
        <ele>565</ele>
        <time>2018-05-02T11:02:12+02:00</time>
      </trkpt>
      <trkpt lat="44.97927" lon="4.66052">
        <ele>564</ele>
        <time>2018-05-02T11:02:22+02:00</time>
      </trkpt>
      <trkpt lat="44.97929" lon="4.66064">
        <ele>564</ele>
        <time>2018-05-02T11:02:29+02:00</time>
      </trkpt>
      <trkpt lat="44.9793" lon="4.66076">
        <ele>562</ele>
        <time>2018-05-02T11:02:36+02:00</time>
      </trkpt>
      <trkpt lat="44.9793" lon="4.66078">
        <ele>562</ele>
        <time>2018-05-02T11:02:37+02:00</time>
      </trkpt>
      <trkpt lat="44.9793" lon="4.66092">
        <ele>561</ele>
        <time>2018-05-02T11:02:45+02:00</time>
      </trkpt>
      <trkpt lat="44.9793" lon="4.66103">
        <ele>559</ele>
        <time>2018-05-02T11:02:53+02:00</time>
      </trkpt>
      <trkpt lat="44.97931" lon="4.66116">
        <ele>558</ele>
        <time>2018-05-02T11:03:01+02:00</time>
      </trkpt>
      <trkpt lat="44.97932" lon="4.66124">
        <ele>557</ele>
        <time>2018-05-02T11:03:10+02:00</time>
      </trkpt>
      <trkpt lat="44.97932" lon="4.66126">
        <ele>557</ele>
        <time>2018-05-02T11:03:25+02:00</time>
      </trkpt>
      <trkpt lat="44.97931" lon="4.66129">
        <ele>556</ele>
        <time>2018-05-02T11:03:36+02:00</time>
      </trkpt>
      <trkpt lat="44.97933" lon="4.66134">
        <ele>556</ele>
        <time>2018-05-02T11:03:44+02:00</time>
      </trkpt>
      <trkpt lat="44.97934" lon="4.6614">
        <ele>555</ele>
        <time>2018-05-02T11:03:51+02:00</time>
      </trkpt>
      <trkpt lat="44.97936" lon="4.66146">
        <ele>555</ele>
        <time>2018-05-02T11:03:57+02:00</time>
      </trkpt>
      <trkpt lat="44.97938" lon="4.66148">
        <ele>555</ele>
        <time>2018-05-02T11:04:02+02:00</time>
      </trkpt>
      <trkpt lat="44.97943" lon="4.66162">
        <ele>554</ele>
        <time>2018-05-02T11:04:10+02:00</time>
      </trkpt>
      <trkpt lat="44.97947" lon="4.66172">
        <ele>553</ele>
        <time>2018-05-02T11:04:17+02:00</time>
      </trkpt>
      <trkpt lat="44.97949" lon="4.66185">
        <ele>552</ele>
        <time>2018-05-02T11:04:26+02:00</time>
      </trkpt>
      <trkpt lat="44.97952" lon="4.66195">
        <ele>551</ele>
        <time>2018-05-02T11:04:34+02:00</time>
      </trkpt>
      <trkpt lat="44.97957" lon="4.66208">
        <ele>550</ele>
        <time>2018-05-02T11:04:43+02:00</time>
      </trkpt>
      <trkpt lat="44.97958" lon="4.66212">
        <ele>549</ele>
        <time>2018-05-02T11:04:46+02:00</time>
      </trkpt>
      <trkpt lat="44.97953" lon="4.66218">
        <ele>548</ele>
        <time>2018-05-02T11:04:53+02:00</time>
      </trkpt>
      <trkpt lat="44.97955" lon="4.66216">
        <ele>548</ele>
        <time>2018-05-02T11:05:02+02:00</time>
      </trkpt>
      <trkpt lat="44.97952" lon="4.66212">
        <ele>548</ele>
        <time>2018-05-02T11:05:12+02:00</time>
      </trkpt>
      <trkpt lat="44.97945" lon="4.66203">
        <ele>548</ele>
        <time>2018-05-02T11:05:21+02:00</time>
      </trkpt>
      <trkpt lat="44.9794" lon="4.66199">
        <ele>548</ele>
        <time>2018-05-02T11:05:27+02:00</time>
      </trkpt>
      <trkpt lat="44.97929" lon="4.66194">
        <ele>547</ele>
        <time>2018-05-02T11:05:37+02:00</time>
      </trkpt>
      <trkpt lat="44.97925" lon="4.66193">
        <ele>546</ele>
        <time>2018-05-02T11:05:41+02:00</time>
      </trkpt>
      <trkpt lat="44.97921" lon="4.66192">
        <ele>546</ele>
        <time>2018-05-02T11:05:44+02:00</time>
      </trkpt>
      <trkpt lat="44.9791" lon="4.66183">
        <ele>544</ele>
        <time>2018-05-02T11:05:54+02:00</time>
      </trkpt>
      <trkpt lat="44.97903" lon="4.66173">
        <ele>544</ele>
        <time>2018-05-02T11:06:03+02:00</time>
      </trkpt>
      <trkpt lat="44.979" lon="4.66173">
        <ele>543</ele>
        <time>2018-05-02T11:06:14+02:00</time>
      </trkpt>
      <trkpt lat="44.97896" lon="4.66167">
        <ele>543</ele>
        <time>2018-05-02T11:06:20+02:00</time>
      </trkpt>
      <trkpt lat="44.9789" lon="4.6616">
        <ele>542</ele>
        <time>2018-05-02T11:06:28+02:00</time>
      </trkpt>
      <trkpt lat="44.97886" lon="4.66154">
        <ele>542</ele>
        <time>2018-05-02T11:06:35+02:00</time>
      </trkpt>
      <trkpt lat="44.9788" lon="4.66147">
        <ele>541</ele>
        <time>2018-05-02T11:06:44+02:00</time>
      </trkpt>
      <trkpt lat="44.97876" lon="4.66142">
        <ele>540</ele>
        <time>2018-05-02T11:06:51+02:00</time>
      </trkpt>
      <trkpt lat="44.97875" lon="4.66135">
        <ele>541</ele>
        <time>2018-05-02T11:06:57+02:00</time>
      </trkpt>
      <trkpt lat="44.97869" lon="4.66128">
        <ele>540</ele>
        <time>2018-05-02T11:07:06+02:00</time>
      </trkpt>
      <trkpt lat="44.97863" lon="4.66119">
        <ele>540</ele>
        <time>2018-05-02T11:07:14+02:00</time>
      </trkpt>
      <trkpt lat="44.97855" lon="4.66109">
        <ele>539</ele>
        <time>2018-05-02T11:07:23+02:00</time>
      </trkpt>
      <trkpt lat="44.97847" lon="4.66101">
        <ele>538</ele>
        <time>2018-05-02T11:07:32+02:00</time>
      </trkpt>
      <trkpt lat="44.97836" lon="4.66096">
        <ele>536</ele>
        <time>2018-05-02T11:07:41+02:00</time>
      </trkpt>
      <trkpt lat="44.97829" lon="4.66093">
        <ele>535</ele>
        <time>2018-05-02T11:07:48+02:00</time>
      </trkpt>
      <trkpt lat="44.97819" lon="4.66086">
        <ele>535</ele>
        <time>2018-05-02T11:07:57+02:00</time>
      </trkpt>
      <trkpt lat="44.97817" lon="4.66085">
        <ele>534</ele>
        <time>2018-05-02T11:07:59+02:00</time>
      </trkpt>
      <trkpt lat="44.97805" lon="4.66075">
        <ele>533</ele>
        <time>2018-05-02T11:08:11+02:00</time>
      </trkpt>
      <trkpt lat="44.97803" lon="4.6607">
        <ele>533</ele>
        <time>2018-05-02T11:08:16+02:00</time>
      </trkpt>
      <trkpt lat="44.97793" lon="4.66063">
        <ele>532</ele>
        <time>2018-05-02T11:08:25+02:00</time>
      </trkpt>
      <trkpt lat="44.97784" lon="4.66059">
        <ele>531</ele>
        <time>2018-05-02T11:08:33+02:00</time>
      </trkpt>
      <trkpt lat="44.97776" lon="4.66055">
        <ele>530</ele>
        <time>2018-05-02T11:08:40+02:00</time>
      </trkpt>
      <trkpt lat="44.97763" lon="4.66041">
        <ele>527</ele>
        <time>2018-05-02T11:08:52+02:00</time>
      </trkpt>
      <trkpt lat="44.97756" lon="4.66037">
        <ele>526</ele>
        <time>2018-05-02T11:08:59+02:00</time>
      </trkpt>
      <trkpt lat="44.97746" lon="4.66028">
        <ele>525</ele>
        <time>2018-05-02T11:09:08+02:00</time>
      </trkpt>
      <trkpt lat="44.97739" lon="4.66022">
        <ele>526</ele>
        <time>2018-05-02T11:09:15+02:00</time>
      </trkpt>
      <trkpt lat="44.97731" lon="4.66013">
        <ele>527</ele>
        <time>2018-05-02T11:09:24+02:00</time>
      </trkpt>
      <trkpt lat="44.97722" lon="4.66008">
        <ele>528</ele>
        <time>2018-05-02T11:09:31+02:00</time>
      </trkpt>
      <trkpt lat="44.97718" lon="4.66009">
        <ele>528</ele>
        <time>2018-05-02T11:09:34+02:00</time>
      </trkpt>
      <trkpt lat="44.97711" lon="4.66023">
        <ele>529</ele>
        <time>2018-05-02T11:09:43+02:00</time>
      </trkpt>
      <trkpt lat="44.97712" lon="4.66031">
        <ele>529</ele>
        <time>2018-05-02T11:09:48+02:00</time>
      </trkpt>
      <trkpt lat="44.97713" lon="4.66045">
        <ele>529</ele>
        <time>2018-05-02T11:09:56+02:00</time>
      </trkpt>
      <trkpt lat="44.97715" lon="4.66053">
        <ele>529</ele>
        <time>2018-05-02T11:10:00+02:00</time>
      </trkpt>
      <trkpt lat="44.9772" lon="4.66069">
        <ele>528</ele>
        <time>2018-05-02T11:10:09+02:00</time>
      </trkpt>
      <trkpt lat="44.97723" lon="4.66079">
        <ele>528</ele>
        <time>2018-05-02T11:10:17+02:00</time>
      </trkpt>
      <trkpt lat="44.97728" lon="4.66091">
        <ele>528</ele>
        <time>2018-05-02T11:10:26+02:00</time>
      </trkpt>
      <trkpt lat="44.97731" lon="4.66103">
        <ele>529</ele>
        <time>2018-05-02T11:10:33+02:00</time>
      </trkpt>
      <trkpt lat="44.97733" lon="4.66108">
        <ele>529</ele>
        <time>2018-05-02T11:10:40+02:00</time>
      </trkpt>
      <trkpt lat="44.97733" lon="4.66106">
        <ele>529</ele>
        <time>2018-05-02T11:10:51+02:00</time>
      </trkpt>
      <trkpt lat="44.97733" lon="4.66106">
        <ele>529</ele>
        <time>2018-05-02T11:11:02+02:00</time>
      </trkpt>
      <trkpt lat="44.97733" lon="4.6611">
        <ele>529</ele>
        <time>2018-05-02T11:11:05+02:00</time>
      </trkpt>
      <trkpt lat="44.97735" lon="4.66112">
        <ele>529</ele>
        <time>2018-05-02T11:11:07+02:00</time>
      </trkpt>
      <trkpt lat="44.97739" lon="4.66119">
        <ele>529</ele>
        <time>2018-05-02T11:11:14+02:00</time>
      </trkpt>
      <trkpt lat="44.97741" lon="4.66128">
        <ele>529</ele>
        <time>2018-05-02T11:11:23+02:00</time>
      </trkpt>
      <trkpt lat="44.97748" lon="4.66144">
        <ele>529</ele>
        <time>2018-05-02T11:11:34+02:00</time>
      </trkpt>
      <trkpt lat="44.97749" lon="4.66156">
        <ele>530</ele>
        <time>2018-05-02T11:11:41+02:00</time>
      </trkpt>
      <trkpt lat="44.97754" lon="4.66165">
        <ele>530</ele>
        <time>2018-05-02T11:11:48+02:00</time>
      </trkpt>
      <trkpt lat="44.9776" lon="4.66176">
        <ele>530</ele>
        <time>2018-05-02T11:11:55+02:00</time>
      </trkpt>
      <trkpt lat="44.97766" lon="4.66186">
        <ele>531</ele>
        <time>2018-05-02T11:12:05+02:00</time>
      </trkpt>
      <trkpt lat="44.97768" lon="4.66195">
        <ele>531</ele>
        <time>2018-05-02T11:12:13+02:00</time>
      </trkpt>
      <trkpt lat="44.97772" lon="4.66209">
        <ele>532</ele>
        <time>2018-05-02T11:12:22+02:00</time>
      </trkpt>
      <trkpt lat="44.97778" lon="4.66223">
        <ele>532</ele>
        <time>2018-05-02T11:12:31+02:00</time>
      </trkpt>
      <trkpt lat="44.97784" lon="4.66237">
        <ele>531</ele>
        <time>2018-05-02T11:12:39+02:00</time>
      </trkpt>
      <trkpt lat="44.97793" lon="4.66253">
        <ele>529</ele>
        <time>2018-05-02T11:12:47+02:00</time>
      </trkpt>
      <trkpt lat="44.97799" lon="4.66271">
        <ele>528</ele>
        <time>2018-05-02T11:12:58+02:00</time>
      </trkpt>
      <trkpt lat="44.97805" lon="4.66286">
        <ele>527</ele>
        <time>2018-05-02T11:13:06+02:00</time>
      </trkpt>
      <trkpt lat="44.97811" lon="4.6631">
        <ele>526</ele>
        <time>2018-05-02T11:13:18+02:00</time>
      </trkpt>
      <trkpt lat="44.97817" lon="4.66322">
        <ele>525</ele>
        <time>2018-05-02T11:13:26+02:00</time>
      </trkpt>
      <trkpt lat="44.97828" lon="4.66327">
        <ele>522</ele>
        <time>2018-05-02T11:13:35+02:00</time>
      </trkpt>
      <trkpt lat="44.97838" lon="4.66334">
        <ele>521</ele>
        <time>2018-05-02T11:13:43+02:00</time>
      </trkpt>
      <trkpt lat="44.97846" lon="4.66344">
        <ele>522</ele>
        <time>2018-05-02T11:13:51+02:00</time>
      </trkpt>
      <trkpt lat="44.97854" lon="4.66353">
        <ele>522</ele>
        <time>2018-05-02T11:13:59+02:00</time>
      </trkpt>
      <trkpt lat="44.97859" lon="4.66363">
        <ele>522</ele>
        <time>2018-05-02T11:14:07+02:00</time>
      </trkpt>
      <trkpt lat="44.97864" lon="4.66379">
        <ele>522</ele>
        <time>2018-05-02T11:14:17+02:00</time>
      </trkpt>
      <trkpt lat="44.97869" lon="4.66392">
        <ele>522</ele>
        <time>2018-05-02T11:14:25+02:00</time>
      </trkpt>
      <trkpt lat="44.97873" lon="4.66402">
        <ele>522</ele>
        <time>2018-05-02T11:14:33+02:00</time>
      </trkpt>
      <trkpt lat="44.97875" lon="4.66416">
        <ele>522</ele>
        <time>2018-05-02T11:14:42+02:00</time>
      </trkpt>
      <trkpt lat="44.97877" lon="4.66429">
        <ele>521</ele>
        <time>2018-05-02T11:14:50+02:00</time>
      </trkpt>
      <trkpt lat="44.97881" lon="4.66451">
        <ele>521</ele>
        <time>2018-05-02T11:15:00+02:00</time>
      </trkpt>
      <trkpt lat="44.9788" lon="4.66468">
        <ele>521</ele>
        <time>2018-05-02T11:15:09+02:00</time>
      </trkpt>
      <trkpt lat="44.97877" lon="4.66485">
        <ele>521</ele>
        <time>2018-05-02T11:15:19+02:00</time>
      </trkpt>
      <trkpt lat="44.97876" lon="4.66507">
        <ele>521</ele>
        <time>2018-05-02T11:15:28+02:00</time>
      </trkpt>
      <trkpt lat="44.9788" lon="4.66519">
        <ele>520</ele>
        <time>2018-05-02T11:15:37+02:00</time>
      </trkpt>
      <trkpt lat="44.97882" lon="4.66533">
        <ele>520</ele>
        <time>2018-05-02T11:15:46+02:00</time>
      </trkpt>
      <trkpt lat="44.97879" lon="4.6655">
        <ele>520</ele>
        <time>2018-05-02T11:15:56+02:00</time>
      </trkpt>
      <trkpt lat="44.97875" lon="4.66563">
        <ele>520</ele>
        <time>2018-05-02T11:16:06+02:00</time>
      </trkpt>
      <trkpt lat="44.97873" lon="4.66579">
        <ele>520</ele>
        <time>2018-05-02T11:16:15+02:00</time>
      </trkpt>
      <trkpt lat="44.97872" lon="4.66591">
        <ele>520</ele>
        <time>2018-05-02T11:16:22+02:00</time>
      </trkpt>
      <trkpt lat="44.97873" lon="4.66605">
        <ele>520</ele>
        <time>2018-05-02T11:16:31+02:00</time>
      </trkpt>
      <trkpt lat="44.97875" lon="4.66622">
        <ele>519</ele>
        <time>2018-05-02T11:16:41+02:00</time>
      </trkpt>
      <trkpt lat="44.97877" lon="4.66634">
        <ele>518</ele>
        <time>2018-05-02T11:16:49+02:00</time>
      </trkpt>
      <trkpt lat="44.97878" lon="4.6665">
        <ele>518</ele>
        <time>2018-05-02T11:16:57+02:00</time>
      </trkpt>
      <trkpt lat="44.9788" lon="4.66659">
        <ele>517</ele>
        <time>2018-05-02T11:17:05+02:00</time>
      </trkpt>
      <trkpt lat="44.97883" lon="4.66669">
        <ele>516</ele>
        <time>2018-05-02T11:17:13+02:00</time>
      </trkpt>
      <trkpt lat="44.97884" lon="4.66674">
        <ele>516</ele>
        <time>2018-05-02T11:17:16+02:00</time>
      </trkpt>
      <trkpt lat="44.97889" lon="4.66687">
        <ele>514</ele>
        <time>2018-05-02T11:17:24+02:00</time>
      </trkpt>
      <trkpt lat="44.97893" lon="4.667">
        <ele>513</ele>
        <time>2018-05-02T11:17:35+02:00</time>
      </trkpt>
      <trkpt lat="44.97897" lon="4.66717">
        <ele>511</ele>
        <time>2018-05-02T11:17:45+02:00</time>
      </trkpt>
      <trkpt lat="44.97902" lon="4.6673">
        <ele>509</ele>
        <time>2018-05-02T11:17:54+02:00</time>
      </trkpt>
      <trkpt lat="44.97907" lon="4.66741">
        <ele>508</ele>
        <time>2018-05-02T11:18:01+02:00</time>
      </trkpt>
      <trkpt lat="44.9791" lon="4.66755">
        <ele>506</ele>
        <time>2018-05-02T11:18:09+02:00</time>
      </trkpt>
      <trkpt lat="44.97913" lon="4.66767">
        <ele>505</ele>
        <time>2018-05-02T11:18:17+02:00</time>
      </trkpt>
      <trkpt lat="44.97916" lon="4.66786">
        <ele>504</ele>
        <time>2018-05-02T11:18:26+02:00</time>
      </trkpt>
      <trkpt lat="44.97917" lon="4.66802">
        <ele>504</ele>
        <time>2018-05-02T11:18:34+02:00</time>
      </trkpt>
      <trkpt lat="44.97923" lon="4.66817">
        <ele>504</ele>
        <time>2018-05-02T11:18:45+02:00</time>
      </trkpt>
      <trkpt lat="44.97934" lon="4.66826">
        <ele>504</ele>
        <time>2018-05-02T11:18:54+02:00</time>
      </trkpt>
      <trkpt lat="44.97938" lon="4.66828">
        <ele>503</ele>
        <time>2018-05-02T11:18:58+02:00</time>
      </trkpt>
      <trkpt lat="44.97946" lon="4.66837">
        <ele>503</ele>
        <time>2018-05-02T11:19:05+02:00</time>
      </trkpt>
      <trkpt lat="44.9795" lon="4.66842">
        <ele>504</ele>
        <time>2018-05-02T11:19:13+02:00</time>
      </trkpt>
      <trkpt lat="44.97951" lon="4.66844">
        <ele>504</ele>
        <time>2018-05-02T11:19:19+02:00</time>
      </trkpt>
      <trkpt lat="44.97952" lon="4.66849">
        <ele>504</ele>
        <time>2018-05-02T11:19:22+02:00</time>
      </trkpt>
      <trkpt lat="44.97946" lon="4.66858">
        <ele>504</ele>
        <time>2018-05-02T11:19:31+02:00</time>
      </trkpt>
      <trkpt lat="44.97933" lon="4.66869">
        <ele>504</ele>
        <time>2018-05-02T11:19:42+02:00</time>
      </trkpt>
      <trkpt lat="44.97936" lon="4.66883">
        <ele>505</ele>
        <time>2018-05-02T11:19:51+02:00</time>
      </trkpt>
      <trkpt lat="44.97944" lon="4.66903">
        <ele>505</ele>
        <time>2018-05-02T11:20:02+02:00</time>
      </trkpt>
      <trkpt lat="44.97946" lon="4.66918">
        <ele>506</ele>
        <time>2018-05-02T11:20:11+02:00</time>
      </trkpt>
      <trkpt lat="44.97945" lon="4.66936">
        <ele>505</ele>
        <time>2018-05-02T11:20:20+02:00</time>
      </trkpt>
      <trkpt lat="44.97944" lon="4.66947">
        <ele>505</ele>
        <time>2018-05-02T11:20:27+02:00</time>
      </trkpt>
      <trkpt lat="44.97946" lon="4.66963">
        <ele>505</ele>
        <time>2018-05-02T11:20:36+02:00</time>
      </trkpt>
      <trkpt lat="44.9795" lon="4.66973">
        <ele>504</ele>
        <time>2018-05-02T11:20:43+02:00</time>
      </trkpt>
      <trkpt lat="44.97953" lon="4.66986">
        <ele>503</ele>
        <time>2018-05-02T11:20:51+02:00</time>
      </trkpt>
      <trkpt lat="44.97961" lon="4.67009">
        <ele>503</ele>
        <time>2018-05-02T11:21:01+02:00</time>
      </trkpt>
      <trkpt lat="44.97965" lon="4.67017">
        <ele>502</ele>
        <time>2018-05-02T11:21:07+02:00</time>
      </trkpt>
      <trkpt lat="44.97974" lon="4.67017">
        <ele>502</ele>
        <time>2018-05-02T11:21:16+02:00</time>
      </trkpt>
      <trkpt lat="44.97983" lon="4.67022">
        <ele>501</ele>
        <time>2018-05-02T11:21:27+02:00</time>
      </trkpt>
      <trkpt lat="44.9799" lon="4.6703">
        <ele>500</ele>
        <time>2018-05-02T11:21:34+02:00</time>
      </trkpt>
      <trkpt lat="44.98002" lon="4.67038">
        <ele>500</ele>
        <time>2018-05-02T11:21:42+02:00</time>
      </trkpt>
      <trkpt lat="44.98012" lon="4.67049">
        <ele>500</ele>
        <time>2018-05-02T11:21:50+02:00</time>
      </trkpt>
      <trkpt lat="44.98021" lon="4.67055">
        <ele>500</ele>
        <time>2018-05-02T11:21:58+02:00</time>
      </trkpt>
      <trkpt lat="44.98032" lon="4.67068">
        <ele>499</ele>
        <time>2018-05-02T11:22:06+02:00</time>
      </trkpt>
      <trkpt lat="44.98043" lon="4.67078">
        <ele>498</ele>
        <time>2018-05-02T11:22:15+02:00</time>
      </trkpt>
      <trkpt lat="44.98049" lon="4.67086">
        <ele>497</ele>
        <time>2018-05-02T11:22:22+02:00</time>
      </trkpt>
      <trkpt lat="44.98058" lon="4.67096">
        <ele>496</ele>
        <time>2018-05-02T11:22:30+02:00</time>
      </trkpt>
      <trkpt lat="44.98063" lon="4.67102">
        <ele>496</ele>
        <time>2018-05-02T11:22:41+02:00</time>
      </trkpt>
      <trkpt lat="44.98067" lon="4.67108">
        <ele>496</ele>
        <time>2018-05-02T11:22:48+02:00</time>
      </trkpt>
      <trkpt lat="44.98072" lon="4.67113">
        <ele>496</ele>
        <time>2018-05-02T11:22:52+02:00</time>
      </trkpt>
      <trkpt lat="44.98078" lon="4.67125">
        <ele>496</ele>
        <time>2018-05-02T11:23:00+02:00</time>
      </trkpt>
      <trkpt lat="44.98082" lon="4.67142">
        <ele>496</ele>
        <time>2018-05-02T11:23:10+02:00</time>
      </trkpt>
      <trkpt lat="44.98081" lon="4.67162">
        <ele>497</ele>
        <time>2018-05-02T11:23:20+02:00</time>
      </trkpt>
      <trkpt lat="44.98086" lon="4.67173">
        <ele>497</ele>
        <time>2018-05-02T11:23:27+02:00</time>
      </trkpt>
      <trkpt lat="44.98091" lon="4.67181">
        <ele>497</ele>
        <time>2018-05-02T11:23:32+02:00</time>
      </trkpt>
      <trkpt lat="44.98097" lon="4.67187">
        <ele>496</ele>
        <time>2018-05-02T11:23:38+02:00</time>
      </trkpt>
      <trkpt lat="44.98101" lon="4.67193">
        <ele>496</ele>
        <time>2018-05-02T11:23:42+02:00</time>
      </trkpt>
      <trkpt lat="44.98112" lon="4.67203">
        <ele>494</ele>
        <time>2018-05-02T11:23:52+02:00</time>
      </trkpt>
      <trkpt lat="44.9812" lon="4.67213">
        <ele>493</ele>
        <time>2018-05-02T11:24:00+02:00</time>
      </trkpt>
      <trkpt lat="44.98127" lon="4.67223">
        <ele>492</ele>
        <time>2018-05-02T11:24:08+02:00</time>
      </trkpt>
      <trkpt lat="44.98134" lon="4.67239">
        <ele>491</ele>
        <time>2018-05-02T11:24:18+02:00</time>
      </trkpt>
      <trkpt lat="44.98138" lon="4.67253">
        <ele>490</ele>
        <time>2018-05-02T11:24:27+02:00</time>
      </trkpt>
      <trkpt lat="44.9814" lon="4.67271">
        <ele>489</ele>
        <time>2018-05-02T11:24:36+02:00</time>
      </trkpt>
      <trkpt lat="44.98141" lon="4.67275">
        <ele>489</ele>
        <time>2018-05-02T11:24:38+02:00</time>
      </trkpt>
      <trkpt lat="44.98141" lon="4.67295">
        <ele>489</ele>
        <time>2018-05-02T11:24:48+02:00</time>
      </trkpt>
      <trkpt lat="44.98142" lon="4.67307">
        <ele>489</ele>
        <time>2018-05-02T11:24:54+02:00</time>
      </trkpt>
      <trkpt lat="44.98144" lon="4.67322">
        <ele>488</ele>
        <time>2018-05-02T11:25:03+02:00</time>
      </trkpt>
      <trkpt lat="44.98148" lon="4.67334">
        <ele>488</ele>
        <time>2018-05-02T11:25:12+02:00</time>
      </trkpt>
      <trkpt lat="44.98154" lon="4.67348">
        <ele>487</ele>
        <time>2018-05-02T11:25:20+02:00</time>
      </trkpt>
      <trkpt lat="44.98159" lon="4.67358">
        <ele>486</ele>
        <time>2018-05-02T11:25:26+02:00</time>
      </trkpt>
      <trkpt lat="44.98166" lon="4.67372">
        <ele>485</ele>
        <time>2018-05-02T11:25:36+02:00</time>
      </trkpt>
      <trkpt lat="44.98172" lon="4.6738">
        <ele>485</ele>
        <time>2018-05-02T11:25:44+02:00</time>
      </trkpt>
      <trkpt lat="44.98178" lon="4.67383">
        <ele>485</ele>
        <time>2018-05-02T11:25:52+02:00</time>
      </trkpt>
      <trkpt lat="44.98178" lon="4.6738">
        <ele>485</ele>
        <time>2018-05-02T11:26:00+02:00</time>
      </trkpt>
      <trkpt lat="44.98175" lon="4.67382">
        <ele>485</ele>
        <time>2018-05-02T11:26:12+02:00</time>
      </trkpt>
      <trkpt lat="44.98187" lon="4.67396">
        <ele>484</ele>
        <time>2018-05-02T11:26:19+02:00</time>
      </trkpt>
      <trkpt lat="44.98192" lon="4.674">
        <ele>484</ele>
        <time>2018-05-02T11:26:22+02:00</time>
      </trkpt>
      <trkpt lat="44.98198" lon="4.67412">
        <ele>483</ele>
        <time>2018-05-02T11:26:29+02:00</time>
      </trkpt>
      <trkpt lat="44.98206" lon="4.67426">
        <ele>483</ele>
        <time>2018-05-02T11:26:38+02:00</time>
      </trkpt>
      <trkpt lat="44.98214" lon="4.67443">
        <ele>482</ele>
        <time>2018-05-02T11:26:48+02:00</time>
      </trkpt>
      <trkpt lat="44.9822" lon="4.67457">
        <ele>482</ele>
        <time>2018-05-02T11:26:56+02:00</time>
      </trkpt>
      <trkpt lat="44.98226" lon="4.6747">
        <ele>481</ele>
        <time>2018-05-02T11:27:04+02:00</time>
      </trkpt>
      <trkpt lat="44.98233" lon="4.67484">
        <ele>481</ele>
        <time>2018-05-02T11:27:13+02:00</time>
      </trkpt>
      <trkpt lat="44.98235" lon="4.67486">
        <ele>480</ele>
        <time>2018-05-02T11:27:15+02:00</time>
      </trkpt>
      <trkpt lat="44.98244" lon="4.67503">
        <ele>479</ele>
        <time>2018-05-02T11:27:26+02:00</time>
      </trkpt>
      <trkpt lat="44.98252" lon="4.67517">
        <ele>479</ele>
        <time>2018-05-02T11:27:35+02:00</time>
      </trkpt>
      <trkpt lat="44.98258" lon="4.67526">
        <ele>480</ele>
        <time>2018-05-02T11:27:42+02:00</time>
      </trkpt>
      <trkpt lat="44.98265" lon="4.67537">
        <ele>481</ele>
        <time>2018-05-02T11:27:50+02:00</time>
      </trkpt>
      <trkpt lat="44.98267" lon="4.67542">
        <ele>481</ele>
        <time>2018-05-02T11:27:53+02:00</time>
      </trkpt>
      <trkpt lat="44.98271" lon="4.67551">
        <ele>481</ele>
        <time>2018-05-02T11:27:57+02:00</time>
      </trkpt>
      <trkpt lat="44.98276" lon="4.67559">
        <ele>481</ele>
        <time>2018-05-02T11:28:03+02:00</time>
      </trkpt>
      <trkpt lat="44.98284" lon="4.67575">
        <ele>480</ele>
        <time>2018-05-02T11:28:14+02:00</time>
      </trkpt>
      <trkpt lat="44.98288" lon="4.67587">
        <ele>480</ele>
        <time>2018-05-02T11:28:23+02:00</time>
      </trkpt>
      <trkpt lat="44.98295" lon="4.67603">
        <ele>480</ele>
        <time>2018-05-02T11:28:31+02:00</time>
      </trkpt>
      <trkpt lat="44.983" lon="4.67615">
        <ele>481</ele>
        <time>2018-05-02T11:28:38+02:00</time>
      </trkpt>
      <trkpt lat="44.98303" lon="4.67623">
        <ele>481</ele>
        <time>2018-05-02T11:28:43+02:00</time>
      </trkpt>
      <trkpt lat="44.98308" lon="4.67629">
        <ele>480</ele>
        <time>2018-05-02T11:28:48+02:00</time>
      </trkpt>
      <trkpt lat="44.9831" lon="4.67633">
        <ele>480</ele>
        <time>2018-05-02T11:28:51+02:00</time>
      </trkpt>
      <trkpt lat="44.98316" lon="4.67642">
        <ele>479</ele>
        <time>2018-05-02T11:28:59+02:00</time>
      </trkpt>
      <trkpt lat="44.98322" lon="4.67651">
        <ele>478</ele>
        <time>2018-05-02T11:29:06+02:00</time>
      </trkpt>
      <trkpt lat="44.98324" lon="4.67654">
        <ele>477</ele>
        <time>2018-05-02T11:29:08+02:00</time>
      </trkpt>
      <trkpt lat="44.98325" lon="4.67656">
        <ele>477</ele>
        <time>2018-05-02T11:29:10+02:00</time>
      </trkpt>
      <trkpt lat="44.98331" lon="4.67668">
        <ele>476</ele>
        <time>2018-05-02T11:29:19+02:00</time>
      </trkpt>
      <trkpt lat="44.98337" lon="4.67679">
        <ele>477</ele>
        <time>2018-05-02T11:29:26+02:00</time>
      </trkpt>
      <trkpt lat="44.98342" lon="4.67684">
        <ele>477</ele>
        <time>2018-05-02T11:29:31+02:00</time>
      </trkpt>
      <trkpt lat="44.98352" lon="4.67694">
        <ele>478</ele>
        <time>2018-05-02T11:29:40+02:00</time>
      </trkpt>
      <trkpt lat="44.98361" lon="4.67704">
        <ele>478</ele>
        <time>2018-05-02T11:29:48+02:00</time>
      </trkpt>
      <trkpt lat="44.98368" lon="4.67714">
        <ele>478</ele>
        <time>2018-05-02T11:29:55+02:00</time>
      </trkpt>
      <trkpt lat="44.98377" lon="4.6773">
        <ele>478</ele>
        <time>2018-05-02T11:30:05+02:00</time>
      </trkpt>
      <trkpt lat="44.98381" lon="4.67739">
        <ele>478</ele>
        <time>2018-05-02T11:30:12+02:00</time>
      </trkpt>
      <trkpt lat="44.98389" lon="4.67755">
        <ele>477</ele>
        <time>2018-05-02T11:30:21+02:00</time>
      </trkpt>
      <trkpt lat="44.98399" lon="4.67769">
        <ele>476</ele>
        <time>2018-05-02T11:30:29+02:00</time>
      </trkpt>
      <trkpt lat="44.98408" lon="4.67782">
        <ele>475</ele>
        <time>2018-05-02T11:30:38+02:00</time>
      </trkpt>
      <trkpt lat="44.98416" lon="4.67791">
        <ele>474</ele>
        <time>2018-05-02T11:30:46+02:00</time>
      </trkpt>
      <trkpt lat="44.9842" lon="4.67798">
        <ele>474</ele>
        <time>2018-05-02T11:30:51+02:00</time>
      </trkpt>
      <trkpt lat="44.98427" lon="4.67806">
        <ele>475</ele>
        <time>2018-05-02T11:30:58+02:00</time>
      </trkpt>
      <trkpt lat="44.98434" lon="4.67816">
        <ele>475</ele>
        <time>2018-05-02T11:31:06+02:00</time>
      </trkpt>
      <trkpt lat="44.98438" lon="4.6782">
        <ele>475</ele>
        <time>2018-05-02T11:31:09+02:00</time>
      </trkpt>
      <trkpt lat="44.98447" lon="4.67828">
        <ele>475</ele>
        <time>2018-05-02T11:31:17+02:00</time>
      </trkpt>
      <trkpt lat="44.9845" lon="4.67832">
        <ele>475</ele>
        <time>2018-05-02T11:31:21+02:00</time>
      </trkpt>
      <trkpt lat="44.98458" lon="4.67839">
        <ele>475</ele>
        <time>2018-05-02T11:31:29+02:00</time>
      </trkpt>
      <trkpt lat="44.98465" lon="4.67847">
        <ele>475</ele>
        <time>2018-05-02T11:31:36+02:00</time>
      </trkpt>
      <trkpt lat="44.98474" lon="4.67852">
        <ele>474</ele>
        <time>2018-05-02T11:31:43+02:00</time>
      </trkpt>
      <trkpt lat="44.98484" lon="4.67856">
        <ele>474</ele>
        <time>2018-05-02T11:31:51+02:00</time>
      </trkpt>
      <trkpt lat="44.98493" lon="4.67861">
        <ele>473</ele>
        <time>2018-05-02T11:31:58+02:00</time>
      </trkpt>
      <trkpt lat="44.98498" lon="4.67863">
        <ele>473</ele>
        <time>2018-05-02T11:32:02+02:00</time>
      </trkpt>
      <trkpt lat="44.9851" lon="4.6787">
        <ele>472</ele>
        <time>2018-05-02T11:32:11+02:00</time>
      </trkpt>
      <trkpt lat="44.9852" lon="4.67877">
        <ele>472</ele>
        <time>2018-05-02T11:32:20+02:00</time>
      </trkpt>
      <trkpt lat="44.98521" lon="4.67878">
        <ele>472</ele>
        <time>2018-05-02T11:32:21+02:00</time>
      </trkpt>
      <trkpt lat="44.98531" lon="4.67884">
        <ele>471</ele>
        <time>2018-05-02T11:32:28+02:00</time>
      </trkpt>
      <trkpt lat="44.98545" lon="4.67892">
        <ele>470</ele>
        <time>2018-05-02T11:32:37+02:00</time>
      </trkpt>
      <trkpt lat="44.98553" lon="4.67894">
        <ele>469</ele>
        <time>2018-05-02T11:32:42+02:00</time>
      </trkpt>
      <trkpt lat="44.98562" lon="4.67897">
        <ele>468</ele>
        <time>2018-05-02T11:32:49+02:00</time>
      </trkpt>
      <trkpt lat="44.98566" lon="4.67898">
        <ele>468</ele>
        <time>2018-05-02T11:32:52+02:00</time>
      </trkpt>
      <trkpt lat="44.98574" lon="4.67903">
        <ele>467</ele>
        <time>2018-05-02T11:32:58+02:00</time>
      </trkpt>
      <trkpt lat="44.98579" lon="4.67918">
        <ele>467</ele>
        <time>2018-05-02T11:33:07+02:00</time>
      </trkpt>
      <trkpt lat="44.98578" lon="4.67921">
        <ele>467</ele>
        <time>2018-05-02T11:33:09+02:00</time>
      </trkpt>
      <trkpt lat="44.9857" lon="4.6793">
        <ele>468</ele>
        <time>2018-05-02T11:33:15+02:00</time>
      </trkpt>
      <trkpt lat="44.98568" lon="4.67933">
        <ele>469</ele>
        <time>2018-05-02T11:33:17+02:00</time>
      </trkpt>
      <trkpt lat="44.98558" lon="4.67941">
        <ele>470</ele>
        <time>2018-05-02T11:33:25+02:00</time>
      </trkpt>
      <trkpt lat="44.98556" lon="4.67943">
        <ele>470</ele>
        <time>2018-05-02T11:33:28+02:00</time>
      </trkpt>
      <trkpt lat="44.98557" lon="4.67953">
        <ele>471</ele>
        <time>2018-05-02T11:33:33+02:00</time>
      </trkpt>
      <trkpt lat="44.98563" lon="4.67964">
        <ele>470</ele>
        <time>2018-05-02T11:33:40+02:00</time>
      </trkpt>
      <trkpt lat="44.98573" lon="4.67963">
        <ele>469</ele>
        <time>2018-05-02T11:33:46+02:00</time>
      </trkpt>
      <trkpt lat="44.98584" lon="4.67959">
        <ele>468</ele>
        <time>2018-05-02T11:33:55+02:00</time>
      </trkpt>
      <trkpt lat="44.98594" lon="4.67956">
        <ele>467</ele>
        <time>2018-05-02T11:34:02+02:00</time>
      </trkpt>
      <trkpt lat="44.98604" lon="4.67953">
        <ele>467</ele>
        <time>2018-05-02T11:34:09+02:00</time>
      </trkpt>
      <trkpt lat="44.98611" lon="4.67947">
        <ele>467</ele>
        <time>2018-05-02T11:34:16+02:00</time>
      </trkpt>
      <trkpt lat="44.98623" lon="4.67946">
        <ele>467</ele>
        <time>2018-05-02T11:34:23+02:00</time>
      </trkpt>
      <trkpt lat="44.98633" lon="4.67945">
        <ele>466</ele>
        <time>2018-05-02T11:34:30+02:00</time>
      </trkpt>
      <trkpt lat="44.98642" lon="4.67942">
        <ele>466</ele>
        <time>2018-05-02T11:34:36+02:00</time>
      </trkpt>
      <trkpt lat="44.98652" lon="4.67937">
        <ele>466</ele>
        <time>2018-05-02T11:34:44+02:00</time>
      </trkpt>
      <trkpt lat="44.98664" lon="4.67929">
        <ele>465</ele>
        <time>2018-05-02T11:34:52+02:00</time>
      </trkpt>
      <trkpt lat="44.98668" lon="4.67929">
        <ele>465</ele>
        <time>2018-05-02T11:34:55+02:00</time>
      </trkpt>
      <trkpt lat="44.98674" lon="4.67931">
        <ele>465</ele>
        <time>2018-05-02T11:35:00+02:00</time>
      </trkpt>
      <trkpt lat="44.98678" lon="4.67946">
        <ele>466</ele>
        <time>2018-05-02T11:35:10+02:00</time>
      </trkpt>
      <trkpt lat="44.9868" lon="4.67957">
        <ele>466</ele>
        <time>2018-05-02T11:35:16+02:00</time>
      </trkpt>
      <trkpt lat="44.98678" lon="4.67963">
        <ele>466</ele>
        <time>2018-05-02T11:35:19+02:00</time>
      </trkpt>
      <trkpt lat="44.98676" lon="4.67977">
        <ele>467</ele>
        <time>2018-05-02T11:35:25+02:00</time>
      </trkpt>
      <trkpt lat="44.98675" lon="4.67983">
        <ele>467</ele>
        <time>2018-05-02T11:35:29+02:00</time>
      </trkpt>
      <trkpt lat="44.98669" lon="4.67993">
        <ele>468</ele>
        <time>2018-05-02T11:35:37+02:00</time>
      </trkpt>
      <trkpt lat="44.98669" lon="4.67995">
        <ele>468</ele>
        <time>2018-05-02T11:35:38+02:00</time>
      </trkpt>
      <trkpt lat="44.98664" lon="4.68007">
        <ele>468</ele>
        <time>2018-05-02T11:35:46+02:00</time>
      </trkpt>
      <trkpt lat="44.98658" lon="4.68019">
        <ele>469</ele>
        <time>2018-05-02T11:35:54+02:00</time>
      </trkpt>
      <trkpt lat="44.98655" lon="4.6803">
        <ele>469</ele>
        <time>2018-05-02T11:36:01+02:00</time>
      </trkpt>
      <trkpt lat="44.98653" lon="4.68033">
        <ele>469</ele>
        <time>2018-05-02T11:36:03+02:00</time>
      </trkpt>
      <trkpt lat="44.98651" lon="4.68038">
        <ele>469</ele>
        <time>2018-05-02T11:36:06+02:00</time>
      </trkpt>
      <trkpt lat="44.98649" lon="4.6805">
        <ele>470</ele>
        <time>2018-05-02T11:36:13+02:00</time>
      </trkpt>
      <trkpt lat="44.98648" lon="4.68059">
        <ele>470</ele>
        <time>2018-05-02T11:36:18+02:00</time>
      </trkpt>
      <trkpt lat="44.98647" lon="4.68068">
        <ele>470</ele>
        <time>2018-05-02T11:36:23+02:00</time>
      </trkpt>
      <trkpt lat="44.98646" lon="4.68073">
        <ele>471</ele>
        <time>2018-05-02T11:36:26+02:00</time>
      </trkpt>
      <trkpt lat="44.98646" lon="4.68086">
        <ele>471</ele>
        <time>2018-05-02T11:36:34+02:00</time>
      </trkpt>
      <trkpt lat="44.98647" lon="4.68094">
        <ele>472</ele>
        <time>2018-05-02T11:36:39+02:00</time>
      </trkpt>
      <trkpt lat="44.98647" lon="4.68101">
        <ele>473</ele>
        <time>2018-05-02T11:36:43+02:00</time>
      </trkpt>
      <trkpt lat="44.98647" lon="4.68106">
        <ele>473</ele>
        <time>2018-05-02T11:36:46+02:00</time>
      </trkpt>
      <trkpt lat="44.98648" lon="4.68109">
        <ele>473</ele>
        <time>2018-05-02T11:36:48+02:00</time>
      </trkpt>
      <trkpt lat="44.98649" lon="4.68114">
        <ele>474</ele>
        <time>2018-05-02T11:36:51+02:00</time>
      </trkpt>
      <trkpt lat="44.98651" lon="4.68119">
        <ele>474</ele>
        <time>2018-05-02T11:36:54+02:00</time>
      </trkpt>
      <trkpt lat="44.98652" lon="4.68124">
        <ele>474</ele>
        <time>2018-05-02T11:36:58+02:00</time>
      </trkpt>
      <trkpt lat="44.98659" lon="4.6814">
        <ele>475</ele>
        <time>2018-05-02T11:37:08+02:00</time>
      </trkpt>
      <trkpt lat="44.98663" lon="4.68152">
        <ele>476</ele>
        <time>2018-05-02T11:37:16+02:00</time>
      </trkpt>
      <trkpt lat="44.98664" lon="4.68154">
        <ele>476</ele>
        <time>2018-05-02T11:37:18+02:00</time>
      </trkpt>
      <trkpt lat="44.98669" lon="4.68167">
        <ele>477</ele>
        <time>2018-05-02T11:37:26+02:00</time>
      </trkpt>
      <trkpt lat="44.98674" lon="4.68181">
        <ele>477</ele>
        <time>2018-05-02T11:37:35+02:00</time>
      </trkpt>
      <trkpt lat="44.98677" lon="4.68195">
        <ele>478</ele>
        <time>2018-05-02T11:37:43+02:00</time>
      </trkpt>
      <trkpt lat="44.9868" lon="4.6821">
        <ele>479</ele>
        <time>2018-05-02T11:37:52+02:00</time>
      </trkpt>
      <trkpt lat="44.98681" lon="4.68211">
        <ele>479</ele>
        <time>2018-05-02T11:37:53+02:00</time>
      </trkpt>
      <trkpt lat="44.98682" lon="4.68226">
        <ele>480</ele>
        <time>2018-05-02T11:38:01+02:00</time>
      </trkpt>
      <trkpt lat="44.98682" lon="4.68237">
        <ele>481</ele>
        <time>2018-05-02T11:38:08+02:00</time>
      </trkpt>
      <trkpt lat="44.98682" lon="4.68245">
        <ele>481</ele>
        <time>2018-05-02T11:38:14+02:00</time>
      </trkpt>
      <trkpt lat="44.98681" lon="4.6826">
        <ele>482</ele>
        <time>2018-05-02T11:38:23+02:00</time>
      </trkpt>
      <trkpt lat="44.9868" lon="4.68264">
        <ele>482</ele>
        <time>2018-05-02T11:38:26+02:00</time>
      </trkpt>
      <trkpt lat="44.9868" lon="4.68279">
        <ele>482</ele>
        <time>2018-05-02T11:38:35+02:00</time>
      </trkpt>
      <trkpt lat="44.98679" lon="4.68283">
        <ele>482</ele>
        <time>2018-05-02T11:38:37+02:00</time>
      </trkpt>
      <trkpt lat="44.98676" lon="4.68297">
        <ele>483</ele>
        <time>2018-05-02T11:38:45+02:00</time>
      </trkpt>
      <trkpt lat="44.98673" lon="4.6831">
        <ele>484</ele>
        <time>2018-05-02T11:38:52+02:00</time>
      </trkpt>
      <trkpt lat="44.98669" lon="4.68324">
        <ele>484</ele>
        <time>2018-05-02T11:39:01+02:00</time>
      </trkpt>
      <trkpt lat="44.98667" lon="4.68338">
        <ele>485</ele>
        <time>2018-05-02T11:39:09+02:00</time>
      </trkpt>
      <trkpt lat="44.98666" lon="4.68352">
        <ele>486</ele>
        <time>2018-05-02T11:39:16+02:00</time>
      </trkpt>
      <trkpt lat="44.98664" lon="4.68367">
        <ele>486</ele>
        <time>2018-05-02T11:39:24+02:00</time>
      </trkpt>
      <trkpt lat="44.98662" lon="4.68383">
        <ele>487</ele>
        <time>2018-05-02T11:39:33+02:00</time>
      </trkpt>
      <trkpt lat="44.9866" lon="4.68394">
        <ele>488</ele>
        <time>2018-05-02T11:39:39+02:00</time>
      </trkpt>
      <trkpt lat="44.98659" lon="4.68411">
        <ele>489</ele>
        <time>2018-05-02T11:39:49+02:00</time>
      </trkpt>
      <trkpt lat="44.98657" lon="4.68426">
        <ele>489</ele>
        <time>2018-05-02T11:39:58+02:00</time>
      </trkpt>
      <trkpt lat="44.98657" lon="4.68428">
        <ele>489</ele>
        <time>2018-05-02T11:39:59+02:00</time>
      </trkpt>
      <trkpt lat="44.98656" lon="4.68441">
        <ele>489</ele>
        <time>2018-05-02T11:40:07+02:00</time>
      </trkpt>
      <trkpt lat="44.98657" lon="4.68457">
        <ele>488</ele>
        <time>2018-05-02T11:40:15+02:00</time>
      </trkpt>
      <trkpt lat="44.98654" lon="4.68487">
        <ele>488</ele>
        <time>2018-05-02T11:40:33+02:00</time>
      </trkpt>
      <trkpt lat="44.98648" lon="4.68499">
        <ele>489</ele>
        <time>2018-05-02T11:40:41+02:00</time>
      </trkpt>
      <trkpt lat="44.98639" lon="4.68512">
        <ele>490</ele>
        <time>2018-05-02T11:40:51+02:00</time>
      </trkpt>
      <trkpt lat="44.98632" lon="4.68524">
        <ele>490</ele>
        <time>2018-05-02T11:41:01+02:00</time>
      </trkpt>
      <trkpt lat="44.98625" lon="4.68536">
        <ele>490</ele>
        <time>2018-05-02T11:41:10+02:00</time>
      </trkpt>
      <trkpt lat="44.98625" lon="4.68537">
        <ele>490</ele>
        <time>2018-05-02T11:41:11+02:00</time>
      </trkpt>
      <trkpt lat="44.98619" lon="4.68541">
        <ele>491</ele>
        <time>2018-05-02T11:41:15+02:00</time>
      </trkpt>
      <trkpt lat="44.98611" lon="4.68555">
        <ele>491</ele>
        <time>2018-05-02T11:41:23+02:00</time>
      </trkpt>
      <trkpt lat="44.98603" lon="4.68567">
        <ele>491</ele>
        <time>2018-05-02T11:41:32+02:00</time>
      </trkpt>
      <trkpt lat="44.98598" lon="4.68575">
        <ele>491</ele>
        <time>2018-05-02T11:41:39+02:00</time>
      </trkpt>
      <trkpt lat="44.98593" lon="4.68583">
        <ele>491</ele>
        <time>2018-05-02T11:41:46+02:00</time>
      </trkpt>
      <trkpt lat="44.98588" lon="4.68596">
        <ele>491</ele>
        <time>2018-05-02T11:43:25+02:00</time>
      </trkpt>
      <trkpt lat="44.98587" lon="4.68599">
        <ele>491</ele>
        <time>2018-05-02T11:43:32+02:00</time>
      </trkpt>
      <trkpt lat="44.98585" lon="4.68624">
        <ele>491</ele>
        <time>2018-05-02T11:43:53+02:00</time>
      </trkpt>
      <trkpt lat="44.98584" lon="4.68636">
        <ele>491</ele>
        <time>2018-05-02T11:44:00+02:00</time>
      </trkpt>
      <trkpt lat="44.98588" lon="4.68658">
        <ele>490</ele>
        <time>2018-05-02T11:44:10+02:00</time>
      </trkpt>
      <trkpt lat="44.9859" lon="4.68668">
        <ele>490</ele>
        <time>2018-05-02T11:44:16+02:00</time>
      </trkpt>
      <trkpt lat="44.98591" lon="4.68686">
        <ele>491</ele>
        <time>2018-05-02T11:44:25+02:00</time>
      </trkpt>
      <trkpt lat="44.98592" lon="4.68696">
        <ele>491</ele>
        <time>2018-05-02T11:44:32+02:00</time>
      </trkpt>
      <trkpt lat="44.98597" lon="4.68708">
        <ele>491</ele>
        <time>2018-05-02T11:44:41+02:00</time>
      </trkpt>
      <trkpt lat="44.98599" lon="4.68718">
        <ele>492</ele>
        <time>2018-05-02T11:44:48+02:00</time>
      </trkpt>
      <trkpt lat="44.98601" lon="4.68733">
        <ele>492</ele>
        <time>2018-05-02T11:44:56+02:00</time>
      </trkpt>
      <trkpt lat="44.98604" lon="4.68746">
        <ele>493</ele>
        <time>2018-05-02T11:45:04+02:00</time>
      </trkpt>
      <trkpt lat="44.98609" lon="4.68765">
        <ele>492</ele>
        <time>2018-05-02T11:45:15+02:00</time>
      </trkpt>
      <trkpt lat="44.98609" lon="4.68779">
        <ele>492</ele>
        <time>2018-05-02T11:45:18+02:00</time>
      </trkpt>
      <trkpt lat="44.9861" lon="4.68797">
        <ele>492</ele>
        <time>2018-05-02T11:45:27+02:00</time>
      </trkpt>
    </trkseg>
  </trk>
</gpx>